<?xml version='1.0' encoding='UTF-8'?><gpx version="1.1" creator="JPX - https://github.com/jenetics/jpx" xmlns="http://www.topografix.com/GPX/1/1"><trk><trkseg><trkpt lat="43.323906425362104" lon="5.45294443472402"><ele>132.25</ele><time>2026-03-24T14:54:58Z</time></trkpt><trkpt lat="43.323853654999716" lon="5.453029628484501"><ele>132.5</ele><time>2026-03-24T14:54:59Z</time></trkpt><trkpt lat="43.32379831310872" lon="5.453138080109632"><ele>132.75</ele><time>2026-03-24T14:55:00Z</time></trkpt><trkpt lat="43.323725017566304" lon="5.453310994334579"><ele>133.0</ele><time>2026-03-24T14:55:01Z</time></trkpt><trkpt lat="43.32361524500107" lon="5.4535185709977"><ele>133.0</ele><time>2026-03-24T14:55:02Z</time></trkpt><trkpt lat="43.32349566670797" lon="5.453727919769745"><ele>133.0</ele><time>2026-03-24T14:55:03Z</time></trkpt><trkpt lat="43.323367262618824" lon="5.4539539996747886"><ele>133.0</ele><time>2026-03-24T14:55:04Z</time></trkpt><trkpt lat="43.323250761525834" lon="5.45415507141061"><ele>133.25</ele><time>2026-03-24T14:55:05Z</time></trkpt><trkpt lat="43.32315908086745" lon="5.454326152496343"><ele>133.5</ele><time>2026-03-24T14:55:06Z</time></trkpt><trkpt lat="43.32306695281575" lon="5.454472815622485"><ele>133.75</ele><time>2026-03-24T14:55:07Z</time></trkpt><trkpt lat="43.322994944818035" lon="5.454624024333809"><ele>134.0</ele><time>2026-03-24T14:55:08Z</time></trkpt><trkpt lat="43.322923328012656" lon="5.454799215789822"><ele>134.33333333333331</ele><time>2026-03-24T14:55:09Z</time></trkpt><trkpt lat="43.32282915393817" lon="5.455007391897221"><ele>134.66666666666666</ele><time>2026-03-24T14:55:10Z</time></trkpt><trkpt lat="43.32275501174926" lon="5.455184546459016"><ele>135.0</ele><time>2026-03-24T14:55:11Z</time></trkpt><trkpt lat="43.322700427032494" lon="5.455352369615799"><ele>135.0</ele><time>2026-03-24T14:55:12Z</time></trkpt><trkpt lat="43.322653781736484" lon="5.455533435881564"><ele>135.0</ele><time>2026-03-24T14:55:13Z</time></trkpt><trkpt lat="43.32260894160645" lon="5.455733678929526"><ele>135.0</ele><time>2026-03-24T14:55:14Z</time></trkpt><trkpt lat="43.32255479135284" lon="5.455958882882242"><ele>135.0</ele><time>2026-03-24T14:55:15Z</time></trkpt><trkpt lat="43.32251622537572" lon="5.45614350768684"><ele>135.0</ele><time>2026-03-24T14:55:16Z</time></trkpt><trkpt lat="43.32248644363275" lon="5.456302477666103"><ele>135.0</ele><time>2026-03-24T14:55:17Z</time></trkpt><trkpt lat="43.32245957258142" lon="5.456440515429748"><ele>135.0</ele><time>2026-03-24T14:55:18Z</time></trkpt><trkpt lat="43.32242218554487" lon="5.456617544154351"><ele>135.6</ele><time>2026-03-24T14:55:19Z</time></trkpt><trkpt lat="43.32236866545328" lon="5.456791328028497"><ele>136.2</ele><time>2026-03-24T14:55:20Z</time></trkpt><trkpt lat="43.322325870779075" lon="5.456927178144824"><ele>136.8</ele><time>2026-03-24T14:55:21Z</time></trkpt><trkpt lat="43.32228270073991" lon="5.457046601923473"><ele>137.4</ele><time>2026-03-24T14:55:22Z</time></trkpt><trkpt lat="43.32221742354656" lon="5.4571517332387725"><ele>138.0</ele><time>2026-03-24T14:55:23Z</time></trkpt><trkpt lat="43.322101302037815" lon="5.457207587725806"><ele>138.25</ele><time>2026-03-24T14:55:24Z</time></trkpt><trkpt lat="43.3220302441511" lon="5.457309203387428"><ele>138.5</ele><time>2026-03-24T14:55:25Z</time></trkpt><trkpt lat="43.32196501231413" lon="5.4574176756659325"><ele>138.75</ele><time>2026-03-24T14:55:26Z</time></trkpt><trkpt lat="43.321854076134684" lon="5.457517575307773"><ele>139.0</ele><time>2026-03-24T14:55:27Z</time></trkpt><trkpt lat="43.32171127351735" lon="5.4576097993356845"><ele>139.0</ele><time>2026-03-24T14:55:28Z</time></trkpt><trkpt lat="43.321523971490954" lon="5.457733558136915"><ele>139.0</ele><time>2026-03-24T14:55:29Z</time></trkpt><trkpt lat="43.321358884416284" lon="5.457848974379976"><ele>139.0</ele><time>2026-03-24T14:55:30Z</time></trkpt><trkpt lat="43.32122255904161" lon="5.457924933571609"><ele>139.5</ele><time>2026-03-24T14:55:31Z</time></trkpt><trkpt lat="43.321103105515604" lon="5.4580114929834584"><ele>140.0</ele><time>2026-03-24T14:55:32Z</time></trkpt><trkpt lat="43.32098522749057" lon="5.458085669583275"><ele>140.5</ele><time>2026-03-24T14:55:33Z</time></trkpt><trkpt lat="43.32085313625714" lon="5.458164539848043"><ele>141.0</ele><time>2026-03-24T14:55:34Z</time></trkpt><trkpt lat="43.320721049219934" lon="5.458252226054966"><ele>141.0</ele><time>2026-03-24T14:55:35Z</time></trkpt><trkpt lat="43.3205734562419" lon="5.4583358855068"><ele>141.0</ele><time>2026-03-24T14:55:36Z</time></trkpt><trkpt lat="43.32042853257182" lon="5.458431497838664"><ele>141.0</ele><time>2026-03-24T14:55:37Z</time></trkpt><trkpt lat="43.32029593532153" lon="5.458523903738012"><ele>142.33333333333334</ele><time>2026-03-24T14:55:38Z</time></trkpt><trkpt lat="43.32014466153672" lon="5.458598700874338"><ele>143.66666666666669</ele><time>2026-03-24T14:55:39Z</time></trkpt><trkpt lat="43.32000466123211" lon="5.458686662616357"><ele>145.0</ele><time>2026-03-24T14:55:40Z</time></trkpt><trkpt lat="43.319867491620144" lon="5.458772845910894"><ele>145.66666666666669</ele><time>2026-03-24T14:55:41Z</time></trkpt><trkpt lat="43.3197395743963" lon="5.458866192117475"><ele>146.33333333333334</ele><time>2026-03-24T14:55:42Z</time></trkpt><trkpt lat="43.319576708518305" lon="5.458955006945807"><ele>147.0</ele><time>2026-03-24T14:55:43Z</time></trkpt><trkpt lat="43.31942705275749" lon="5.459019152221944"><ele>147.0</ele><time>2026-03-24T14:55:44Z</time></trkpt><trkpt lat="43.31928593706297" lon="5.459115617045546"><ele>147.0</ele><time>2026-03-24T14:55:45Z</time></trkpt><trkpt lat="43.319149729525556" lon="5.45921573487875"><ele>147.0</ele><time>2026-03-24T14:55:46Z</time></trkpt><trkpt lat="43.31901474708502" lon="5.459304883862815"><ele>147.79999999999998</ele><time>2026-03-24T14:55:47Z</time></trkpt><trkpt lat="43.31890061160072" lon="5.459373895135313"><ele>148.6</ele><time>2026-03-24T14:55:48Z</time></trkpt><trkpt lat="43.31880732781681" lon="5.459447802299851"><ele>149.39999999999998</ele><time>2026-03-24T14:55:49Z</time></trkpt><trkpt lat="43.31871517412475" lon="5.459495580737846"><ele>150.2</ele><time>2026-03-24T14:55:50Z</time></trkpt><trkpt lat="43.31863243309912" lon="5.459540156346731"><ele>151.0</ele><time>2026-03-24T14:55:51Z</time></trkpt><trkpt lat="43.31854856497125" lon="5.459598560297441"><ele>151.2</ele><time>2026-03-24T14:55:52Z</time></trkpt><trkpt lat="43.3184771851118" lon="5.459641666171348"><ele>151.39999999999998</ele><time>2026-03-24T14:55:53Z</time></trkpt><trkpt lat="43.31841562284337" lon="5.4596840019071"><ele>151.6</ele><time>2026-03-24T14:55:54Z</time></trkpt><trkpt lat="43.31834865159903" lon="5.459738308460894"><ele>151.79999999999998</ele><time>2026-03-24T14:55:55Z</time></trkpt><trkpt lat="43.31824269008357" lon="5.459800814042702"><ele>152.0</ele><time>2026-03-24T14:55:56Z</time></trkpt><trkpt lat="43.31812042247096" lon="5.459891294562607"><ele>152.0</ele><time>2026-03-24T14:55:57Z</time></trkpt><trkpt lat="43.317986851125305" lon="5.459979939240701"><ele>152.0</ele><time>2026-03-24T14:55:58Z</time></trkpt><trkpt lat="43.31785854365834" lon="5.460057185407779"><ele>152.0</ele><time>2026-03-24T14:55:59Z</time></trkpt><trkpt lat="43.317743442846826" lon="5.460127103361077"><ele>152.0</ele><time>2026-03-24T14:56:00Z</time></trkpt><trkpt lat="43.317626792184996" lon="5.46020050635083"><ele>152.0</ele><time>2026-03-24T14:56:01Z</time></trkpt><trkpt lat="43.31750026533558" lon="5.460280577079958"><ele>152.0</ele><time>2026-03-24T14:56:02Z</time></trkpt><trkpt lat="43.31737669395184" lon="5.460365002981205"><ele>152.0</ele><time>2026-03-24T14:56:03Z</time></trkpt><trkpt lat="43.31726814821944" lon="5.460443075862896"><ele>152.0</ele><time>2026-03-24T14:56:04Z</time></trkpt><trkpt lat="43.31716316058221" lon="5.460509518895474"><ele>152.0</ele><time>2026-03-24T14:56:05Z</time></trkpt><trkpt lat="43.31706672027386" lon="5.460580838400084"><ele>152.0</ele><time>2026-03-24T14:56:06Z</time></trkpt><trkpt lat="43.316958929420295" lon="5.460613394570452"><ele>152.0</ele><time>2026-03-24T14:56:07Z</time></trkpt><trkpt lat="43.31686049685043" lon="5.460676209833607"><ele>152.0</ele><time>2026-03-24T14:56:08Z</time></trkpt><trkpt lat="43.31677520829425" lon="5.460730408659309"><ele>152.0</ele><time>2026-03-24T14:56:09Z</time></trkpt><trkpt lat="43.31669743081861" lon="5.460814724650846"><ele>152.0</ele><time>2026-03-24T14:56:10Z</time></trkpt><trkpt lat="43.31658814014272" lon="5.4608781157193516"><ele>152.0</ele><time>2026-03-24T14:56:11Z</time></trkpt><trkpt lat="43.31648380303128" lon="5.460946374143194"><ele>152.0</ele><time>2026-03-24T14:56:12Z</time></trkpt><trkpt lat="43.3163917675412" lon="5.461003570043702"><ele>152.0</ele><time>2026-03-24T14:56:13Z</time></trkpt><trkpt lat="43.31629173453872" lon="5.461054940119427"><ele>152.0</ele><time>2026-03-24T14:56:14Z</time></trkpt><trkpt lat="43.31616746205424" lon="5.461125308517199"><ele>152.25</ele><time>2026-03-24T14:56:15Z</time></trkpt><trkpt lat="43.31603669396826" lon="5.461200184854346"><ele>152.5</ele><time>2026-03-24T14:56:16Z</time></trkpt><trkpt lat="43.31592266355553" lon="5.4612722874471835"><ele>152.75</ele><time>2026-03-24T14:56:17Z</time></trkpt><trkpt lat="43.31581078749383" lon="5.461346040172646"><ele>153.0</ele><time>2026-03-24T14:56:18Z</time></trkpt><trkpt lat="43.315704437933945" lon="5.461468847421547"><ele>154.33333333333334</ele><time>2026-03-24T14:56:19Z</time></trkpt><trkpt lat="43.31556713362357" lon="5.461565594308109"><ele>155.66666666666669</ele><time>2026-03-24T14:56:20Z</time></trkpt><trkpt lat="43.31541281757562" lon="5.461674753474419"><ele>157.0</ele><time>2026-03-24T14:56:21Z</time></trkpt><trkpt lat="43.315260390531016" lon="5.461780896763694"><ele>157.0</ele><time>2026-03-24T14:56:22Z</time></trkpt><trkpt lat="43.31514663280952" lon="5.461868276502336"><ele>157.0</ele><time>2026-03-24T14:56:23Z</time></trkpt><trkpt lat="43.31503454214934" lon="5.46196076048501"><ele>157.0</ele><time>2026-03-24T14:56:24Z</time></trkpt><trkpt lat="43.31491792532386" lon="5.462063810116385"><ele>157.0</ele><time>2026-03-24T14:56:25Z</time></trkpt><trkpt lat="43.314803654399924" lon="5.462154757713708"><ele>157.0</ele><time>2026-03-24T14:56:26Z</time></trkpt><trkpt lat="43.31467189890888" lon="5.462265250041476"><ele>157.0</ele><time>2026-03-24T14:56:27Z</time></trkpt><trkpt lat="43.31456182575197" lon="5.4623634049705405"><ele>157.0</ele><time>2026-03-24T14:56:28Z</time></trkpt><trkpt lat="43.31445733067422" lon="5.462460547592699"><ele>157.0</ele><time>2026-03-24T14:56:29Z</time></trkpt><trkpt lat="43.31434660323318" lon="5.4625556246279245"><ele>157.0</ele><time>2026-03-24T14:56:30Z</time></trkpt><trkpt lat="43.31423417284473" lon="5.462654073024341"><ele>157.0</ele><time>2026-03-24T14:56:31Z</time></trkpt><trkpt lat="43.314114511195136" lon="5.462760322862274"><ele>157.0</ele><time>2026-03-24T14:56:32Z</time></trkpt><trkpt lat="43.31401356993798" lon="5.462860960001805"><ele>157.0</ele><time>2026-03-24T14:56:33Z</time></trkpt><trkpt lat="43.313912515978096" lon="5.462963970450821"><ele>157.16666666666669</ele><time>2026-03-24T14:56:34Z</time></trkpt><trkpt lat="43.313815532085925" lon="5.463036408289893"><ele>157.33333333333334</ele><time>2026-03-24T14:56:35Z</time></trkpt><trkpt lat="43.3137486533144" lon="5.4631038843817095"><ele>157.5</ele><time>2026-03-24T14:56:36Z</time></trkpt><trkpt lat="43.31369255302693" lon="5.463161246332973"><ele>157.66666666666666</ele><time>2026-03-24T14:56:37Z</time></trkpt><trkpt lat="43.31362056222112" lon="5.463236610897011"><ele>157.83333333333331</ele><time>2026-03-24T14:56:39Z</time></trkpt><trkpt lat="43.313551887385614" lon="5.463303140508913"><ele>158.0</ele><time>2026-03-24T14:56:40Z</time></trkpt><trkpt lat="43.313489483471145" lon="5.463373495519913"><ele>158.0</ele><time>2026-03-24T14:56:41Z</time></trkpt><trkpt lat="43.31343248883584" lon="5.463421668463602"><ele>158.0</ele><time>2026-03-24T14:56:42Z</time></trkpt><trkpt lat="43.313334666673676" lon="5.463550732699166"><ele>158.0</ele><time>2026-03-24T14:56:44Z</time></trkpt><trkpt lat="43.313278899458616" lon="5.463611413731864"><ele>158.0</ele><time>2026-03-24T14:56:45Z</time></trkpt><trkpt lat="43.313185480915635" lon="5.463693359663269"><ele>158.0</ele><time>2026-03-24T14:56:47Z</time></trkpt><trkpt lat="43.31305431266692" lon="5.463805193316048"><ele>159.5</ele><time>2026-03-24T14:56:49Z</time></trkpt><trkpt lat="43.31296499927639" lon="5.46387515251495"><ele>161.0</ele><time>2026-03-24T14:56:50Z</time></trkpt><trkpt lat="43.31287212488177" lon="5.4639545583561215"><ele>162.5</ele><time>2026-03-24T14:56:51Z</time></trkpt><trkpt lat="43.312772074695" lon="5.464036497333415"><ele>164.0</ele><time>2026-03-24T14:56:52Z</time></trkpt><trkpt lat="43.31266109616683" lon="5.464128618798029"><ele>164.0</ele><time>2026-03-24T14:56:53Z</time></trkpt><trkpt lat="43.31252739087927" lon="5.464170493124608"><ele>164.0</ele><time>2026-03-24T14:56:54Z</time></trkpt><trkpt lat="43.31238950288828" lon="5.464253124108024"><ele>164.0</ele><time>2026-03-24T14:56:55Z</time></trkpt><trkpt lat="43.31225111299829" lon="5.464346470045318"><ele>164.0</ele><time>2026-03-24T14:56:56Z</time></trkpt><trkpt lat="43.312098753523735" lon="5.464432560995918"><ele>164.5</ele><time>2026-03-24T14:56:57Z</time></trkpt><trkpt lat="43.31198297598409" lon="5.464509319290551"><ele>165.0</ele><time>2026-03-24T14:56:58Z</time></trkpt><trkpt lat="43.311876763999784" lon="5.464578838048357"><ele>165.5</ele><time>2026-03-24T14:56:59Z</time></trkpt><trkpt lat="43.31177777710541" lon="5.46463723751271"><ele>166.0</ele><time>2026-03-24T14:57:00Z</time></trkpt><trkpt lat="43.311656824927354" lon="5.4647272054185905"><ele>164.75</ele><time>2026-03-24T14:57:01Z</time></trkpt><trkpt lat="43.311535333929974" lon="5.464812340206437"><ele>163.5</ele><time>2026-03-24T14:57:02Z</time></trkpt><trkpt lat="43.31140827543773" lon="5.46494695001195"><ele>162.25</ele><time>2026-03-24T14:57:03Z</time></trkpt><trkpt lat="43.31129589288398" lon="5.465025731197365"><ele>161.0</ele><time>2026-03-24T14:57:04Z</time></trkpt><trkpt lat="43.31116439847212" lon="5.465113976151001"><ele>160.25</ele><time>2026-03-24T14:57:05Z</time></trkpt><trkpt lat="43.31102215334722" lon="5.465226877769029"><ele>159.5</ele><time>2026-03-24T14:57:06Z</time></trkpt><trkpt lat="43.31089895886257" lon="5.465317334853087"><ele>158.75</ele><time>2026-03-24T14:57:07Z</time></trkpt><trkpt lat="43.31078959584567" lon="5.465415984912562"><ele>158.0</ele><time>2026-03-24T14:57:08Z</time></trkpt><trkpt lat="43.31067047057912" lon="5.465506285762071"><ele>155.66666666666666</ele><time>2026-03-24T14:57:09Z</time></trkpt><trkpt lat="43.31053829720447" lon="5.465623134721286"><ele>153.33333333333334</ele><time>2026-03-24T14:57:10Z</time></trkpt><trkpt lat="43.31040115638977" lon="5.465732456593971"><ele>151.0</ele><time>2026-03-24T14:57:11Z</time></trkpt><trkpt lat="43.31027437927504" lon="5.465826608371691"><ele>151.0</ele><time>2026-03-24T14:57:12Z</time></trkpt><trkpt lat="43.31015715462882" lon="5.465904566149273"><ele>151.0</ele><time>2026-03-24T14:57:13Z</time></trkpt><trkpt lat="43.310034808150846" lon="5.465987909271561"><ele>151.0</ele><time>2026-03-24T14:57:14Z</time></trkpt><trkpt lat="43.3099137755031" lon="5.46607945605587"><ele>151.0</ele><time>2026-03-24T14:57:15Z</time></trkpt><trkpt lat="43.309775863492135" lon="5.466185971152845"><ele>150.0</ele><time>2026-03-24T14:57:16Z</time></trkpt><trkpt lat="43.30963533546956" lon="5.466326625164475"><ele>149.0</ele><time>2026-03-24T14:57:17Z</time></trkpt><trkpt lat="43.30951154444964" lon="5.466444714492512"><ele>148.0</ele><time>2026-03-24T14:57:18Z</time></trkpt><trkpt lat="43.30936880801823" lon="5.466554718937015"><ele>148.0</ele><time>2026-03-24T14:57:19Z</time></trkpt><trkpt lat="43.30919664999859" lon="5.46666231360078"><ele>148.0</ele><time>2026-03-24T14:57:20Z</time></trkpt><trkpt lat="43.309039657486615" lon="5.466785822906304"><ele>148.0</ele><time>2026-03-24T14:57:21Z</time></trkpt><trkpt lat="43.30891159304593" lon="5.4669082096072845"><ele>147.75</ele><time>2026-03-24T14:57:22Z</time></trkpt><trkpt lat="43.30878505538477" lon="5.467007807242117"><ele>147.5</ele><time>2026-03-24T14:57:23Z</time></trkpt><trkpt lat="43.30866015264915" lon="5.467101452423235"><ele>147.25</ele><time>2026-03-24T14:57:24Z</time></trkpt><trkpt lat="43.308523434449626" lon="5.467191177479471"><ele>147.0</ele><time>2026-03-24T14:57:25Z</time></trkpt><trkpt lat="43.30839005626925" lon="5.467298732910326"><ele>146.25</ele><time>2026-03-24T14:57:26Z</time></trkpt><trkpt lat="43.30826206792973" lon="5.467409619640051"><ele>145.5</ele><time>2026-03-24T14:57:27Z</time></trkpt><trkpt lat="43.30815107247763" lon="5.467512155988058"><ele>144.75</ele><time>2026-03-24T14:57:28Z</time></trkpt><trkpt lat="43.308023318611895" lon="5.467635192728656"><ele>144.0</ele><time>2026-03-24T14:57:29Z</time></trkpt><trkpt lat="43.30790410971776" lon="5.467745081875644"><ele>142.33333333333334</ele><time>2026-03-24T14:57:30Z</time></trkpt><trkpt lat="43.307776020809584" lon="5.467859831872401"><ele>140.66666666666669</ele><time>2026-03-24T14:57:31Z</time></trkpt><trkpt lat="43.30765749930965" lon="5.467983727191794"><ele>139.0</ele><time>2026-03-24T14:57:32Z</time></trkpt><trkpt lat="43.30752557085558" lon="5.46810050390433"><ele>138.33333333333334</ele><time>2026-03-24T14:57:33Z</time></trkpt><trkpt lat="43.307404266042376" lon="5.468224673179454"><ele>137.66666666666666</ele><time>2026-03-24T14:57:34Z</time></trkpt><trkpt lat="43.30727513246239" lon="5.468367014716878"><ele>137.0</ele><time>2026-03-24T14:57:35Z</time></trkpt><trkpt lat="43.30715255153483" lon="5.468485307534605"><ele>136.25</ele><time>2026-03-24T14:57:36Z</time></trkpt><trkpt lat="43.307039819002725" lon="5.468612678547084"><ele>135.5</ele><time>2026-03-24T14:57:37Z</time></trkpt><trkpt lat="43.306935355590895" lon="5.468725032398801"><ele>134.75</ele><time>2026-03-24T14:57:38Z</time></trkpt><trkpt lat="43.30682543582699" lon="5.468841021895492"><ele>134.0</ele><time>2026-03-24T14:57:39Z</time></trkpt><trkpt lat="43.306720164673166" lon="5.468962300681212"><ele>133.5</ele><time>2026-03-24T14:57:40Z</time></trkpt><trkpt lat="43.30662462961004" lon="5.469079769302621"><ele>133.0</ele><time>2026-03-24T14:57:41Z</time></trkpt><trkpt lat="43.306526258548075" lon="5.469201596964634"><ele>132.5</ele><time>2026-03-24T14:57:42Z</time></trkpt><trkpt lat="43.30642638000243" lon="5.4693127917438105"><ele>132.0</ele><time>2026-03-24T14:57:43Z</time></trkpt><trkpt lat="43.30633804289534" lon="5.469423562826347"><ele>131.83333333333334</ele><time>2026-03-24T14:57:44Z</time></trkpt><trkpt lat="43.30625923893144" lon="5.469509291247552"><ele>131.66666666666666</ele><time>2026-03-24T14:57:45Z</time></trkpt><trkpt lat="43.306195052449816" lon="5.469590387127622"><ele>131.5</ele><time>2026-03-24T14:57:46Z</time></trkpt><trkpt lat="43.30613287042738" lon="5.46967238320122"><ele>131.33333333333331</ele><time>2026-03-24T14:57:47Z</time></trkpt><trkpt lat="43.306069667167336" lon="5.469720681170196"><ele>131.16666666666666</ele><time>2026-03-24T14:57:48Z</time></trkpt><trkpt lat="43.30598802676223" lon="5.4697343916021195"><ele>131.0</ele><time>2026-03-24T14:57:49Z</time></trkpt><trkpt lat="43.30589305132543" lon="5.469773892214278"><ele>130.6</ele><time>2026-03-24T14:57:50Z</time></trkpt><trkpt lat="43.30583322956188" lon="5.469845131978915"><ele>130.2</ele><time>2026-03-24T14:57:51Z</time></trkpt><trkpt lat="43.305793980074604" lon="5.469944696349871"><ele>129.8</ele><time>2026-03-24T14:57:52Z</time></trkpt><trkpt lat="43.30576445885253" lon="5.470062580486353"><ele>129.4</ele><time>2026-03-24T14:57:53Z</time></trkpt><trkpt lat="43.30569373521374" lon="5.47018629849033"><ele>129.0</ele><time>2026-03-24T14:57:54Z</time></trkpt><trkpt lat="43.305626761586794" lon="5.470271158898961"><ele>129.0</ele><time>2026-03-24T14:57:55Z</time></trkpt><trkpt lat="43.305553430179266" lon="5.470354686815178"><ele>129.0</ele><time>2026-03-24T14:57:56Z</time></trkpt><trkpt lat="43.30548272406023" lon="5.470456951248056"><ele>129.0</ele><time>2026-03-24T14:57:57Z</time></trkpt><trkpt lat="43.305394950262865" lon="5.470567257138387"><ele>129.0</ele><time>2026-03-24T14:57:58Z</time></trkpt><trkpt lat="43.305287756379066" lon="5.47072887984064"><ele>128.0</ele><time>2026-03-24T14:57:59Z</time></trkpt><trkpt lat="43.305155192171696" lon="5.47090226911058"><ele>127.0</ele><time>2026-03-24T14:58:00Z</time></trkpt><trkpt lat="43.30502248330505" lon="5.471084843539483"><ele>126.0</ele><time>2026-03-24T14:58:01Z</time></trkpt><trkpt lat="43.30490387430553" lon="5.47124539998379"><ele>126.0</ele><time>2026-03-24T14:58:02Z</time></trkpt><trkpt lat="43.30479071472202" lon="5.471402719145991"><ele>126.0</ele><time>2026-03-24T14:58:03Z</time></trkpt><trkpt lat="43.30469012751084" lon="5.471532234949273"><ele>126.0</ele><time>2026-03-24T14:58:04Z</time></trkpt><trkpt lat="43.30460235844881" lon="5.4716380383043575"><ele>126.0</ele><time>2026-03-24T14:58:05Z</time></trkpt><trkpt lat="43.304497290297945" lon="5.471801263073488"><ele>126.0</ele><time>2026-03-24T14:58:06Z</time></trkpt><trkpt lat="43.30437359061309" lon="5.471989567072712"><ele>126.0</ele><time>2026-03-24T14:58:07Z</time></trkpt><trkpt lat="43.30426216606597" lon="5.472142742212354"><ele>126.0</ele><time>2026-03-24T14:58:08Z</time></trkpt><trkpt lat="43.304158472160196" lon="5.472279248059512"><ele>126.0</ele><time>2026-03-24T14:58:09Z</time></trkpt><trkpt lat="43.30406504549276" lon="5.472401157284979"><ele>126.0</ele><time>2026-03-24T14:58:10Z</time></trkpt><trkpt lat="43.303972694313885" lon="5.4725267861838685"><ele>126.0</ele><time>2026-03-24T14:58:11Z</time></trkpt><trkpt lat="43.303881417316965" lon="5.472643618503291"><ele>126.0</ele><time>2026-03-24T14:58:12Z</time></trkpt><trkpt lat="43.303800052616864" lon="5.472757671309448"><ele>126.0</ele><time>2026-03-24T14:58:13Z</time></trkpt><trkpt lat="43.30371265099352" lon="5.47285991097769"><ele>126.0</ele><time>2026-03-24T14:58:14Z</time></trkpt><trkpt lat="43.303634902719466" lon="5.472967930758549"><ele>126.0</ele><time>2026-03-24T14:58:15Z</time></trkpt><trkpt lat="43.30357020714618" lon="5.47306186447545"><ele>126.0</ele><time>2026-03-24T14:58:16Z</time></trkpt><trkpt lat="43.30351183589846" lon="5.473137851611847"><ele>126.0</ele><time>2026-03-24T14:58:17Z</time></trkpt><trkpt lat="43.30345190378903" lon="5.473218098787458"><ele>124.83333333333333</ele><time>2026-03-24T14:58:18Z</time></trkpt><trkpt lat="43.30339487520007" lon="5.473283509945407"><ele>123.66666666666666</ele><time>2026-03-24T14:58:19Z</time></trkpt><trkpt lat="43.30328582600706" lon="5.473323673909646"><ele>122.5</ele><time>2026-03-24T14:58:21Z</time></trkpt><trkpt lat="43.30323314941933" lon="5.473373596093323"><ele>121.33333333333333</ele><time>2026-03-24T14:58:22Z</time></trkpt><trkpt lat="43.3031950877212" lon="5.47345079024121"><ele>120.16666666666666</ele><time>2026-03-24T14:58:23Z</time></trkpt><trkpt lat="43.30318824455627" lon="5.473542555692994"><ele>119.0</ele><time>2026-03-24T14:58:24Z</time></trkpt><trkpt lat="43.30314744844615" lon="5.473704544928683"><ele>117.5</ele><time>2026-03-24T14:58:26Z</time></trkpt><trkpt lat="43.30303983725279" lon="5.473794072506768"><ele>116.0</ele><time>2026-03-24T14:58:27Z</time></trkpt><trkpt lat="43.30295727628239" lon="5.473924733480285"><ele>114.5</ele><time>2026-03-24T14:58:28Z</time></trkpt><trkpt lat="43.302846597488255" lon="5.47406678550471"><ele>113.0</ele><time>2026-03-24T14:58:29Z</time></trkpt><trkpt lat="43.30271991231247" lon="5.474226105510082"><ele>113.0</ele><time>2026-03-24T14:58:30Z</time></trkpt><trkpt lat="43.30257767844446" lon="5.4744022881987995"><ele>113.0</ele><time>2026-03-24T14:58:31Z</time></trkpt><trkpt lat="43.30245196127744" lon="5.474597213619776"><ele>113.0</ele><time>2026-03-24T14:58:32Z</time></trkpt><trkpt lat="43.30232851208465" lon="5.474757737419027"><ele>112.0</ele><time>2026-03-24T14:58:33Z</time></trkpt><trkpt lat="43.30220832582741" lon="5.474899187326645"><ele>111.0</ele><time>2026-03-24T14:58:34Z</time></trkpt><trkpt lat="43.30209964645676" lon="5.4750505242295215"><ele>110.0</ele><time>2026-03-24T14:58:35Z</time></trkpt><trkpt lat="43.302000243248926" lon="5.475190645024109"><ele>110.0</ele><time>2026-03-24T14:58:36Z</time></trkpt><trkpt lat="43.301898620605044" lon="5.47533645500752"><ele>110.0</ele><time>2026-03-24T14:58:37Z</time></trkpt><trkpt lat="43.30179165844688" lon="5.475444172185669"><ele>110.0</ele><time>2026-03-24T14:58:38Z</time></trkpt><trkpt lat="43.301678303343586" lon="5.475597803641119"><ele>110.0</ele><time>2026-03-24T14:58:39Z</time></trkpt><trkpt lat="43.30155897345776" lon="5.475762984962548"><ele>108.75</ele><time>2026-03-24T14:58:40Z</time></trkpt><trkpt lat="43.301449326315726" lon="5.475904564927794"><ele>107.5</ele><time>2026-03-24T14:58:41Z</time></trkpt><trkpt lat="43.301343530866" lon="5.4760325167847"><ele>106.25</ele><time>2026-03-24T14:58:42Z</time></trkpt><trkpt lat="43.30124485206496" lon="5.476147909539441"><ele>105.0</ele><time>2026-03-24T14:58:43Z</time></trkpt><trkpt lat="43.30114832814749" lon="5.476233742099252"><ele>104.5</ele><time>2026-03-24T14:58:44Z</time></trkpt><trkpt lat="43.30104358506174" lon="5.476346407284534"><ele>104.0</ele><time>2026-03-24T14:58:45Z</time></trkpt><trkpt lat="43.30094306201912" lon="5.476447529019914"><ele>103.5</ele><time>2026-03-24T14:58:46Z</time></trkpt><trkpt lat="43.300850768709275" lon="5.476542958344816"><ele>103.0</ele><time>2026-03-24T14:58:47Z</time></trkpt><trkpt lat="43.300766702977164" lon="5.476609234481442"><ele>103.0</ele><time>2026-03-24T14:58:48Z</time></trkpt><trkpt lat="43.30069569380037" lon="5.4766701036734595"><ele>103.0</ele><time>2026-03-24T14:58:49Z</time></trkpt><trkpt lat="43.300635682695535" lon="5.476704406906563"><ele>103.0</ele><time>2026-03-24T14:58:50Z</time></trkpt><trkpt lat="43.30054748877296" lon="5.476763291580795"><ele>103.0</ele><time>2026-03-24T14:58:52Z</time></trkpt><trkpt lat="43.30041290286787" lon="5.476723904979422"><ele>103.0</ele><time>2026-03-24T14:58:54Z</time></trkpt><trkpt lat="43.30033885572029" lon="5.476757988373823"><ele>102.4</ele><time>2026-03-24T14:58:55Z</time></trkpt><trkpt lat="43.30026978764602" lon="5.476830662402474"><ele>101.80000000000001</ele><time>2026-03-24T14:58:56Z</time></trkpt><trkpt lat="43.30023273340101" lon="5.476933758849329"><ele>101.2</ele><time>2026-03-24T14:58:57Z</time></trkpt><trkpt lat="43.30017435825525" lon="5.4770463735896575"><ele>100.6</ele><time>2026-03-24T14:58:58Z</time></trkpt><trkpt lat="43.3000907853807" lon="5.477146482670865"><ele>100.0</ele><time>2026-03-24T14:58:59Z</time></trkpt><trkpt lat="43.29995352123597" lon="5.477303749630419"><ele>99.25</ele><time>2026-03-24T14:59:00Z</time></trkpt><trkpt lat="43.299858306696876" lon="5.477404979970102"><ele>98.5</ele><time>2026-03-24T14:59:01Z</time></trkpt><trkpt lat="43.29977625857261" lon="5.477496203457224"><ele>97.75</ele><time>2026-03-24T14:59:02Z</time></trkpt><trkpt lat="43.29967303384775" lon="5.477621384996404"><ele>97.0</ele><time>2026-03-24T14:59:03Z</time></trkpt><trkpt lat="43.29957071602473" lon="5.477736125704165"><ele>96.75</ele><time>2026-03-24T14:59:04Z</time></trkpt><trkpt lat="43.299448368704994" lon="5.477829604384427"><ele>96.5</ele><time>2026-03-24T14:59:05Z</time></trkpt><trkpt lat="43.299340399756254" lon="5.47792483244267"><ele>96.25</ele><time>2026-03-24T14:59:06Z</time></trkpt><trkpt lat="43.29923112438574" lon="5.478028110677404"><ele>96.0</ele><time>2026-03-24T14:59:07Z</time></trkpt><trkpt lat="43.29909563243645" lon="5.478151045728378"><ele>95.5</ele><time>2026-03-24T14:59:08Z</time></trkpt><trkpt lat="43.298967595412584" lon="5.478251738116579"><ele>95.0</ele><time>2026-03-24T14:59:09Z</time></trkpt><trkpt lat="43.29884816872868" lon="5.478345196625987"><ele>94.5</ele><time>2026-03-24T14:59:10Z</time></trkpt><trkpt lat="43.29874384908545" lon="5.478441751210443"><ele>94.0</ele><time>2026-03-24T14:59:11Z</time></trkpt><trkpt lat="43.298644140849945" lon="5.478528620224644"><ele>94.0</ele><time>2026-03-24T14:59:12Z</time></trkpt><trkpt lat="43.29854785870114" lon="5.478597724668432"><ele>94.0</ele><time>2026-03-24T14:59:13Z</time></trkpt><trkpt lat="43.29846457623344" lon="5.478671165043103"><ele>94.0</ele><time>2026-03-24T14:59:14Z</time></trkpt><trkpt lat="43.29838991827556" lon="5.478739599486778"><ele>94.0</ele><time>2026-03-24T14:59:15Z</time></trkpt><trkpt lat="43.298313098259804" lon="5.478817763099596"><ele>94.0</ele><time>2026-03-24T14:59:16Z</time></trkpt><trkpt lat="43.29825144478346" lon="5.478864504653773"><ele>93.16666666666666</ele><time>2026-03-24T14:59:17Z</time></trkpt><trkpt lat="43.2981911868446" lon="5.478918063126735"><ele>92.33333333333333</ele><time>2026-03-24T14:59:18Z</time></trkpt><trkpt lat="43.29811532574701" lon="5.478989303114616"><ele>91.5</ele><time>2026-03-24T14:59:19Z</time></trkpt><trkpt lat="43.298049121590175" lon="5.479049667876863"><ele>90.66666666666667</ele><time>2026-03-24T14:59:20Z</time></trkpt><trkpt lat="43.297987645342886" lon="5.479089655923594"><ele>89.83333333333334</ele><time>2026-03-24T14:59:21Z</time></trkpt><trkpt lat="43.29791386194429" lon="5.4791314599206675"><ele>89.0</ele><time>2026-03-24T14:59:22Z</time></trkpt><trkpt lat="43.29782861987408" lon="5.479164017815848"><ele>89.0</ele><time>2026-03-24T14:59:23Z</time></trkpt><trkpt lat="43.297747065699106" lon="5.479175018406833"><ele>89.0</ele><time>2026-03-24T14:59:24Z</time></trkpt><trkpt lat="43.29766794012166" lon="5.479181255689532"><ele>89.0</ele><time>2026-03-24T14:59:25Z</time></trkpt><trkpt lat="43.29760649397655" lon="5.479217027517087"><ele>89.0</ele><time>2026-03-24T14:59:26Z</time></trkpt><trkpt lat="43.297557929859394" lon="5.47928351441959"><ele>89.0</ele><time>2026-03-24T14:59:27Z</time></trkpt><trkpt lat="43.29752177933332" lon="5.479381041048297"><ele>89.0</ele><time>2026-03-24T14:59:28Z</time></trkpt><trkpt lat="43.29748467747598" lon="5.479510764950936"><ele>88.80000000000001</ele><time>2026-03-24T14:59:29Z</time></trkpt><trkpt lat="43.29741848383568" lon="5.479624939109643"><ele>88.60000000000001</ele><time>2026-03-24T14:59:30Z</time></trkpt><trkpt lat="43.297325980333085" lon="5.479723683671658"><ele>88.4</ele><time>2026-03-24T14:59:31Z</time></trkpt><trkpt lat="43.29722359563303" lon="5.479792028480936"><ele>88.2</ele><time>2026-03-24T14:59:32Z</time></trkpt><trkpt lat="43.29713970567546" lon="5.479840813335079"><ele>88.0</ele><time>2026-03-24T14:59:33Z</time></trkpt><trkpt lat="43.29704147329958" lon="5.479917766852501"><ele>88.0</ele><time>2026-03-24T14:59:34Z</time></trkpt><trkpt lat="43.29693981413178" lon="5.480006540197214"><ele>88.0</ele><time>2026-03-24T14:59:35Z</time></trkpt><trkpt lat="43.296831510493824" lon="5.480097223967654"><ele>88.0</ele><time>2026-03-24T14:59:36Z</time></trkpt><trkpt lat="43.2967218053737" lon="5.4801980470588445"><ele>88.0</ele><time>2026-03-24T14:59:37Z</time></trkpt><trkpt lat="43.29661356064475" lon="5.48029946129995"><ele>88.0</ele><time>2026-03-24T14:59:38Z</time></trkpt><trkpt lat="43.2964904168733" lon="5.480432773795033"><ele>88.0</ele><time>2026-03-24T14:59:39Z</time></trkpt><trkpt lat="43.29634064402775" lon="5.480535933212083"><ele>88.0</ele><time>2026-03-24T14:59:40Z</time></trkpt><trkpt lat="43.296223266420206" lon="5.4806445121926695"><ele>86.75</ele><time>2026-03-24T14:59:41Z</time></trkpt><trkpt lat="43.29611404987898" lon="5.480741977419754"><ele>85.5</ele><time>2026-03-24T14:59:42Z</time></trkpt><trkpt lat="43.29601062323909" lon="5.480836007030205"><ele>84.25</ele><time>2026-03-24T14:59:43Z</time></trkpt><trkpt lat="43.29591618748094" lon="5.48091540641138"><ele>83.0</ele><time>2026-03-24T14:59:44Z</time></trkpt><trkpt lat="43.29583237731249" lon="5.4809777470702565"><ele>83.0</ele><time>2026-03-24T14:59:45Z</time></trkpt><trkpt lat="43.29575083202621" lon="5.4810542440291545"><ele>83.0</ele><time>2026-03-24T14:59:46Z</time></trkpt><trkpt lat="43.2956615986413" lon="5.481127681704006"><ele>83.0</ele><time>2026-03-24T14:59:47Z</time></trkpt><trkpt lat="43.29558683721102" lon="5.481182543619947"><ele>83.0</ele><time>2026-03-24T14:59:48Z</time></trkpt><trkpt lat="43.2955187746325" lon="5.481246231086539"><ele>83.0</ele><time>2026-03-24T14:59:49Z</time></trkpt><trkpt lat="43.295458237927235" lon="5.481299243110335"><ele>83.0</ele><time>2026-03-24T14:59:50Z</time></trkpt><trkpt lat="43.29537673998309" lon="5.48132687050324"><ele>82.80000000000001</ele><time>2026-03-24T14:59:52Z</time></trkpt><trkpt lat="43.29529199723236" lon="5.481360630991377"><ele>82.6</ele><time>2026-03-24T14:59:55Z</time></trkpt><trkpt lat="43.29520306888549" lon="5.4813871165993415"><ele>82.4</ele><time>2026-03-24T14:59:58Z</time></trkpt><trkpt lat="43.29513204838068" lon="5.481366162320692"><ele>82.19999999999999</ele><time>2026-03-24T14:59:59Z</time></trkpt><trkpt lat="43.29503770675594" lon="5.4813958020605655"><ele>82.0</ele><time>2026-03-24T15:00:01Z</time></trkpt><trkpt lat="43.294973631456024" lon="5.481253612984281"><ele>81.75</ele><time>2026-03-24T15:00:02Z</time></trkpt><trkpt lat="43.294903184102054" lon="5.481182946865872"><ele>81.5</ele><time>2026-03-24T15:00:03Z</time></trkpt><trkpt lat="43.294822446753194" lon="5.481096698839052"><ele>81.25</ele><time>2026-03-24T15:00:04Z</time></trkpt><trkpt lat="43.29472804650745" lon="5.480976285683451"><ele>81.0</ele><time>2026-03-24T15:00:05Z</time></trkpt><trkpt lat="43.29462929176859" lon="5.480838154081979"><ele>81.0</ele><time>2026-03-24T15:00:06Z</time></trkpt><trkpt lat="43.29450470913778" lon="5.48067429483544"><ele>81.0</ele><time>2026-03-24T15:00:07Z</time></trkpt><trkpt lat="43.29440920061759" lon="5.480536485432807"><ele>81.0</ele><time>2026-03-24T15:00:08Z</time></trkpt><trkpt lat="43.294317259958056" lon="5.480417845860622"><ele>81.0</ele><time>2026-03-24T15:00:09Z</time></trkpt><trkpt lat="43.294222496795236" lon="5.480317368613221"><ele>81.0</ele><time>2026-03-24T15:00:10Z</time></trkpt><trkpt lat="43.29411966436022" lon="5.480217825213827"><ele>81.0</ele><time>2026-03-24T15:00:11Z</time></trkpt><trkpt lat="43.29399469085229" lon="5.480122181780579"><ele>81.0</ele><time>2026-03-24T15:00:12Z</time></trkpt><trkpt lat="43.29389647933848" lon="5.480039252929965"><ele>81.0</ele><time>2026-03-24T15:00:13Z</time></trkpt><trkpt lat="43.29378804216141" lon="5.4799665999834435"><ele>79.75</ele><time>2026-03-24T15:00:14Z</time></trkpt><trkpt lat="43.29366614295734" lon="5.479907972363356"><ele>78.5</ele><time>2026-03-24T15:00:15Z</time></trkpt><trkpt lat="43.29354774642221" lon="5.479838197898862"><ele>77.25</ele><time>2026-03-24T15:00:16Z</time></trkpt><trkpt lat="43.2933981799597" lon="5.479777483793843"><ele>76.0</ele><time>2026-03-24T15:00:17Z</time></trkpt><trkpt lat="43.293266133727556" lon="5.479694865687299"><ele>76.0</ele><time>2026-03-24T15:00:18Z</time></trkpt><trkpt lat="43.29314311663865" lon="5.479632194850564"><ele>76.0</ele><time>2026-03-24T15:00:19Z</time></trkpt><trkpt lat="43.29302913019622" lon="5.4795603097814976"><ele>76.0</ele><time>2026-03-24T15:00:20Z</time></trkpt><trkpt lat="43.2929284541967" lon="5.479490177251433"><ele>76.0</ele><time>2026-03-24T15:00:21Z</time></trkpt><trkpt lat="43.292847116066625" lon="5.479407562931366"><ele>75.6</ele><time>2026-03-24T15:00:22Z</time></trkpt><trkpt lat="43.29277695903703" lon="5.479308693993779"><ele>75.19999999999999</ele><time>2026-03-24T15:00:23Z</time></trkpt><trkpt lat="43.29272907812638" lon="5.479208120335894"><ele>74.80000000000001</ele><time>2026-03-24T15:00:24Z</time></trkpt><trkpt lat="43.292693300652346" lon="5.479088610287463"><ele>74.4</ele><time>2026-03-24T15:00:25Z</time></trkpt><trkpt lat="43.29268072130972" lon="5.478947102442591"><ele>74.0</ele><time>2026-03-24T15:00:26Z</time></trkpt><trkpt lat="43.292678475248536" lon="5.4787929416067485"><ele>74.25</ele><time>2026-03-24T15:00:27Z</time></trkpt><trkpt lat="43.292690143555284" lon="5.478632337652954"><ele>74.5</ele><time>2026-03-24T15:00:28Z</time></trkpt><trkpt lat="43.29271951505424" lon="5.47846635047245"><ele>74.75</ele><time>2026-03-24T15:00:29Z</time></trkpt><trkpt lat="43.29275186010175" lon="5.478303418398194"><ele>75.0</ele><time>2026-03-24T15:00:30Z</time></trkpt><trkpt lat="43.29277872769776" lon="5.478132789825223"><ele>75.0</ele><time>2026-03-24T15:00:31Z</time></trkpt><trkpt lat="43.292798487641285" lon="5.4779409809671815"><ele>75.0</ele><time>2026-03-24T15:00:32Z</time></trkpt><trkpt lat="43.29283605755793" lon="5.477737498682151"><ele>75.0</ele><time>2026-03-24T15:00:33Z</time></trkpt><trkpt lat="43.29285992842614" lon="5.477534616573922"><ele>75.0</ele><time>2026-03-24T15:00:34Z</time></trkpt><trkpt lat="43.29288121860232" lon="5.4773193982124715"><ele>75.66666666666667</ele><time>2026-03-24T15:00:35Z</time></trkpt><trkpt lat="43.29292077378966" lon="5.477121922706324"><ele>76.33333333333334</ele><time>2026-03-24T15:00:36Z</time></trkpt><trkpt lat="43.292948041796016" lon="5.476910070257641"><ele>77.0</ele><time>2026-03-24T15:00:37Z</time></trkpt><trkpt lat="43.292981297968424" lon="5.476662135003674"><ele>77.33333333333334</ele><time>2026-03-24T15:00:38Z</time></trkpt><trkpt lat="43.29301801882205" lon="5.476424108579864"><ele>77.66666666666667</ele><time>2026-03-24T15:00:39Z</time></trkpt><trkpt lat="43.29304978087255" lon="5.47620835826054"><ele>78.0</ele><time>2026-03-24T15:00:40Z</time></trkpt><trkpt lat="43.293080763722195" lon="5.475990343234203"><ele>77.33333333333333</ele><time>2026-03-24T15:00:41Z</time></trkpt><trkpt lat="43.293115883834375" lon="5.475765454502423"><ele>76.66666666666666</ele><time>2026-03-24T15:00:42Z</time></trkpt><trkpt lat="43.29315224477106" lon="5.475571057137177"><ele>76.0</ele><time>2026-03-24T15:00:43Z</time></trkpt><trkpt lat="43.29318414348684" lon="5.475352254483233"><ele>76.0</ele><time>2026-03-24T15:00:44Z</time></trkpt><trkpt lat="43.29321465096743" lon="5.4751334009498605"><ele>76.0</ele><time>2026-03-24T15:00:45Z</time></trkpt><trkpt lat="43.29326834496722" lon="5.474910023139816"><ele>76.0</ele><time>2026-03-24T15:00:46Z</time></trkpt><trkpt lat="43.2933294312495" lon="5.474670576581382"><ele>75.0</ele><time>2026-03-24T15:00:47Z</time></trkpt><trkpt lat="43.2933801764739" lon="5.4744246270501735"><ele>74.0</ele><time>2026-03-24T15:00:48Z</time></trkpt><trkpt lat="43.29344630149131" lon="5.47416359226348"><ele>73.0</ele><time>2026-03-24T15:00:49Z</time></trkpt><trkpt lat="43.2935022047902" lon="5.473900844160021"><ele>72.33333333333333</ele><time>2026-03-24T15:00:50Z</time></trkpt><trkpt lat="43.29355344302699" lon="5.473631904114178"><ele>71.66666666666667</ele><time>2026-03-24T15:00:51Z</time></trkpt><trkpt lat="43.29361122843867" lon="5.473402119035705"><ele>71.0</ele><time>2026-03-24T15:00:52Z</time></trkpt><trkpt lat="43.293659459709836" lon="5.473128340900279"><ele>71.66666666666667</ele><time>2026-03-24T15:00:53Z</time></trkpt><trkpt lat="43.29370440802165" lon="5.472849523369712"><ele>72.33333333333333</ele><time>2026-03-24T15:00:54Z</time></trkpt><trkpt lat="43.293756996345685" lon="5.472572145027124"><ele>73.0</ele><time>2026-03-24T15:00:55Z</time></trkpt><trkpt lat="43.29379448570952" lon="5.472293062451071"><ele>73.33333333333333</ele><time>2026-03-24T15:00:56Z</time></trkpt><trkpt lat="43.29384617997458" lon="5.47201989157061"><ele>73.66666666666667</ele><time>2026-03-24T15:00:57Z</time></trkpt><trkpt lat="43.2938923694102" lon="5.47173609987369"><ele>74.0</ele><time>2026-03-24T15:00:58Z</time></trkpt><trkpt lat="43.29393842283369" lon="5.471454094719414"><ele>77.33333333333334</ele><time>2026-03-24T15:00:59Z</time></trkpt><trkpt lat="43.29398344499875" lon="5.471176530120233"><ele>80.66666666666667</ele><time>2026-03-24T15:01:00Z</time></trkpt><trkpt lat="43.29402998644299" lon="5.470892042065959"><ele>84.0</ele><time>2026-03-24T15:01:01Z</time></trkpt><trkpt lat="43.29406328487692" lon="5.470596647276919"><ele>84.33333333333333</ele><time>2026-03-24T15:01:02Z</time></trkpt><trkpt lat="43.294105674866586" lon="5.470306677157974"><ele>84.66666666666666</ele><time>2026-03-24T15:01:03Z</time></trkpt><trkpt lat="43.294142931817724" lon="5.469989077536925"><ele>85.0</ele><time>2026-03-24T15:01:04Z</time></trkpt><trkpt lat="43.294177616966834" lon="5.469692170030229"><ele>85.5</ele><time>2026-03-24T15:01:05Z</time></trkpt><trkpt lat="43.29421533194952" lon="5.469364537589517"><ele>86.0</ele><time>2026-03-24T15:01:06Z</time></trkpt><trkpt lat="43.29426124269038" lon="5.46906557061491"><ele>86.0</ele><time>2026-03-24T15:01:07Z</time></trkpt><trkpt lat="43.294304967743805" lon="5.468712081232246"><ele>86.0</ele><time>2026-03-24T15:01:08Z</time></trkpt><trkpt lat="43.29433979285325" lon="5.468389434053497"><ele>86.0</ele><time>2026-03-24T15:01:09Z</time></trkpt><trkpt lat="43.29438208646523" lon="5.468081145108127"><ele>86.0</ele><time>2026-03-24T15:01:10Z</time></trkpt><trkpt lat="43.29442605707478" lon="5.467782476859525"><ele>89.0</ele><time>2026-03-24T15:01:11Z</time></trkpt><trkpt lat="43.29446571388331" lon="5.467465584447509"><ele>92.0</ele><time>2026-03-24T15:01:12Z</time></trkpt><trkpt lat="43.29450612111206" lon="5.467152756390724"><ele>90.0</ele><time>2026-03-24T15:01:13Z</time></trkpt><trkpt lat="43.29454809921749" lon="5.466849603428361"><ele>88.0</ele><time>2026-03-24T15:01:14Z</time></trkpt><trkpt lat="43.294581867087885" lon="5.466552292262407"><ele>86.0</ele><time>2026-03-24T15:01:15Z</time></trkpt><trkpt lat="43.29461805703646" lon="5.466262463341052"><ele>82.66666666666667</ele><time>2026-03-24T15:01:16Z</time></trkpt><trkpt lat="43.29466577738871" lon="5.465971593200875"><ele>79.33333333333333</ele><time>2026-03-24T15:01:17Z</time></trkpt><trkpt lat="43.29470554389807" lon="5.465664486001421"><ele>76.0</ele><time>2026-03-24T15:01:18Z</time></trkpt><trkpt lat="43.29473054274323" lon="5.465357324478828"><ele>77.0</ele><time>2026-03-24T15:01:19Z</time></trkpt><trkpt lat="43.29474988173178" lon="5.465030667950937"><ele>78.0</ele><time>2026-03-24T15:01:20Z</time></trkpt><trkpt lat="43.29476911986363" lon="5.4647193421663145"><ele>77.0</ele><time>2026-03-24T15:01:21Z</time></trkpt><trkpt lat="43.29478718204478" lon="5.464403749014389"><ele>76.0</ele><time>2026-03-24T15:01:22Z</time></trkpt><trkpt lat="43.294790451164346" lon="5.464072179896777"><ele>74.5</ele><time>2026-03-24T15:01:23Z</time></trkpt><trkpt lat="43.29478425482119" lon="5.463758092726798"><ele>73.0</ele><time>2026-03-24T15:01:24Z</time></trkpt><trkpt lat="43.294776325806524" lon="5.46345188406838"><ele>73.0</ele><time>2026-03-24T15:01:25Z</time></trkpt><trkpt lat="43.29476198569102" lon="5.463140897264536"><ele>73.0</ele><time>2026-03-24T15:01:26Z</time></trkpt><trkpt lat="43.29474161881306" lon="5.4628394684183945"><ele>73.0</ele><time>2026-03-24T15:01:27Z</time></trkpt><trkpt lat="43.29472199223649" lon="5.462545343736031"><ele>67.0</ele><time>2026-03-24T15:01:28Z</time></trkpt><trkpt lat="43.29469313176062" lon="5.4622402540554695"><ele>61.0</ele><time>2026-03-24T15:01:29Z</time></trkpt><trkpt lat="43.29466062592727" lon="5.461930610633528"><ele>60.33333333333333</ele><time>2026-03-24T15:01:30Z</time></trkpt><trkpt lat="43.294627583760516" lon="5.461625128919277"><ele>59.66666666666667</ele><time>2026-03-24T15:01:31Z</time></trkpt><trkpt lat="43.29459618105079" lon="5.461325857670586"><ele>59.0</ele><time>2026-03-24T15:01:32Z</time></trkpt><trkpt lat="43.29456652067583" lon="5.4610297299775405"><ele>59.0</ele><time>2026-03-24T15:01:33Z</time></trkpt><trkpt lat="43.29453732797555" lon="5.460738487287363"><ele>59.0</ele><time>2026-03-24T15:01:34Z</time></trkpt><trkpt lat="43.294501599457114" lon="5.460447748817606"><ele>59.0</ele><time>2026-03-24T15:01:35Z</time></trkpt><trkpt lat="43.2944594713332" lon="5.460147687665844"><ele>58.5</ele><time>2026-03-24T15:01:36Z</time></trkpt><trkpt lat="43.294411304267854" lon="5.459834726252686"><ele>58.0</ele><time>2026-03-24T15:01:37Z</time></trkpt><trkpt lat="43.29435386488676" lon="5.459524042843312"><ele>55.5</ele><time>2026-03-24T15:01:38Z</time></trkpt><trkpt lat="43.29429512641374" lon="5.459214110855404"><ele>53.0</ele><time>2026-03-24T15:01:39Z</time></trkpt><trkpt lat="43.29423138244675" lon="5.458919255828933"><ele>53.0</ele><time>2026-03-24T15:01:40Z</time></trkpt><trkpt lat="43.29416923253853" lon="5.458647866517414"><ele>53.0</ele><time>2026-03-24T15:01:41Z</time></trkpt><trkpt lat="43.29410302627573" lon="5.458367482579069"><ele>53.0</ele><time>2026-03-24T15:01:42Z</time></trkpt><trkpt lat="43.294026945642855" lon="5.458097708154149"><ele>54.0</ele><time>2026-03-24T15:01:43Z</time></trkpt><trkpt lat="43.29394533061833" lon="5.457824012221892"><ele>55.0</ele><time>2026-03-24T15:01:44Z</time></trkpt><trkpt lat="43.29386029509522" lon="5.4575669211834805"><ele>56.0</ele><time>2026-03-24T15:01:45Z</time></trkpt><trkpt lat="43.293774456837056" lon="5.45731015485718"><ele>54.0</ele><time>2026-03-24T15:01:46Z</time></trkpt><trkpt lat="43.29368072438953" lon="5.457042077760333"><ele>52.0</ele><time>2026-03-24T15:01:47Z</time></trkpt><trkpt lat="43.293587918239396" lon="5.456780096997023"><ele>50.0</ele><time>2026-03-24T15:01:48Z</time></trkpt><trkpt lat="43.29349001915019" lon="5.456513728467738"><ele>50.66666666666667</ele><time>2026-03-24T15:01:49Z</time></trkpt><trkpt lat="43.29339439924602" lon="5.456248409650381"><ele>51.33333333333333</ele><time>2026-03-24T15:01:50Z</time></trkpt><trkpt lat="43.29328943617106" lon="5.455970767355963"><ele>52.0</ele><time>2026-03-24T15:01:51Z</time></trkpt><trkpt lat="43.293186542858024" lon="5.455701160093825"><ele>49.33333333333333</ele><time>2026-03-24T15:01:52Z</time></trkpt><trkpt lat="43.293088607276715" lon="5.455434645256024"><ele>46.666666666666664</ele><time>2026-03-24T15:01:53Z</time></trkpt><trkpt lat="43.29298478912527" lon="5.455161330345539"><ele>44.0</ele><time>2026-03-24T15:01:54Z</time></trkpt><trkpt lat="43.29288694565616" lon="5.4548975866502225"><ele>44.0</ele><time>2026-03-24T15:01:55Z</time></trkpt><trkpt lat="43.29278507822897" lon="5.45463441189617"><ele>44.0</ele><time>2026-03-24T15:01:56Z</time></trkpt><trkpt lat="43.29268274663512" lon="5.454360176635881"><ele>44.0</ele><time>2026-03-24T15:01:57Z</time></trkpt><trkpt lat="43.292583703894884" lon="5.454097934553748"><ele>44.5</ele><time>2026-03-24T15:01:58Z</time></trkpt><trkpt lat="43.29247667674066" lon="5.453819311816244"><ele>45.0</ele><time>2026-03-24T15:01:59Z</time></trkpt><trkpt lat="43.292370671460354" lon="5.453551119535051"><ele>45.0</ele><time>2026-03-24T15:02:00Z</time></trkpt><trkpt lat="43.29227451877046" lon="5.453288726946149"><ele>45.0</ele><time>2026-03-24T15:02:01Z</time></trkpt><trkpt lat="43.29217562887852" lon="5.453022135066359"><ele>45.0</ele><time>2026-03-24T15:02:02Z</time></trkpt><trkpt lat="43.29207666690228" lon="5.452758129392794"><ele>45.0</ele><time>2026-03-24T15:02:03Z</time></trkpt><trkpt lat="43.29198587826644" lon="5.452497756208822"><ele>45.0</ele><time>2026-03-24T15:02:04Z</time></trkpt><trkpt lat="43.29187389377646" lon="5.452217477005156"><ele>45.0</ele><time>2026-03-24T15:02:05Z</time></trkpt><trkpt lat="43.291774391369714" lon="5.451945629498577"><ele>44.333333333333336</ele><time>2026-03-24T15:02:06Z</time></trkpt><trkpt lat="43.29166833692827" lon="5.4516790472398124"><ele>43.66666666666667</ele><time>2026-03-24T15:02:07Z</time></trkpt><trkpt lat="43.29156872751041" lon="5.451421561509081"><ele>43.0</ele><time>2026-03-24T15:02:08Z</time></trkpt><trkpt lat="43.29147455539975" lon="5.451149965426924"><ele>43.0</ele><time>2026-03-24T15:02:09Z</time></trkpt><trkpt lat="43.29137507900579" lon="5.45088752319037"><ele>43.0</ele><time>2026-03-24T15:02:10Z</time></trkpt><trkpt lat="43.29127717006995" lon="5.4506232713923435"><ele>43.0</ele><time>2026-03-24T15:02:11Z</time></trkpt><trkpt lat="43.29117867856919" lon="5.4503589679428"><ele>42.333333333333336</ele><time>2026-03-24T15:02:12Z</time></trkpt><trkpt lat="43.29107552274508" lon="5.4500939878894314"><ele>41.666666666666664</ele><time>2026-03-24T15:02:13Z</time></trkpt><trkpt lat="43.29096727840442" lon="5.449814821225174"><ele>41.0</ele><time>2026-03-24T15:02:14Z</time></trkpt><trkpt lat="43.29086383574846" lon="5.449535416015591"><ele>41.0</ele><time>2026-03-24T15:02:15Z</time></trkpt><trkpt lat="43.290750507739496" lon="5.4492371184349"><ele>41.0</ele><time>2026-03-24T15:02:16Z</time></trkpt><trkpt lat="43.29062634995236" lon="5.448934823951585"><ele>41.5</ele><time>2026-03-24T15:02:17Z</time></trkpt><trkpt lat="43.29052398996652" lon="5.448645288961495"><ele>42.0</ele><time>2026-03-24T15:02:18Z</time></trkpt><trkpt lat="43.29042892713968" lon="5.448374031930533"><ele>42.0</ele><time>2026-03-24T15:02:19Z</time></trkpt><trkpt lat="43.29032947181567" lon="5.448108963305213"><ele>42.0</ele><time>2026-03-24T15:02:20Z</time></trkpt><trkpt lat="43.2902324587022" lon="5.447843730023483"><ele>42.0</ele><time>2026-03-24T15:02:21Z</time></trkpt><trkpt lat="43.290117454907815" lon="5.4475511273318284"><ele>42.5</ele><time>2026-03-24T15:02:22Z</time></trkpt><trkpt lat="43.29001117154387" lon="5.447260622916857"><ele>43.0</ele><time>2026-03-24T15:02:23Z</time></trkpt><trkpt lat="43.289907598135464" lon="5.446972391591"><ele>43.0</ele><time>2026-03-24T15:02:24Z</time></trkpt><trkpt lat="43.28980178957583" lon="5.446690938418543"><ele>43.0</ele><time>2026-03-24T15:02:25Z</time></trkpt><trkpt lat="43.28969010906161" lon="5.446395589571931"><ele>42.0</ele><time>2026-03-24T15:02:26Z</time></trkpt><trkpt lat="43.28958601078512" lon="5.446119515126703"><ele>41.0</ele><time>2026-03-24T15:02:27Z</time></trkpt><trkpt lat="43.28948837936501" lon="5.445860949832754"><ele>40.0</ele><time>2026-03-24T15:02:28Z</time></trkpt><trkpt lat="43.28939797418016" lon="5.445604689450968"><ele>40.0</ele><time>2026-03-24T15:02:29Z</time></trkpt><trkpt lat="43.289317339451415" lon="5.445362344258287"><ele>40.0</ele><time>2026-03-24T15:02:30Z</time></trkpt><trkpt lat="43.28924205067962" lon="5.44511332070729"><ele>40.0</ele><time>2026-03-24T15:02:31Z</time></trkpt><trkpt lat="43.289149173985905" lon="5.4448527231335255"><ele>40.0</ele><time>2026-03-24T15:02:32Z</time></trkpt><trkpt lat="43.289055530331275" lon="5.444595918226668"><ele>40.0</ele><time>2026-03-24T15:02:33Z</time></trkpt><trkpt lat="43.288965118852595" lon="5.444334437539102"><ele>40.0</ele><time>2026-03-24T15:02:34Z</time></trkpt><trkpt lat="43.28887411331877" lon="5.444061685606918"><ele>40.0</ele><time>2026-03-24T15:02:35Z</time></trkpt><trkpt lat="43.28876838435617" lon="5.44377055570245"><ele>40.0</ele><time>2026-03-24T15:02:36Z</time></trkpt><trkpt lat="43.28867583388633" lon="5.4434963200217465"><ele>40.0</ele><time>2026-03-24T15:02:37Z</time></trkpt><trkpt lat="43.28858442985737" lon="5.4432296661554656"><ele>40.0</ele><time>2026-03-24T15:02:38Z</time></trkpt><trkpt lat="43.28849834920239" lon="5.442967962167977"><ele>40.0</ele><time>2026-03-24T15:02:39Z</time></trkpt><trkpt lat="43.2884147417052" lon="5.4427185385376475"><ele>39.66666666666667</ele><time>2026-03-24T15:02:40Z</time></trkpt><trkpt lat="43.28834111202978" lon="5.442470468406479"><ele>39.333333333333336</ele><time>2026-03-24T15:02:41Z</time></trkpt><trkpt lat="43.28827325363731" lon="5.442230331224421"><ele>39.0</ele><time>2026-03-24T15:02:42Z</time></trkpt><trkpt lat="43.28820087224676" lon="5.441993137203451"><ele>39.0</ele><time>2026-03-24T15:02:43Z</time></trkpt><trkpt lat="43.28814699069084" lon="5.441775170196476"><ele>39.0</ele><time>2026-03-24T15:02:44Z</time></trkpt><trkpt lat="43.28808854953489" lon="5.441540419692132"><ele>39.0</ele><time>2026-03-24T15:02:45Z</time></trkpt><trkpt lat="43.28803362658926" lon="5.44131870147869"><ele>39.0</ele><time>2026-03-24T15:02:46Z</time></trkpt><trkpt lat="43.28797708975854" lon="5.44110366111991"><ele>39.0</ele><time>2026-03-24T15:02:47Z</time></trkpt><trkpt lat="43.28791765712315" lon="5.440872146488802"><ele>39.0</ele><time>2026-03-24T15:02:48Z</time></trkpt><trkpt lat="43.28786276359978" lon="5.440648533798566"><ele>39.0</ele><time>2026-03-24T15:02:49Z</time></trkpt><trkpt lat="43.28780527395955" lon="5.440422033976596"><ele>39.0</ele><time>2026-03-24T15:02:50Z</time></trkpt><trkpt lat="43.28774907089442" lon="5.440196773199096"><ele>39.0</ele><time>2026-03-24T15:02:51Z</time></trkpt><trkpt lat="43.28770068829939" lon="5.4399781678458945"><ele>39.0</ele><time>2026-03-24T15:02:52Z</time></trkpt><trkpt lat="43.28765043265646" lon="5.439761935921313"><ele>39.0</ele><time>2026-03-24T15:02:53Z</time></trkpt><trkpt lat="43.28760208583101" lon="5.439540845213484"><ele>39.0</ele><time>2026-03-24T15:02:54Z</time></trkpt><trkpt lat="43.28756180782687" lon="5.439320986373261"><ele>39.0</ele><time>2026-03-24T15:02:55Z</time></trkpt><trkpt lat="43.287516575309596" lon="5.4391059355192946"><ele>39.0</ele><time>2026-03-24T15:02:56Z</time></trkpt><trkpt lat="43.2874754105302" lon="5.438885745933806"><ele>39.0</ele><time>2026-03-24T15:02:57Z</time></trkpt><trkpt lat="43.28742840287216" lon="5.438665735237863"><ele>41.333333333333336</ele><time>2026-03-24T15:02:58Z</time></trkpt><trkpt lat="43.28738735974365" lon="5.438458332750379"><ele>43.66666666666667</ele><time>2026-03-24T15:02:59Z</time></trkpt><trkpt lat="43.287334775214795" lon="5.438213512799261"><ele>46.0</ele><time>2026-03-24T15:03:00Z</time></trkpt><trkpt lat="43.28729019749645" lon="5.437970812727649"><ele>43.66666666666667</ele><time>2026-03-24T15:03:01Z</time></trkpt><trkpt lat="43.28725311084799" lon="5.437715830951547"><ele>41.333333333333336</ele><time>2026-03-24T15:03:02Z</time></trkpt><trkpt lat="43.28721948358641" lon="5.437446132319184"><ele>39.0</ele><time>2026-03-24T15:03:03Z</time></trkpt><trkpt lat="43.28718320706039" lon="5.437169324536211"><ele>37.666666666666664</ele><time>2026-03-24T15:03:04Z</time></trkpt><trkpt lat="43.28714536204644" lon="5.436905761227944"><ele>36.33333333333333</ele><time>2026-03-24T15:03:05Z</time></trkpt><trkpt lat="43.2871099821421" lon="5.43664353446312"><ele>35.0</ele><time>2026-03-24T15:03:06Z</time></trkpt><trkpt lat="43.28707649262753" lon="5.436362022368832"><ele>34.666666666666664</ele><time>2026-03-24T15:03:07Z</time></trkpt><trkpt lat="43.28703774850811" lon="5.436091365813441"><ele>34.333333333333336</ele><time>2026-03-24T15:03:08Z</time></trkpt><trkpt lat="43.287002133309514" lon="5.435840349423633"><ele>34.0</ele><time>2026-03-24T15:03:09Z</time></trkpt><trkpt lat="43.286958311717555" lon="5.435575200581722"><ele>33.333333333333336</ele><time>2026-03-24T15:03:10Z</time></trkpt><trkpt lat="43.28692238893306" lon="5.435316670392924"><ele>32.666666666666664</ele><time>2026-03-24T15:03:11Z</time></trkpt><trkpt lat="43.286896069153904" lon="5.435068324919713"><ele>32.0</ele><time>2026-03-24T15:03:12Z</time></trkpt><trkpt lat="43.28686716305739" lon="5.434824006834804"><ele>32.0</ele><time>2026-03-24T15:03:13Z</time></trkpt><trkpt lat="43.286830219824864" lon="5.434562822945028"><ele>32.0</ele><time>2026-03-24T15:03:14Z</time></trkpt><trkpt lat="43.28678318123979" lon="5.434264814207055"><ele>32.0</ele><time>2026-03-24T15:03:15Z</time></trkpt><trkpt lat="43.28674029868514" lon="5.433943596215456"><ele>32.0</ele><time>2026-03-24T15:03:16Z</time></trkpt><trkpt lat="43.28670123025176" lon="5.433634112704554"><ele>32.0</ele><time>2026-03-24T15:03:17Z</time></trkpt><trkpt lat="43.286666274279455" lon="5.433367076558641"><ele>32.0</ele><time>2026-03-24T15:03:18Z</time></trkpt><trkpt lat="43.28662717189807" lon="5.433095208871509"><ele>32.0</ele><time>2026-03-24T15:03:19Z</time></trkpt><trkpt lat="43.2865946170664" lon="5.432837207158459"><ele>32.0</ele><time>2026-03-24T15:03:20Z</time></trkpt><trkpt lat="43.28655994733303" lon="5.432572259434158"><ele>32.0</ele><time>2026-03-24T15:03:21Z</time></trkpt><trkpt lat="43.286522055410614" lon="5.4323065442601095"><ele>32.0</ele><time>2026-03-24T15:03:22Z</time></trkpt><trkpt lat="43.286474366820066" lon="5.432030613520131"><ele>32.0</ele><time>2026-03-24T15:03:23Z</time></trkpt><trkpt lat="43.28642535229125" lon="5.431735150671201"><ele>32.0</ele><time>2026-03-24T15:03:24Z</time></trkpt><trkpt lat="43.2863901707624" lon="5.431467717858971"><ele>31.333333333333332</ele><time>2026-03-24T15:03:25Z</time></trkpt><trkpt lat="43.2863510605011" lon="5.431207551005998"><ele>30.666666666666664</ele><time>2026-03-24T15:03:26Z</time></trkpt><trkpt lat="43.28631387645903" lon="5.430956330968617"><ele>30.0</ele><time>2026-03-24T15:03:27Z</time></trkpt><trkpt lat="43.28628742840069" lon="5.430714279891478"><ele>29.333333333333336</ele><time>2026-03-24T15:03:28Z</time></trkpt><trkpt lat="43.286245427151755" lon="5.43046879012524"><ele>28.666666666666668</ele><time>2026-03-24T15:03:29Z</time></trkpt><trkpt lat="43.286210283160365" lon="5.430215650915589"><ele>28.0</ele><time>2026-03-24T15:03:30Z</time></trkpt><trkpt lat="43.28617262812565" lon="5.429950411729399"><ele>28.0</ele><time>2026-03-24T15:03:31Z</time></trkpt><trkpt lat="43.286137966160894" lon="5.429664187610563"><ele>28.0</ele><time>2026-03-24T15:03:32Z</time></trkpt><trkpt lat="43.28610167286235" lon="5.429366161460811"><ele>28.0</ele><time>2026-03-24T15:03:33Z</time></trkpt><trkpt lat="43.28607473370197" lon="5.429084048152713"><ele>28.666666666666668</ele><time>2026-03-24T15:03:34Z</time></trkpt><trkpt lat="43.2860413787995" lon="5.4288151086027865"><ele>29.333333333333336</ele><time>2026-03-24T15:03:35Z</time></trkpt><trkpt lat="43.286006411730924" lon="5.428551761507874"><ele>30.0</ele><time>2026-03-24T15:03:36Z</time></trkpt><trkpt lat="43.28597033855994" lon="5.428295158503046"><ele>30.5</ele><time>2026-03-24T15:03:37Z</time></trkpt><trkpt lat="43.28593829938733" lon="5.4279948260064"><ele>31.0</ele><time>2026-03-24T15:03:38Z</time></trkpt><trkpt lat="43.285908588215236" lon="5.4276816034160635"><ele>30.5</ele><time>2026-03-24T15:03:39Z</time></trkpt><trkpt lat="43.28587370444879" lon="5.42735984996444"><ele>30.0</ele><time>2026-03-24T15:03:40Z</time></trkpt><trkpt lat="43.28582917099968" lon="5.427039799064408"><ele>30.0</ele><time>2026-03-24T15:03:41Z</time></trkpt><trkpt lat="43.28578297288566" lon="5.4267241515055895"><ele>30.0</ele><time>2026-03-24T15:03:42Z</time></trkpt><trkpt lat="43.285731466178184" lon="5.426404841732303"><ele>30.5</ele><time>2026-03-24T15:03:43.02Z</time></trkpt><trkpt lat="43.28567381975428" lon="5.426087713999715"><ele>31.0</ele><time>2026-03-24T15:03:44.02Z</time></trkpt><trkpt lat="43.28561600125356" lon="5.42578530811601"><ele>29.5</ele><time>2026-03-24T15:03:45.017Z</time></trkpt><trkpt lat="43.28555734368734" lon="5.425479963834782"><ele>28.0</ele><time>2026-03-24T15:03:46.02Z</time></trkpt><trkpt lat="43.28522325031765" lon="5.4229798726788"><ele>26.5</ele><time>2026-03-24T15:03:54Z</time></trkpt><trkpt lat="43.285204035620204" lon="5.422650848785102"><ele>25.0</ele><time>2026-03-24T15:03:55Z</time></trkpt><trkpt lat="43.28520631612661" lon="5.422326394381254"><ele>25.5</ele><time>2026-03-24T15:03:56Z</time></trkpt><trkpt lat="43.285191846870326" lon="5.421981851556827"><ele>26.0</ele><time>2026-03-24T15:03:57Z</time></trkpt><trkpt lat="43.28519719707376" lon="5.421662595095201"><ele>26.0</ele><time>2026-03-24T15:03:58Z</time></trkpt><trkpt lat="43.28520091206543" lon="5.421332780925176"><ele>26.0</ele><time>2026-03-24T15:03:59Z</time></trkpt><trkpt lat="43.285200640592635" lon="5.4209766249131945"><ele>26.0</ele><time>2026-03-24T15:04:00Z</time></trkpt><trkpt lat="43.28520175221799" lon="5.420657125865532"><ele>26.0</ele><time>2026-03-24T15:04:01Z</time></trkpt><trkpt lat="43.28519302919249" lon="5.420342000267311"><ele>26.0</ele><time>2026-03-24T15:04:02Z</time></trkpt><trkpt lat="43.2851824451004" lon="5.420045051570188"><ele>26.0</ele><time>2026-03-24T15:04:03Z</time></trkpt><trkpt lat="43.285169336535986" lon="5.4197794443931855"><ele>26.0</ele><time>2026-03-24T15:04:04Z</time></trkpt><trkpt lat="43.285142976850615" lon="5.419542522374356"><ele>26.0</ele><time>2026-03-24T15:04:05Z</time></trkpt><trkpt lat="43.28511937507356" lon="5.419270181939454"><ele>26.0</ele><time>2026-03-24T15:04:06Z</time></trkpt><trkpt lat="43.28509919381642" lon="5.41899708495757"><ele>26.0</ele><time>2026-03-24T15:04:07Z</time></trkpt><trkpt lat="43.28506662850949" lon="5.418707628624815"><ele>26.0</ele><time>2026-03-24T15:04:08Z</time></trkpt><trkpt lat="43.28502801282186" lon="5.41840599411736"><ele>26.0</ele><time>2026-03-24T15:04:09Z</time></trkpt><trkpt lat="43.28499307399636" lon="5.418099058994836"><ele>26.0</ele><time>2026-03-24T15:04:10Z</time></trkpt><trkpt lat="43.28495322319065" lon="5.417774849483643"><ele>25.5</ele><time>2026-03-24T15:04:11Z</time></trkpt><trkpt lat="43.28490010042003" lon="5.4174476249466075"><ele>25.0</ele><time>2026-03-24T15:04:12Z</time></trkpt><trkpt lat="43.28486357830609" lon="5.417147402283332"><ele>27.0</ele><time>2026-03-24T15:04:13Z</time></trkpt><trkpt lat="43.284831804048636" lon="5.416857272424815"><ele>29.0</ele><time>2026-03-24T15:04:14Z</time></trkpt><trkpt lat="43.28478928421638" lon="5.416536931714146"><ele>27.0</ele><time>2026-03-24T15:04:15Z</time></trkpt><trkpt lat="43.2847379846418" lon="5.41619771557914"><ele>25.0</ele><time>2026-03-24T15:04:16Z</time></trkpt><trkpt lat="43.28469807418004" lon="5.415862095944218"><ele>25.0</ele><time>2026-03-24T15:04:17Z</time></trkpt><trkpt lat="43.28465432069162" lon="5.415520835492884"><ele>25.0</ele><time>2026-03-24T15:04:18Z</time></trkpt><trkpt lat="43.28463057173801" lon="5.415199583359545"><ele>24.666666666666668</ele><time>2026-03-24T15:04:19Z</time></trkpt><trkpt lat="43.28461864964673" lon="5.414898108152917"><ele>24.333333333333336</ele><time>2026-03-24T15:04:20Z</time></trkpt><trkpt lat="43.28460901395199" lon="5.414586580728194"><ele>24.0</ele><time>2026-03-24T15:04:21Z</time></trkpt><trkpt lat="43.28460784231856" lon="5.414280893118794"><ele>24.0</ele><time>2026-03-24T15:04:22Z</time></trkpt><trkpt lat="43.28460922181071" lon="5.41396863241711"><ele>24.0</ele><time>2026-03-24T15:04:23Z</time></trkpt><trkpt lat="43.28461593659368" lon="5.41365407292697"><ele>24.0</ele><time>2026-03-24T15:04:24Z</time></trkpt><trkpt lat="43.28463292629233" lon="5.413336632147115"><ele>24.0</ele><time>2026-03-24T15:04:25Z</time></trkpt><trkpt lat="43.284657224073236" lon="5.41303043681214"><ele>23.0</ele><time>2026-03-24T15:04:26Z</time></trkpt><trkpt lat="43.284692124620044" lon="5.412721804927121"><ele>22.0</ele><time>2026-03-24T15:04:27Z</time></trkpt><trkpt lat="43.28472747790193" lon="5.412406914449215"><ele>22.666666666666664</ele><time>2026-03-24T15:04:28Z</time></trkpt><trkpt lat="43.28476238670891" lon="5.412105386571412"><ele>23.333333333333332</ele><time>2026-03-24T15:04:29Z</time></trkpt><trkpt lat="43.284806571650456" lon="5.4118091089238405"><ele>24.0</ele><time>2026-03-24T15:04:30Z</time></trkpt><trkpt lat="43.284855692366534" lon="5.411528241120957"><ele>26.666666666666664</ele><time>2026-03-24T15:04:31Z</time></trkpt><trkpt lat="43.2848956449109" lon="5.411258686099227"><ele>29.333333333333332</ele><time>2026-03-24T15:04:32Z</time></trkpt><trkpt lat="43.28492834067083" lon="5.411011684432047"><ele>32.0</ele><time>2026-03-24T15:04:33Z</time></trkpt><trkpt lat="43.28494626447305" lon="5.410752533973344"><ele>32.0</ele><time>2026-03-24T15:04:34Z</time></trkpt><trkpt lat="43.284957820039516" lon="5.410498306778815"><ele>32.0</ele><time>2026-03-24T15:04:35Z</time></trkpt><trkpt lat="43.28496665996378" lon="5.410271883548086"><ele>32.0</ele><time>2026-03-24T15:04:36Z</time></trkpt><trkpt lat="43.28496710914171" lon="5.410030630358259"><ele>31.666666666666664</ele><time>2026-03-24T15:04:37Z</time></trkpt><trkpt lat="43.28496508628622" lon="5.409792122434029"><ele>31.333333333333336</ele><time>2026-03-24T15:04:38Z</time></trkpt><trkpt lat="43.284962825126875" lon="5.409563147396946"><ele>31.0</ele><time>2026-03-24T15:04:39Z</time></trkpt><trkpt lat="43.28495602987918" lon="5.409327405835426"><ele>30.666666666666668</ele><time>2026-03-24T15:04:40Z</time></trkpt><trkpt lat="43.284944984927385" lon="5.409087738887893"><ele>30.333333333333336</ele><time>2026-03-24T15:04:41Z</time></trkpt><trkpt lat="43.284933731002255" lon="5.408839957521418"><ele>30.0</ele><time>2026-03-24T15:04:42Z</time></trkpt><trkpt lat="43.284911767362594" lon="5.408592054292202"><ele>30.0</ele><time>2026-03-24T15:04:43Z</time></trkpt><trkpt lat="43.28489141768724" lon="5.408342348944508"><ele>30.0</ele><time>2026-03-24T15:04:44Z</time></trkpt><trkpt lat="43.28486197195366" lon="5.408073204463673"><ele>30.0</ele><time>2026-03-24T15:04:45Z</time></trkpt><trkpt lat="43.2848321257654" lon="5.4078034149120535"><ele>30.333333333333336</ele><time>2026-03-24T15:04:46Z</time></trkpt><trkpt lat="43.284792643269824" lon="5.407520861700472"><ele>30.666666666666668</ele><time>2026-03-24T15:04:47Z</time></trkpt><trkpt lat="43.28474208435426" lon="5.407239744741247"><ele>31.0</ele><time>2026-03-24T15:04:48Z</time></trkpt><trkpt lat="43.284696473615526" lon="5.406966636108198"><ele>30.0</ele><time>2026-03-24T15:04:49Z</time></trkpt><trkpt lat="43.28463629321993" lon="5.406711147868734"><ele>29.0</ele><time>2026-03-24T15:04:50Z</time></trkpt><trkpt lat="43.284588215662076" lon="5.4064618087378955"><ele>28.0</ele><time>2026-03-24T15:04:51Z</time></trkpt><trkpt lat="43.28455467090167" lon="5.406210322352829"><ele>27.666666666666668</ele><time>2026-03-24T15:04:52Z</time></trkpt><trkpt lat="43.28451358082293" lon="5.405950905586385"><ele>27.333333333333336</ele><time>2026-03-24T15:04:53Z</time></trkpt><trkpt lat="43.28448469371079" lon="5.405699781222584"><ele>27.0</ele><time>2026-03-24T15:04:54Z</time></trkpt><trkpt lat="43.28445307162233" lon="5.405451239480524"><ele>27.0</ele><time>2026-03-24T15:04:55Z</time></trkpt><trkpt lat="43.28442053125107" lon="5.405213252011813"><ele>27.0</ele><time>2026-03-24T15:04:56Z</time></trkpt><trkpt lat="43.284389312847146" lon="5.404990125259098"><ele>27.0</ele><time>2026-03-24T15:04:57Z</time></trkpt><trkpt lat="43.284356567520405" lon="5.404757572299802"><ele>28.333333333333336</ele><time>2026-03-24T15:04:58Z</time></trkpt><trkpt lat="43.28431922306701" lon="5.404530491629848"><ele>29.666666666666668</ele><time>2026-03-24T15:04:59Z</time></trkpt><trkpt lat="43.28427855314368" lon="5.404299814731097"><ele>31.0</ele><time>2026-03-24T15:05:00Z</time></trkpt><trkpt lat="43.284244445017876" lon="5.404064478591387"><ele>31.333333333333336</ele><time>2026-03-24T15:05:01Z</time></trkpt><trkpt lat="43.28420874002084" lon="5.403822067092296"><ele>31.666666666666664</ele><time>2026-03-24T15:05:02Z</time></trkpt><trkpt lat="43.28416194698002" lon="5.4035668769225635"><ele>32.0</ele><time>2026-03-24T15:05:03Z</time></trkpt><trkpt lat="43.28412068696843" lon="5.403319742939407"><ele>32.0</ele><time>2026-03-24T15:05:04Z</time></trkpt><trkpt lat="43.28405842569438" lon="5.403067895358132"><ele>32.0</ele><time>2026-03-24T15:05:05Z</time></trkpt><trkpt lat="43.28398915395159" lon="5.402803493742301"><ele>32.0</ele><time>2026-03-24T15:05:06Z</time></trkpt><trkpt lat="43.283920663632934" lon="5.402530620963812"><ele>29.5</ele><time>2026-03-24T15:05:07Z</time></trkpt><trkpt lat="43.28385183260238" lon="5.402242632071837"><ele>27.0</ele><time>2026-03-24T15:05:08Z</time></trkpt><trkpt lat="43.28378338207913" lon="5.401922233561036"><ele>26.5</ele><time>2026-03-24T15:05:09Z</time></trkpt><trkpt lat="43.28373446160356" lon="5.401591221174904"><ele>26.0</ele><time>2026-03-24T15:05:10Z</time></trkpt><trkpt lat="43.28369837491023" lon="5.401248779351256"><ele>26.0</ele><time>2026-03-24T15:05:11Z</time></trkpt><trkpt lat="43.28366533496913" lon="5.400936802448649"><ele>26.0</ele><time>2026-03-24T15:05:12Z</time></trkpt><trkpt lat="43.28363613632549" lon="5.4006293029089845"><ele>25.666666666666664</ele><time>2026-03-24T15:05:13Z</time></trkpt><trkpt lat="43.283608066800745" lon="5.400325640508093"><ele>25.333333333333336</ele><time>2026-03-24T15:05:14Z</time></trkpt><trkpt lat="43.28356940989308" lon="5.400055976059259"><ele>25.0</ele><time>2026-03-24T15:05:15Z</time></trkpt><trkpt lat="43.28353989633919" lon="5.399832785409686"><ele>25.0</ele><time>2026-03-24T15:05:16Z</time></trkpt><trkpt lat="43.28350915570225" lon="5.399626442519733"><ele>25.0</ele><time>2026-03-24T15:05:17Z</time></trkpt><trkpt lat="43.2834953658749" lon="5.399440712581619"><ele>25.0</ele><time>2026-03-24T15:05:18Z</time></trkpt><trkpt lat="43.283502861673874" lon="5.399256920392797"><ele>25.0</ele><time>2026-03-24T15:05:19Z</time></trkpt><trkpt lat="43.2835427058084" lon="5.399101518658713"><ele>25.0</ele><time>2026-03-24T15:05:20Z</time></trkpt><trkpt lat="43.28361768062721" lon="5.398971950906308"><ele>25.0</ele><time>2026-03-24T15:05:21Z</time></trkpt><trkpt lat="43.28370398040221" lon="5.398871622376452"><ele>25.0</ele><time>2026-03-24T15:05:22Z</time></trkpt><trkpt lat="43.28382458591477" lon="5.3988427994425185"><ele>25.0</ele><time>2026-03-24T15:05:23Z</time></trkpt><trkpt lat="43.28394567705118" lon="5.398825983236147"><ele>25.0</ele><time>2026-03-24T15:05:24Z</time></trkpt><trkpt lat="43.28409791985479" lon="5.398822318349811"><ele>25.0</ele><time>2026-03-24T15:05:25Z</time></trkpt><trkpt lat="43.28427007064762" lon="5.398777803836002"><ele>25.0</ele><time>2026-03-24T15:05:26Z</time></trkpt><trkpt lat="43.28442402600331" lon="5.398766876131678"><ele>25.0</ele><time>2026-03-24T15:05:27Z</time></trkpt><trkpt lat="43.284570012617" lon="5.398774779709105"><ele>25.0</ele><time>2026-03-24T15:05:28Z</time></trkpt><trkpt lat="43.28469250929504" lon="5.398787894375083"><ele>25.0</ele><time>2026-03-24T15:05:29Z</time></trkpt><trkpt lat="43.28479092945173" lon="5.398797991534341"><ele>25.0</ele><time>2026-03-24T15:05:30Z</time></trkpt><trkpt lat="43.28487109372591" lon="5.398809376282174"><ele>25.0</ele><time>2026-03-24T15:05:31Z</time></trkpt><trkpt lat="43.28497640804625" lon="5.398818302026664"><ele>25.2</ele><time>2026-03-24T15:05:33Z</time></trkpt><trkpt lat="43.285090575655495" lon="5.398843909837845"><ele>25.4</ele><time>2026-03-24T15:06:00Z</time></trkpt><trkpt lat="43.28518422097711" lon="5.398839889444448"><ele>25.6</ele><time>2026-03-24T15:06:02Z</time></trkpt><trkpt lat="43.28530149694263" lon="5.398818415267531"><ele>25.8</ele><time>2026-03-24T15:06:04Z</time></trkpt><trkpt lat="43.28537091950071" lon="5.398825232726961"><ele>26.0</ele><time>2026-03-24T15:06:05Z</time></trkpt><trkpt lat="43.28546107955315" lon="5.398829309319644"><ele>26.333333333333332</ele><time>2026-03-24T15:06:06Z</time></trkpt><trkpt lat="43.28553443220303" lon="5.398832728089509"><ele>26.666666666666664</ele><time>2026-03-24T15:06:07Z</time></trkpt><trkpt lat="43.28559965283641" lon="5.398828107656012"><ele>27.0</ele><time>2026-03-24T15:06:08Z</time></trkpt><trkpt lat="43.28567944827806" lon="5.398821824268346"><ele>27.333333333333336</ele><time>2026-03-24T15:06:09Z</time></trkpt><trkpt lat="43.285795081659316" lon="5.398841248620152"><ele>27.666666666666668</ele><time>2026-03-24T15:06:10Z</time></trkpt><trkpt lat="43.28588413428507" lon="5.398863495051899"><ele>28.0</ele><time>2026-03-24T15:06:11Z</time></trkpt><trkpt lat="43.2859604832756" lon="5.398895523852318"><ele>28.599999999999998</ele><time>2026-03-24T15:06:12Z</time></trkpt><trkpt lat="43.28605230966839" lon="5.398950964815126"><ele>29.199999999999996</ele><time>2026-03-24T15:06:13Z</time></trkpt><trkpt lat="43.28615725149345" lon="5.399000911113348"><ele>29.8</ele><time>2026-03-24T15:06:14Z</time></trkpt><trkpt lat="43.286229074557795" lon="5.3990655189764025"><ele>30.4</ele><time>2026-03-24T15:06:15Z</time></trkpt><trkpt lat="43.28631040454206" lon="5.399139670203465"><ele>31.0</ele><time>2026-03-24T15:06:16Z</time></trkpt><trkpt lat="43.28639214374586" lon="5.39922347046849"><ele>30.200000000000003</ele><time>2026-03-24T15:06:17Z</time></trkpt><trkpt lat="43.286436814551514" lon="5.399375523025196"><ele>29.400000000000002</ele><time>2026-03-24T15:06:18Z</time></trkpt><trkpt lat="43.286501869872204" lon="5.399466913746227"><ele>28.6</ele><time>2026-03-24T15:06:19Z</time></trkpt><trkpt lat="43.28656345231802" lon="5.399554844482214"><ele>27.8</ele><time>2026-03-24T15:06:20Z</time></trkpt><trkpt lat="43.28661965872476" lon="5.3996353273404365"><ele>27.0</ele><time>2026-03-24T15:06:21Z</time></trkpt><trkpt lat="43.286678742573336" lon="5.399719930511651"><ele>27.0</ele><time>2026-03-24T15:06:22Z</time></trkpt><trkpt lat="43.286732104450614" lon="5.39979651494094"><ele>27.000000000000004</ele><time>2026-03-24T15:06:23Z</time></trkpt><trkpt lat="43.28679740352654" lon="5.399890298732158"><ele>27.000000000000004</ele><time>2026-03-24T15:06:24Z</time></trkpt><trkpt lat="43.28686505349195" lon="5.399986450846379"><ele>27.0</ele><time>2026-03-24T15:06:25Z</time></trkpt><trkpt lat="43.28694073007441" lon="5.400087436438517"><ele>27.0</ele><time>2026-03-24T15:06:26Z</time></trkpt><trkpt lat="43.28702517216584" lon="5.40018372986932"><ele>27.0</ele><time>2026-03-24T15:06:27Z</time></trkpt><trkpt lat="43.28712331630681" lon="5.400272803849304"><ele>27.0</ele><time>2026-03-24T15:06:28Z</time></trkpt><trkpt lat="43.287235902651084" lon="5.400353091686373"><ele>27.0</ele><time>2026-03-24T15:06:29Z</time></trkpt><trkpt lat="43.28734668392235" lon="5.400415310043397"><ele>27.0</ele><time>2026-03-24T15:06:30Z</time></trkpt><trkpt lat="43.28745710736269" lon="5.4004569152823665"><ele>27.166666666666668</ele><time>2026-03-24T15:06:31Z</time></trkpt><trkpt lat="43.287545234722835" lon="5.400474425935705"><ele>27.333333333333336</ele><time>2026-03-24T15:06:32Z</time></trkpt><trkpt lat="43.28763755600088" lon="5.400484687170396"><ele>27.5</ele><time>2026-03-24T15:06:33Z</time></trkpt><trkpt lat="43.28772456103583" lon="5.400486918096095"><ele>27.666666666666668</ele><time>2026-03-24T15:06:34Z</time></trkpt><trkpt lat="43.287805525879875" lon="5.400480260784838"><ele>27.833333333333336</ele><time>2026-03-24T15:06:35Z</time></trkpt><trkpt lat="43.28788441556865" lon="5.40048912546959"><ele>28.0</ele><time>2026-03-24T15:06:36Z</time></trkpt><trkpt lat="43.28795932011222" lon="5.400484145462716"><ele>28.0</ele><time>2026-03-24T15:06:37Z</time></trkpt><trkpt lat="43.28805717305808" lon="5.4004614233806425"><ele>27.999999999999996</ele><time>2026-03-24T15:06:39Z</time></trkpt><trkpt lat="43.2881562679096" lon="5.400420231642238"><ele>27.999999999999996</ele><time>2026-03-24T15:06:40Z</time></trkpt><trkpt lat="43.288231224167234" lon="5.400401090730954"><ele>28.0</ele><time>2026-03-24T15:06:41Z</time></trkpt><trkpt lat="43.28832180445443" lon="5.400384268100525"><ele>28.0</ele><time>2026-03-24T15:06:43Z</time></trkpt><trkpt lat="43.288398865547784" lon="5.400354632376381"><ele>28.333333333333336</ele><time>2026-03-24T15:06:45Z</time></trkpt><trkpt lat="43.28852169406912" lon="5.400292856393932"><ele>28.666666666666668</ele><time>2026-03-24T15:06:47Z</time></trkpt><trkpt lat="43.28859177728554" lon="5.400266047175784"><ele>29.0</ele><time>2026-03-24T15:06:49Z</time></trkpt><trkpt lat="43.288678590304315" lon="5.400271584320089"><ele>29.333333333333336</ele><time>2026-03-24T15:06:52Z</time></trkpt><trkpt lat="43.28874924751789" lon="5.400257637741892"><ele>29.666666666666668</ele><time>2026-03-24T15:06:53Z</time></trkpt><trkpt lat="43.28882350510299" lon="5.400243293184386"><ele>30.0</ele><time>2026-03-24T15:06:54Z</time></trkpt><trkpt lat="43.2889094346901" lon="5.400226434212389"><ele>30.0</ele><time>2026-03-24T15:06:55Z</time></trkpt><trkpt lat="43.28901718090509" lon="5.400205267620087"><ele>30.0</ele><time>2026-03-24T15:06:56Z</time></trkpt><trkpt lat="43.289126080255" lon="5.4001622980202395"><ele>30.0</ele><time>2026-03-24T15:06:57Z</time></trkpt><trkpt lat="43.289214279462016" lon="5.4001636303002325"><ele>30.0</ele><time>2026-03-24T15:06:58Z</time></trkpt><trkpt lat="43.2892819241583" lon="5.400115397628467"><ele>30.0</ele><time>2026-03-24T15:06:59Z</time></trkpt><trkpt lat="43.2893618555108" lon="5.400101395290856"><ele>30.0</ele><time>2026-03-24T15:07:00Z</time></trkpt><trkpt lat="43.28948573056097" lon="5.400089610262147"><ele>30.0</ele><time>2026-03-24T15:07:02Z</time></trkpt><trkpt lat="43.28961860564277" lon="5.400060525923033"><ele>30.0</ele><time>2026-03-24T15:07:04Z</time></trkpt><trkpt lat="43.289718522908174" lon="5.400038350828515"><ele>30.0</ele><time>2026-03-24T15:07:06Z</time></trkpt><trkpt lat="43.28978587071269" lon="5.4000234584798985"><ele>30.0</ele><time>2026-03-24T15:07:07Z</time></trkpt><trkpt lat="43.289868544367565" lon="5.400005192931858"><ele>30.4</ele><time>2026-03-24T15:07:09Z</time></trkpt><trkpt lat="43.289982650157725" lon="5.399984358565295"><ele>30.8</ele><time>2026-03-24T15:07:11Z</time></trkpt><trkpt lat="43.29006858828329" lon="5.399989181793896"><ele>31.200000000000003</ele><time>2026-03-24T15:07:13Z</time></trkpt><trkpt lat="43.29015591961099" lon="5.3999969653872935"><ele>31.6</ele><time>2026-03-24T15:07:15Z</time></trkpt><trkpt lat="43.290221973876086" lon="5.40000825299189"><ele>32.0</ele><time>2026-03-24T15:07:16Z</time></trkpt><trkpt lat="43.290346803847484" lon="5.399971782405684"><ele>32.0</ele><time>2026-03-24T15:07:18Z</time></trkpt><trkpt lat="43.29042896658335" lon="5.399962611624152"><ele>32.0</ele><time>2026-03-24T15:07:19Z</time></trkpt><trkpt lat="43.29051252807568" lon="5.399963688695593"><ele>32.0</ele><time>2026-03-24T15:07:20Z</time></trkpt><trkpt lat="43.290619313713684" lon="5.399969501200428"><ele>32.0</ele><time>2026-03-24T15:07:21Z</time></trkpt><trkpt lat="43.29073347715233" lon="5.39996496207675"><ele>32.0</ele><time>2026-03-24T15:07:22Z</time></trkpt><trkpt lat="43.290822659292" lon="5.399961164444006"><ele>32.2</ele><time>2026-03-24T15:07:23Z</time></trkpt><trkpt lat="43.290908749146375" lon="5.399968057426945"><ele>32.400000000000006</ele><time>2026-03-24T15:07:24Z</time></trkpt><trkpt lat="43.290993881435625" lon="5.39997476981543"><ele>32.599999999999994</ele><time>2026-03-24T15:07:25Z</time></trkpt><trkpt lat="43.29110896384961" lon="5.400027932515099"><ele>32.8</ele><time>2026-03-24T15:07:26Z</time></trkpt><trkpt lat="43.29121147500315" lon="5.400063391299471"><ele>33.0</ele><time>2026-03-24T15:07:27Z</time></trkpt><trkpt lat="43.29129760815598" lon="5.400106996020613"><ele>33.0</ele><time>2026-03-24T15:07:28Z</time></trkpt><trkpt lat="43.291374630510475" lon="5.400152903981312"><ele>33.0</ele><time>2026-03-24T15:07:29Z</time></trkpt><trkpt lat="43.291454813721295" lon="5.400191343266458"><ele>33.0</ele><time>2026-03-24T15:07:30Z</time></trkpt><trkpt lat="43.29153432609309" lon="5.4002468920457645"><ele>33.0</ele><time>2026-03-24T15:07:31Z</time></trkpt><trkpt lat="43.29161668753727" lon="5.400311322533134"><ele>33.0</ele><time>2026-03-24T15:07:32Z</time></trkpt><trkpt lat="43.291712230070715" lon="5.4003982761819795"><ele>32.833333333333336</ele><time>2026-03-24T15:07:33Z</time></trkpt><trkpt lat="43.29177893007932" lon="5.400481738778873"><ele>32.666666666666664</ele><time>2026-03-24T15:07:34Z</time></trkpt><trkpt lat="43.2918212936422" lon="5.400571184674466"><ele>32.5</ele><time>2026-03-24T15:07:35Z</time></trkpt><trkpt lat="43.291877723188385" lon="5.400648606991805"><ele>32.33333333333333</ele><time>2026-03-24T15:07:36Z</time></trkpt><trkpt lat="43.29193640163537" lon="5.400735425362744"><ele>32.166666666666664</ele><time>2026-03-24T15:07:37Z</time></trkpt><trkpt lat="43.29199440217177" lon="5.400818371387909"><ele>32.0</ele><time>2026-03-24T15:07:38Z</time></trkpt><trkpt lat="43.29204650503509" lon="5.400881723561367"><ele>31.999999999999996</ele><time>2026-03-24T15:07:39Z</time></trkpt><trkpt lat="43.2921305804233" lon="5.400974995886035"><ele>32.0</ele><time>2026-03-24T15:07:41Z</time></trkpt><trkpt lat="43.29218680072978" lon="5.401038399697999"><ele>32.0</ele><time>2026-03-24T15:07:43Z</time></trkpt><trkpt lat="43.29224305735943" lon="5.401089766402479"><ele>32.0</ele><time>2026-03-24T15:08:17Z</time></trkpt><trkpt lat="43.29231682516939" lon="5.401181471876476"><ele>31.999999999999996</ele><time>2026-03-24T15:08:19Z</time></trkpt><trkpt lat="43.292380401378715" lon="5.401232704048284"><ele>32.0</ele><time>2026-03-24T15:08:20Z</time></trkpt><trkpt lat="43.29248751502021" lon="5.401292749529066"><ele>32.4</ele><time>2026-03-24T15:08:21Z</time></trkpt><trkpt lat="43.2926095479884" lon="5.401322786494342"><ele>32.800000000000004</ele><time>2026-03-24T15:08:22Z</time></trkpt><trkpt lat="43.2927147066637" lon="5.401350362450778"><ele>33.2</ele><time>2026-03-24T15:08:23Z</time></trkpt><trkpt lat="43.292813765421954" lon="5.401390286277804"><ele>33.6</ele><time>2026-03-24T15:08:24Z</time></trkpt><trkpt lat="43.2929153140946" lon="5.40142267389962"><ele>34.0</ele><time>2026-03-24T15:08:25Z</time></trkpt><trkpt lat="43.293010728603896" lon="5.401448975110733"><ele>34.8</ele><time>2026-03-24T15:08:26Z</time></trkpt><trkpt lat="43.29312932604753" lon="5.401540876785983"><ele>35.599999999999994</ele><time>2026-03-24T15:08:28Z</time></trkpt><trkpt lat="43.29319503577472" lon="5.401575096166714"><ele>36.4</ele><time>2026-03-24T15:08:29Z</time></trkpt><trkpt lat="43.29325474949545" lon="5.401603947028545"><ele>37.199999999999996</ele><time>2026-03-24T15:08:30Z</time></trkpt><trkpt lat="43.29337346038096" lon="5.401650664932834"><ele>38.0</ele><time>2026-03-24T15:08:32Z</time></trkpt><trkpt lat="43.29348793013418" lon="5.401672776116491"><ele>38.0</ele><time>2026-03-24T15:08:34Z</time></trkpt><trkpt lat="43.29355118421879" lon="5.401682584139301"><ele>38.0</ele><time>2026-03-24T15:08:35Z</time></trkpt><trkpt lat="43.29362209297826" lon="5.401702524332807"><ele>38.0</ele><time>2026-03-24T15:08:36Z</time></trkpt><trkpt lat="43.29370444950839" lon="5.401708844719793"><ele>38.0</ele><time>2026-03-24T15:08:37Z</time></trkpt><trkpt lat="43.293796672735155" lon="5.401699730526827"><ele>38.0</ele><time>2026-03-24T15:08:38Z</time></trkpt><trkpt lat="43.29387949078089" lon="5.4016889501991034"><ele>38.0</ele><time>2026-03-24T15:08:39Z</time></trkpt><trkpt lat="43.29395687579027" lon="5.401681672428471"><ele>38.5</ele><time>2026-03-24T15:08:40Z</time></trkpt><trkpt lat="43.29403377955569" lon="5.401662727257485"><ele>39.0</ele><time>2026-03-24T15:08:41Z</time></trkpt><trkpt lat="43.29411402952912" lon="5.4016393688091595"><ele>39.5</ele><time>2026-03-24T15:08:42Z</time></trkpt><trkpt lat="43.2942057590889" lon="5.401605536021129"><ele>40.0</ele><time>2026-03-24T15:08:43Z</time></trkpt><trkpt lat="43.29427690416169" lon="5.401566503547378"><ele>40.5</ele><time>2026-03-24T15:08:44Z</time></trkpt><trkpt lat="43.29433789149145" lon="5.401519238881155"><ele>41.0</ele><time>2026-03-24T15:08:45Z</time></trkpt><trkpt lat="43.29443447168263" lon="5.401491068312992"><ele>41.0</ele><time>2026-03-24T15:08:46Z</time></trkpt><trkpt lat="43.29450861575669" lon="5.401448289116851"><ele>41.0</ele><time>2026-03-24T15:08:47Z</time></trkpt><trkpt lat="43.29456495670195" lon="5.40140659542092"><ele>41.0</ele><time>2026-03-24T15:08:48Z</time></trkpt><trkpt lat="43.294631366301616" lon="5.401352953485438"><ele>41.0</ele><time>2026-03-24T15:08:49Z</time></trkpt><trkpt lat="43.29470527422044" lon="5.401284860360316"><ele>41.0</ele><time>2026-03-24T15:08:50Z</time></trkpt><trkpt lat="43.29478871161754" lon="5.401188564867505"><ele>41.0</ele><time>2026-03-24T15:08:51Z</time></trkpt><trkpt lat="43.294922119455826" lon="5.4010858151457874"><ele>40.0</ele><time>2026-03-24T15:08:52Z</time></trkpt><trkpt lat="43.29498101580656" lon="5.401013471395997"><ele>39.0</ele><time>2026-03-24T15:08:53Z</time></trkpt><trkpt lat="43.29505794611228" lon="5.4009345850278345"><ele>38.0</ele><time>2026-03-24T15:08:54Z</time></trkpt><trkpt lat="43.295137606395805" lon="5.400854499093888"><ele>37.0</ele><time>2026-03-24T15:08:55Z</time></trkpt><trkpt lat="43.29520855799935" lon="5.400790070491738"><ele>36.0</ele><time>2026-03-24T15:08:56Z</time></trkpt><trkpt lat="43.29528284750152" lon="5.400723650662501"><ele>35.0</ele><time>2026-03-24T15:08:57Z</time></trkpt><trkpt lat="43.29537605245734" lon="5.400635823424075"><ele>35.0</ele><time>2026-03-24T15:08:59Z</time></trkpt><trkpt lat="43.29545189273088" lon="5.400572921341027"><ele>35.0</ele><time>2026-03-24T15:09:02Z</time></trkpt><trkpt lat="43.29552449880697" lon="5.400522486722989"><ele>35.0</ele><time>2026-03-24T15:09:05Z</time></trkpt><trkpt lat="43.2955941649946" lon="5.4005087633706825"><ele>35.0</ele><time>2026-03-24T15:09:34Z</time></trkpt><trkpt lat="43.295665830633816" lon="5.400448972175779"><ele>35.0</ele><time>2026-03-24T15:09:36Z</time></trkpt><trkpt lat="43.295747550123544" lon="5.4004096035695595"><ele>35.0</ele><time>2026-03-24T15:09:38Z</time></trkpt><trkpt lat="43.295857764030735" lon="5.400377572208421"><ele>35.75</ele><time>2026-03-24T15:09:40Z</time></trkpt><trkpt lat="43.29598142492943" lon="5.400340514394545"><ele>36.5</ele><time>2026-03-24T15:09:42Z</time></trkpt><trkpt lat="43.29610310868389" lon="5.400331840806187"><ele>37.25</ele><time>2026-03-24T15:09:43Z</time></trkpt><trkpt lat="43.29624014865532" lon="5.40028949980833"><ele>38.0</ele><time>2026-03-24T15:09:44Z</time></trkpt><trkpt lat="43.296351552872764" lon="5.400268713498146"><ele>37.5</ele><time>2026-03-24T15:09:45Z</time></trkpt><trkpt lat="43.29648184165928" lon="5.4002963931074826"><ele>37.0</ele><time>2026-03-24T15:09:46Z</time></trkpt><trkpt lat="43.296654595416335" lon="5.400302556090693"><ele>36.5</ele><time>2026-03-24T15:09:47Z</time></trkpt><trkpt lat="43.29673879694712" lon="5.400359457883608"><ele>36.0</ele><time>2026-03-24T15:09:48Z</time></trkpt><trkpt lat="43.29684937794001" lon="5.4004113413542"><ele>36.0</ele><time>2026-03-24T15:09:49Z</time></trkpt><trkpt lat="43.29693731884009" lon="5.400472624547574"><ele>36.0</ele><time>2026-03-24T15:09:50Z</time></trkpt><trkpt lat="43.296994051254394" lon="5.400510721793918"><ele>36.0</ele><time>2026-03-24T15:09:51Z</time></trkpt><trkpt lat="43.29712763130458" lon="5.4006025702005305"><ele>36.0</ele><time>2026-03-24T15:09:53Z</time></trkpt><trkpt lat="43.29720040587008" lon="5.4006756202833355"><ele>36.0</ele><time>2026-03-24T15:09:55Z</time></trkpt><trkpt lat="43.297268569997115" lon="5.400731973925499"><ele>37.2</ele><time>2026-03-24T15:09:56Z</time></trkpt><trkpt lat="43.29731102832241" lon="5.400801227950061"><ele>38.400000000000006</ele><time>2026-03-24T15:09:57Z</time></trkpt><trkpt lat="43.29745401900681" lon="5.400923577537908"><ele>39.6</ele><time>2026-03-24T15:09:59Z</time></trkpt><trkpt lat="43.29753665321801" lon="5.4009717642782755"><ele>40.800000000000004</ele><time>2026-03-24T15:10:00Z</time></trkpt><trkpt lat="43.29761677269161" lon="5.400995839552812"><ele>42.0</ele><time>2026-03-24T15:10:01Z</time></trkpt><trkpt lat="43.297703976427655" lon="5.401000335802128"><ele>42.0</ele><time>2026-03-24T15:10:02Z</time></trkpt><trkpt lat="43.29784603473764" lon="5.400986375478914"><ele>42.0</ele><time>2026-03-24T15:10:03Z</time></trkpt><trkpt lat="43.297984670040826" lon="5.400976047663482"><ele>42.0</ele><time>2026-03-24T15:10:04Z</time></trkpt><trkpt lat="43.29807207459432" lon="5.400973914132095"><ele>42.0</ele><time>2026-03-24T15:10:05Z</time></trkpt><trkpt lat="43.298165686439155" lon="5.400980588535647"><ele>42.166666666666664</ele><time>2026-03-24T15:10:06Z</time></trkpt><trkpt lat="43.29823385510175" lon="5.400964455056487"><ele>42.333333333333336</ele><time>2026-03-24T15:10:07Z</time></trkpt><trkpt lat="43.298348856784074" lon="5.400977672295919"><ele>42.5</ele><time>2026-03-24T15:10:08Z</time></trkpt><trkpt lat="43.29842714509646" lon="5.400977146421474"><ele>42.66666666666667</ele><time>2026-03-24T15:10:09Z</time></trkpt><trkpt lat="43.298496703201685" lon="5.400971766780131"><ele>42.833333333333336</ele><time>2026-03-24T15:10:10Z</time></trkpt><trkpt lat="43.298561615656844" lon="5.40094272005853"><ele>43.0</ele><time>2026-03-24T15:10:11Z</time></trkpt><trkpt lat="43.29864834934264" lon="5.400966425670834"><ele>43.0</ele><time>2026-03-24T15:10:12Z</time></trkpt><trkpt lat="43.29873951926948" lon="5.400968905908215"><ele>43.0</ele><time>2026-03-24T15:10:13Z</time></trkpt><trkpt lat="43.29884645982522" lon="5.400964329756115"><ele>43.0</ele><time>2026-03-24T15:10:14Z</time></trkpt><trkpt lat="43.29895705711532" lon="5.400955020350495"><ele>43.0</ele><time>2026-03-24T15:10:15Z</time></trkpt><trkpt lat="43.29906862682891" lon="5.4009378649994515"><ele>43.0</ele><time>2026-03-24T15:10:16Z</time></trkpt><trkpt lat="43.29916626770698" lon="5.400930345123838"><ele>43.5</ele><time>2026-03-24T15:10:17Z</time></trkpt><trkpt lat="43.299262865562035" lon="5.400913342539564"><ele>44.0</ele><time>2026-03-24T15:10:18Z</time></trkpt><trkpt lat="43.299347159563084" lon="5.40090380337933"><ele>44.5</ele><time>2026-03-24T15:10:19Z</time></trkpt><trkpt lat="43.299412270596804" lon="5.400892985879285"><ele>45.0</ele><time>2026-03-24T15:10:20Z</time></trkpt><trkpt lat="43.29949620354903" lon="5.400873909999026"><ele>45.5</ele><time>2026-03-24T15:10:23Z</time></trkpt><trkpt lat="43.29958637400397" lon="5.400845420678035"><ele>46.0</ele><time>2026-03-24T15:10:46Z</time></trkpt><trkpt lat="43.299678535092134" lon="5.400834086565223"><ele>46.16666666666667</ele><time>2026-03-24T15:10:48Z</time></trkpt><trkpt lat="43.29977867947862" lon="5.400825917022731"><ele>46.333333333333336</ele><time>2026-03-24T15:10:50Z</time></trkpt><trkpt lat="43.299844603715165" lon="5.400818276341355"><ele>46.5</ele><time>2026-03-24T15:10:51Z</time></trkpt><trkpt lat="43.2999103007232" lon="5.4008323215526035"><ele>46.666666666666664</ele><time>2026-03-24T15:10:52Z</time></trkpt><trkpt lat="43.30003114266735" lon="5.400829522342391"><ele>46.83333333333333</ele><time>2026-03-24T15:10:54Z</time></trkpt><trkpt lat="43.300097386064586" lon="5.400805294308687"><ele>47.0</ele><time>2026-03-24T15:10:55Z</time></trkpt><trkpt lat="43.30018183580561" lon="5.4008066439657645"><ele>47.0</ele><time>2026-03-24T15:10:57Z</time></trkpt><trkpt lat="43.30028548216206" lon="5.400820250210305"><ele>47.0</ele><time>2026-03-24T15:11:01Z</time></trkpt><trkpt lat="43.30036207340796" lon="5.400816000836046"><ele>47.0</ele><time>2026-03-24T15:11:02Z</time></trkpt><trkpt lat="43.300464452084164" lon="5.4008103833506755"><ele>47.0</ele><time>2026-03-24T15:11:04Z</time></trkpt><trkpt lat="43.30053835964912" lon="5.4008060602447605"><ele>47.0</ele><time>2026-03-24T15:11:05Z</time></trkpt><trkpt lat="43.300635043265984" lon="5.400800061951144"><ele>46.666666666666664</ele><time>2026-03-24T15:11:06Z</time></trkpt><trkpt lat="43.30072964178793" lon="5.400794192999871"><ele>46.33333333333333</ele><time>2026-03-24T15:11:07Z</time></trkpt><trkpt lat="43.30081800067357" lon="5.400766884602861"><ele>46.0</ele><time>2026-03-24T15:11:08Z</time></trkpt><trkpt lat="43.30092208816557" lon="5.400758452891286"><ele>45.666666666666664</ele><time>2026-03-24T15:11:10Z</time></trkpt><trkpt lat="43.30098856085041" lon="5.400767754157255"><ele>45.333333333333336</ele><time>2026-03-24T15:11:12Z</time></trkpt><trkpt lat="43.30106940412602" lon="5.400803020328605"><ele>45.0</ele><time>2026-03-24T15:11:18Z</time></trkpt><trkpt lat="43.301155957775876" lon="5.400761974067564"><ele>45.0</ele><time>2026-03-24T15:11:20Z</time></trkpt><trkpt lat="43.301232730798844" lon="5.40071111670311"><ele>45.0</ele><time>2026-03-24T15:11:22Z</time></trkpt><trkpt lat="43.301354391458474" lon="5.400701457117898"><ele>45.0</ele><time>2026-03-24T15:11:24Z</time></trkpt><trkpt lat="43.301437296738584" lon="5.40072615729479"><ele>45.0</ele><time>2026-03-24T15:11:25Z</time></trkpt><trkpt lat="43.301517826312306" lon="5.40073024741513"><ele>45.0</ele><time>2026-03-24T15:11:26Z</time></trkpt><trkpt lat="43.30161984975835" lon="5.40071992426014"><ele>45.333333333333336</ele><time>2026-03-24T15:11:28Z</time></trkpt><trkpt lat="43.30168517413206" lon="5.400709982188039"><ele>45.666666666666664</ele><time>2026-03-24T15:11:29Z</time></trkpt><trkpt lat="43.30176487090204" lon="5.400693068875229"><ele>46.0</ele><time>2026-03-24T15:11:30Z</time></trkpt><trkpt lat="43.301850573060435" lon="5.40067918039913"><ele>46.33333333333333</ele><time>2026-03-24T15:11:31Z</time></trkpt><trkpt lat="43.301935518008136" lon="5.400669571557975"><ele>46.666666666666664</ele><time>2026-03-24T15:11:32Z</time></trkpt><trkpt lat="43.30200324973706" lon="5.400659298952796"><ele>47.0</ele><time>2026-03-24T15:11:33Z</time></trkpt><trkpt lat="43.302083132389896" lon="5.400650075259319"><ele>47.0</ele><time>2026-03-24T15:11:34Z</time></trkpt><trkpt lat="43.302168977310274" lon="5.400671350406303"><ele>47.0</ele><time>2026-03-24T15:11:35Z</time></trkpt><trkpt lat="43.30226416313892" lon="5.400675655401397"><ele>47.0</ele><time>2026-03-24T15:11:36Z</time></trkpt><trkpt lat="43.302355091216924" lon="5.400673265850136"><ele>47.0</ele><time>2026-03-24T15:11:37Z</time></trkpt><trkpt lat="43.302437388418554" lon="5.40071421070603"><ele>47.0</ele><time>2026-03-24T15:11:38Z</time></trkpt><trkpt lat="43.30251142930211" lon="5.400713444676963"><ele>47.0</ele><time>2026-03-24T15:11:39Z</time></trkpt><trkpt lat="43.30259425519043" lon="5.4007137114419095"><ele>46.83333333333333</ele><time>2026-03-24T15:11:40Z</time></trkpt><trkpt lat="43.30265916566166" lon="5.400718596788688"><ele>46.666666666666664</ele><time>2026-03-24T15:11:41Z</time></trkpt><trkpt lat="43.30272399699708" lon="5.400697911959112"><ele>46.5</ele><time>2026-03-24T15:11:44Z</time></trkpt><trkpt lat="43.30277688359241" lon="5.400802128050693"><ele>46.333333333333336</ele><time>2026-03-24T15:12:17Z</time></trkpt><trkpt lat="43.302861636955825" lon="5.400782116937756"><ele>46.16666666666667</ele><time>2026-03-24T15:12:20Z</time></trkpt><trkpt lat="43.302911529943096" lon="5.400715873133877"><ele>46.0</ele><time>2026-03-24T15:12:54Z</time></trkpt><trkpt lat="43.30291441300665" lon="5.40052224004377"><ele>46.333333333333336</ele><time>2026-03-24T15:13:01Z</time></trkpt><trkpt lat="43.302905586978575" lon="5.400420277997373"><ele>46.66666666666667</ele><time>2026-03-24T15:13:02Z</time></trkpt><trkpt lat="43.30290078014528" lon="5.400307282301982"><ele>47.0</ele><time>2026-03-24T15:13:03Z</time></trkpt><trkpt lat="43.30289304291598" lon="5.400187204644548"><ele>47.333333333333336</ele><time>2026-03-24T15:13:04Z</time></trkpt><trkpt lat="43.302873394491606" lon="5.400046187698301"><ele>47.666666666666664</ele><time>2026-03-24T15:13:05Z</time></trkpt><trkpt lat="43.30286031917453" lon="5.399922385009696"><ele>48.0</ele><time>2026-03-24T15:13:06Z</time></trkpt><trkpt lat="43.30286490358711" lon="5.399811432285426"><ele>48.4</ele><time>2026-03-24T15:13:07Z</time></trkpt><trkpt lat="43.30283612402784" lon="5.399662821109209"><ele>48.8</ele><time>2026-03-24T15:13:09Z</time></trkpt><trkpt lat="43.30284062006296" lon="5.399567040093448"><ele>49.2</ele><time>2026-03-24T15:13:11Z</time></trkpt><trkpt lat="43.30281497256862" lon="5.3994274102334385"><ele>49.6</ele><time>2026-03-24T15:13:13Z</time></trkpt><trkpt lat="43.302803726233115" lon="5.399235711120281"><ele>50.0</ele><time>2026-03-24T15:13:15Z</time></trkpt><trkpt lat="43.30281261682451" lon="5.3990936109460606"><ele>50.0</ele><time>2026-03-24T15:13:16Z</time></trkpt><trkpt lat="43.30279208578194" lon="5.398947117345532"><ele>50.0</ele><time>2026-03-24T15:13:17Z</time></trkpt><trkpt lat="43.30277541789315" lon="5.398782571505649"><ele>50.0</ele><time>2026-03-24T15:13:19Z</time></trkpt><trkpt lat="43.30276641994479" lon="5.3986564563828106"><ele>50.0</ele><time>2026-03-24T15:13:20Z</time></trkpt><trkpt lat="43.30275779200213" lon="5.398570095615912"><ele>50.0</ele><time>2026-03-24T15:13:21Z</time></trkpt><trkpt lat="43.302743134169994" lon="5.398398942793049"><ele>50.25</ele><time>2026-03-24T15:13:22Z</time></trkpt><trkpt lat="43.302732555765466" lon="5.398203179184104"><ele>50.5</ele><time>2026-03-24T15:13:23Z</time></trkpt><trkpt lat="43.302719073195576" lon="5.398019933955013"><ele>50.75</ele><time>2026-03-24T15:13:24Z</time></trkpt><trkpt lat="43.30270975806901" lon="5.3979302013065125"><ele>51.0</ele><time>2026-03-24T15:13:25Z</time></trkpt><trkpt lat="43.30270281662596" lon="5.3977725671772845"><ele>51.8</ele><time>2026-03-24T15:13:27Z</time></trkpt><trkpt lat="43.30269612266628" lon="5.397677663015742"><ele>52.599999999999994</ele><time>2026-03-24T15:13:28Z</time></trkpt><trkpt lat="43.30267878903093" lon="5.397512280134618"><ele>53.4</ele><time>2026-03-24T15:13:30Z</time></trkpt><trkpt lat="43.302661759094896" lon="5.397384628156253"><ele>54.2</ele><time>2026-03-24T15:13:32Z</time></trkpt><trkpt lat="43.30267163133529" lon="5.397227450314364"><ele>55.0</ele><time>2026-03-24T15:13:34Z</time></trkpt><trkpt lat="43.30267285748128" lon="5.397091448120589"><ele>55.2</ele><time>2026-03-24T15:13:36Z</time></trkpt><trkpt lat="43.30266958196789" lon="5.396967448286952"><ele>55.4</ele><time>2026-03-24T15:14:37Z</time></trkpt><trkpt lat="43.30267883361649" lon="5.3968264829244434"><ele>55.599999999999994</ele><time>2026-03-24T15:14:39Z</time></trkpt><trkpt lat="43.30269080355058" lon="5.396724354365899"><ele>55.8</ele><time>2026-03-24T15:14:40Z</time></trkpt><trkpt lat="43.30275604437214" lon="5.396575770483389"><ele>56.0</ele><time>2026-03-24T15:14:42Z</time></trkpt><trkpt lat="43.302801415610624" lon="5.396501523173476"><ele>56.0</ele><time>2026-03-24T15:14:43Z</time></trkpt><trkpt lat="43.302808789201826" lon="5.396359580429779"><ele>56.0</ele><time>2026-03-24T15:14:45Z</time></trkpt><trkpt lat="43.30281753403016" lon="5.396198701431117"><ele>56.0</ele><time>2026-03-24T15:14:47.018Z</time></trkpt><trkpt lat="43.30281760114426" lon="5.396105152040006"><ele>56.0</ele><time>2026-03-24T15:14:48.017Z</time></trkpt><trkpt lat="43.30270456617732" lon="5.395614089475"><ele>56.75</ele><time>2026-03-24T15:14:53Z</time></trkpt><trkpt lat="43.30252307232942" lon="5.395609737361557"><ele>57.5</ele><time>2026-03-24T15:14:54Z</time></trkpt><trkpt lat="43.30247477084783" lon="5.39546947438621"><ele>58.25</ele><time>2026-03-24T15:14:55Z</time></trkpt><trkpt lat="43.3024121206283" lon="5.395287542066241"><ele>59.0</ele><time>2026-03-24T15:14:56Z</time></trkpt><trkpt lat="43.30237261979609" lon="5.395173218142589"><ele>59.0</ele><time>2026-03-24T15:14:57Z</time></trkpt><trkpt lat="43.30229301395806" lon="5.394935728349057"><ele>59.0</ele><time>2026-03-24T15:14:59Z</time></trkpt><trkpt lat="43.302263304248996" lon="5.394845399899949"><ele>59.0</ele><time>2026-03-24T15:15:01Z</time></trkpt><trkpt lat="43.30228477480353" lon="5.394957689891337"><ele>59.0</ele><time>2026-03-24T15:15:02Z</time></trkpt><trkpt lat="43.30221944345082" lon="5.394782630086876"><ele>59.00000000000001</ele><time>2026-03-24T15:15:03Z</time></trkpt><trkpt lat="43.30219391974632" lon="5.394698006411791"><ele>59.0</ele><time>2026-03-24T15:15:06Z</time></trkpt><trkpt lat="43.30215516918466" lon="5.394499621362952"><ele>59.0</ele><time>2026-03-24T15:15:37Z</time></trkpt><trkpt lat="43.30211048013907" lon="5.39441528842464"><ele>59.0</ele><time>2026-03-24T15:15:38Z</time></trkpt><trkpt lat="43.302080213376875" lon="5.3943163993075025"><ele>59.00000000000001</ele><time>2026-03-24T15:15:39Z</time></trkpt><trkpt lat="43.302051240878455" lon="5.394215950935168"><ele>59.0</ele><time>2026-03-24T15:15:40Z</time></trkpt><trkpt lat="43.302016274588205" lon="5.394098468630572"><ele>59.0</ele><time>2026-03-24T15:15:41Z</time></trkpt><trkpt lat="43.301970507528544" lon="5.393943404715064"><ele>59.00000000000001</ele><time>2026-03-24T15:15:42Z</time></trkpt><trkpt lat="43.30191268361122" lon="5.393812633415731"><ele>59.00000000000001</ele><time>2026-03-24T15:15:43Z</time></trkpt><trkpt lat="43.30187014886051" lon="5.3936914104762534"><ele>59.0</ele><time>2026-03-24T15:15:44Z</time></trkpt><trkpt lat="43.301827773928075" lon="5.393584892235256"><ele>59.0</ele><time>2026-03-24T15:15:45Z</time></trkpt><trkpt lat="43.301788662716724" lon="5.393479322594305"><ele>58.400000000000006</ele><time>2026-03-24T15:15:46Z</time></trkpt><trkpt lat="43.30174278809806" lon="5.393330485974765"><ele>57.800000000000004</ele><time>2026-03-24T15:15:47Z</time></trkpt><trkpt lat="43.301696440254084" lon="5.393183598861511"><ele>57.199999999999996</ele><time>2026-03-24T15:15:48Z</time></trkpt><trkpt lat="43.30165288885483" lon="5.3930631375419775"><ele>56.599999999999994</ele><time>2026-03-24T15:15:49Z</time></trkpt><trkpt lat="43.30165287942301" lon="5.392952777073328"><ele>56.0</ele><time>2026-03-24T15:15:51Z</time></trkpt><trkpt lat="43.30158165886152" lon="5.392738672671999"><ele>54.66666666666667</ele><time>2026-03-24T15:15:52Z</time></trkpt><trkpt lat="43.30150363333635" lon="5.3924586380452775"><ele>53.33333333333333</ele><time>2026-03-24T15:15:53Z</time></trkpt><trkpt lat="43.301443783889205" lon="5.392314773225521"><ele>52.0</ele><time>2026-03-24T15:15:54Z</time></trkpt><trkpt lat="43.30139009783223" lon="5.392175550023329"><ele>53.75</ele><time>2026-03-24T15:15:55Z</time></trkpt><trkpt lat="43.30131880971465" lon="5.39205619180591"><ele>55.5</ele><time>2026-03-24T15:15:56Z</time></trkpt><trkpt lat="43.3012623633538" lon="5.391904478205926"><ele>57.25</ele><time>2026-03-24T15:15:57Z</time></trkpt><trkpt lat="43.301202418235256" lon="5.3917230218933625"><ele>59.0</ele><time>2026-03-24T15:15:58Z</time></trkpt><trkpt lat="43.30115194865953" lon="5.391564614217576"><ele>59.0</ele><time>2026-03-24T15:15:59Z</time></trkpt><trkpt lat="43.30110614278994" lon="5.391423679398313"><ele>59.0</ele><time>2026-03-24T15:16:00Z</time></trkpt><trkpt lat="43.301037619870065" lon="5.3912160049289755"><ele>59.0</ele><time>2026-03-24T15:16:01Z</time></trkpt><trkpt lat="43.30099851586711" lon="5.391096426080788"><ele>59.0</ele><time>2026-03-24T15:16:02Z</time></trkpt><trkpt lat="43.30093089079329" lon="5.390890488533341"><ele>58.2</ele><time>2026-03-24T15:16:03Z</time></trkpt><trkpt lat="43.30089420393296" lon="5.390778766531885"><ele>57.400000000000006</ele><time>2026-03-24T15:16:04Z</time></trkpt><trkpt lat="43.30084839400801" lon="5.390639262407147"><ele>56.6</ele><time>2026-03-24T15:16:05Z</time></trkpt><trkpt lat="43.30080152771249" lon="5.390496541127429"><ele>55.8</ele><time>2026-03-24T15:16:07Z</time></trkpt><trkpt lat="43.3007644135412" lon="5.390383517995781"><ele>55.0</ele><time>2026-03-24T15:16:08Z</time></trkpt><trkpt lat="43.30080881652492" lon="5.390518737652499"><ele>54.0</ele><time>2026-03-24T15:16:09Z</time></trkpt><trkpt lat="43.30074485973607" lon="5.390323970052651"><ele>53.0</ele><time>2026-03-24T15:16:12Z</time></trkpt><trkpt lat="43.30072253622716" lon="5.390182557102083"><ele>52.0</ele><time>2026-03-24T15:16:13Z</time></trkpt><trkpt lat="43.300637907588886" lon="5.390024177624922"><ele>51.0</ele><time>2026-03-24T15:16:14Z</time></trkpt><trkpt lat="43.30077291834457" lon="5.390237223015803"><ele>51.0</ele><time>2026-03-24T15:16:18Z</time></trkpt><trkpt lat="43.30067204894602" lon="5.390120653400087"><ele>51.0</ele><time>2026-03-24T15:16:55Z</time></trkpt><trkpt lat="43.30064471390867" lon="5.389936443815496"><ele>51.0</ele><time>2026-03-24T15:16:57Z</time></trkpt><trkpt lat="43.30061840661974" lon="5.389834711631151"><ele>51.0</ele><time>2026-03-24T15:16:58Z</time></trkpt><trkpt lat="43.300583533477514" lon="5.389730376799793"><ele>51.0</ele><time>2026-03-24T15:16:59Z</time></trkpt><trkpt lat="43.30075541980895" lon="5.39024703205134"><ele>51.0</ele><time>2026-03-24T15:17:00Z</time></trkpt><trkpt lat="43.300719454595054" lon="5.390152221699897"><ele>51.0</ele><time>2026-03-24T15:17:01Z</time></trkpt><trkpt lat="43.30059252197886" lon="5.389860564475048"><ele>51.0</ele><time>2026-03-24T15:17:03Z</time></trkpt><trkpt lat="43.30056021712396" lon="5.389761957798032"><ele>51.0</ele><time>2026-03-24T15:17:04Z</time></trkpt><trkpt lat="43.30051581142683" lon="5.389645889962971"><ele>51.333333333333336</ele><time>2026-03-24T15:17:05Z</time></trkpt><trkpt lat="43.30048557773419" lon="5.389500327222187"><ele>51.66666666666667</ele><time>2026-03-24T15:17:07Z</time></trkpt><trkpt lat="43.300466053693775" lon="5.389377784278232"><ele>52.0</ele><time>2026-03-24T15:17:09Z</time></trkpt><trkpt lat="43.300430663434454" lon="5.389283999177735"><ele>52.333333333333336</ele><time>2026-03-24T15:17:12Z</time></trkpt><trkpt lat="43.30039738173294" lon="5.389197096714139"><ele>52.66666666666667</ele><time>2026-03-24T15:17:13Z</time></trkpt><trkpt lat="43.300366947727625" lon="5.389110886048999"><ele>53.0</ele><time>2026-03-24T15:17:14Z</time></trkpt><trkpt lat="43.30032400499179" lon="5.388981198601791"><ele>53.0</ele><time>2026-03-24T15:17:15Z</time></trkpt><trkpt lat="43.300290833654735" lon="5.38887683017173"><ele>53.0</ele><time>2026-03-24T15:17:16Z</time></trkpt><trkpt lat="43.30025865685798" lon="5.388751073838275"><ele>53.0</ele><time>2026-03-24T15:17:17Z</time></trkpt><trkpt lat="43.30023438324688" lon="5.388654531622475"><ele>53.0</ele><time>2026-03-24T15:17:19Z</time></trkpt><trkpt lat="43.300190085788756" lon="5.388545496511099"><ele>53.0</ele><time>2026-03-24T15:17:21Z</time></trkpt><trkpt lat="43.30014407812967" lon="5.388385754490593"><ele>52.0</ele><time>2026-03-24T15:17:23Z</time></trkpt><trkpt lat="43.30007371950971" lon="5.388309711815155"><ele>51.0</ele><time>2026-03-24T15:17:24Z</time></trkpt><trkpt lat="43.300022962565436" lon="5.388150700505809"><ele>50.0</ele><time>2026-03-24T15:17:25Z</time></trkpt><trkpt lat="43.29999376137438" lon="5.388059218979911"><ele>49.0</ele><time>2026-03-24T15:17:27Z</time></trkpt><trkpt lat="43.29995296808978" lon="5.3879314702443555"><ele>48.0</ele><time>2026-03-24T15:17:28Z</time></trkpt><trkpt lat="43.29992053674841" lon="5.387829974942703"><ele>48.2</ele><time>2026-03-24T15:17:32Z</time></trkpt><trkpt lat="43.2998808868215" lon="5.3877058887390525"><ele>48.4</ele><time>2026-03-24T15:17:34Z</time></trkpt><trkpt lat="43.29984767682396" lon="5.387628670735643"><ele>48.6</ele><time>2026-03-24T15:17:36Z</time></trkpt><trkpt lat="43.299867751640804" lon="5.387522577318018"><ele>48.800000000000004</ele><time>2026-03-24T15:17:37Z</time></trkpt><trkpt lat="43.299801242789925" lon="5.387305560361366"><ele>49.0</ele><time>2026-03-24T15:17:39Z</time></trkpt><trkpt lat="43.29974857400686" lon="5.3872293409089"><ele>48.285714285714285</ele><time>2026-03-24T15:17:40Z</time></trkpt><trkpt lat="43.29973619861069" lon="5.387130028623488"><ele>47.57142857142857</ele><time>2026-03-24T15:17:43Z</time></trkpt><trkpt lat="43.2997085871522" lon="5.387052072467366"><ele>46.85714285714286</ele><time>2026-03-24T15:17:46Z</time></trkpt><trkpt lat="43.299693225375236" lon="5.386966685086565"><ele>46.14285714285714</ele><time>2026-03-24T15:17:49Z</time></trkpt><trkpt lat="43.299630722526686" lon="5.386930295268315"><ele>45.42857142857143</ele><time>2026-03-24T15:17:53Z</time></trkpt><trkpt lat="43.29959368365267" lon="5.3868496952905005"><ele>44.714285714285715</ele><time>2026-03-24T15:17:56Z</time></trkpt><trkpt lat="43.299566486944386" lon="5.386769887291867"><ele>44.0</ele><time>2026-03-24T15:17:58Z</time></trkpt><trkpt lat="43.29953670145856" lon="5.386682482612257"><ele>44.0</ele><time>2026-03-24T15:18:00Z</time></trkpt><trkpt lat="43.29949859719708" lon="5.386570666849342"><ele>44.0</ele><time>2026-03-24T15:18:02Z</time></trkpt><trkpt lat="43.29944798036761" lon="5.386422133062025"><ele>44.0</ele><time>2026-03-24T15:18:04Z</time></trkpt><trkpt lat="43.2991379370854" lon="5.385388038697732"><ele>41.400000000000006</ele><time>2026-03-24T15:18:06Z</time></trkpt><trkpt lat="43.299111574116054" lon="5.385287355171056"><ele>38.800000000000004</ele><time>2026-03-24T15:18:09Z</time></trkpt><trkpt lat="43.29907720208665" lon="5.385179038933473"><ele>36.2</ele><time>2026-03-24T15:18:10Z</time></trkpt><trkpt lat="43.29915358555295" lon="5.385016896840679"><ele>33.6</ele><time>2026-03-24T15:18:11Z</time></trkpt><trkpt lat="43.2991347387032" lon="5.384908555438556"><ele>31.0</ele><time>2026-03-24T15:18:12Z</time></trkpt><trkpt lat="43.2990293934866" lon="5.384909615118547"><ele>31.0</ele><time>2026-03-24T15:18:13Z</time></trkpt><trkpt lat="43.299078501713964" lon="5.385108578291948"><ele>31.0</ele><time>2026-03-24T15:18:17Z</time></trkpt><trkpt lat="43.29906025710617" lon="5.384994013057751"><ele>31.0</ele><time>2026-03-24T15:18:19Z</time></trkpt><trkpt lat="43.29906493393886" lon="5.384867233352617"><ele>31.0</ele><time>2026-03-24T15:18:21Z</time></trkpt><trkpt lat="43.29907301122231" lon="5.384725258055393"><ele>31.0</ele><time>2026-03-24T15:18:23Z</time></trkpt><trkpt lat="43.299076742974044" lon="5.3846196741160846"><ele>30.8</ele><time>2026-03-24T15:18:25Z</time></trkpt><trkpt lat="43.29907524250975" lon="5.384493410734197"><ele>30.6</ele><time>2026-03-24T15:18:28Z</time></trkpt><trkpt lat="43.299067937279354" lon="5.384313269733686"><ele>30.4</ele><time>2026-03-24T15:18:30Z</time></trkpt><trkpt lat="43.29907506516444" lon="5.384141695181551"><ele>30.2</ele><time>2026-03-24T15:18:32Z</time></trkpt><trkpt lat="43.29906433161286" lon="5.384033269597958"><ele>30.0</ele><time>2026-03-24T15:18:33Z</time></trkpt><trkpt lat="43.29904488041175" lon="5.383925029657131"><ele>29.8</ele><time>2026-03-24T15:18:36Z</time></trkpt><trkpt lat="43.29901924190648" lon="5.3837823589162985"><ele>29.6</ele><time>2026-03-24T15:18:39Z</time></trkpt><trkpt lat="43.29903618099712" lon="5.383685947023699"><ele>29.4</ele><time>2026-03-24T15:18:40Z</time></trkpt><trkpt lat="43.29909152590014" lon="5.383569038039391"><ele>29.2</ele><time>2026-03-24T15:18:41Z</time></trkpt><trkpt lat="43.299102109837605" lon="5.3833696305405"><ele>29.0</ele><time>2026-03-24T15:18:43Z</time></trkpt><trkpt lat="43.29908952566631" lon="5.383164168755985"><ele>28.999999999999996</ele><time>2026-03-24T15:18:45Z</time></trkpt><trkpt lat="43.299105263747705" lon="5.383052084139817"><ele>29.0</ele><time>2026-03-24T15:18:46Z</time></trkpt><trkpt lat="43.29910103997728" lon="5.382932115195653"><ele>29.0</ele><time>2026-03-24T15:18:47Z</time></trkpt><trkpt lat="43.29911394485809" lon="5.382815651677579"><ele>29.0</ele><time>2026-03-24T15:18:48Z</time></trkpt><trkpt lat="43.29911780235885" lon="5.382694345060403"><ele>28.999999999999996</ele><time>2026-03-24T15:18:49Z</time></trkpt><trkpt lat="43.299135414005" lon="5.382576435745541"><ele>29.0</ele><time>2026-03-24T15:18:50Z</time></trkpt><trkpt lat="43.29913123252479" lon="5.3824659809363675"><ele>28.799999999999997</ele><time>2026-03-24T15:18:51Z</time></trkpt><trkpt lat="43.29914136081918" lon="5.382310025945122"><ele>28.599999999999998</ele><time>2026-03-24T15:18:52Z</time></trkpt><trkpt lat="43.29914930867688" lon="5.38218764463246"><ele>28.4</ele><time>2026-03-24T15:18:53Z</time></trkpt><trkpt lat="43.299152806666214" lon="5.38205489066916"><ele>28.2</ele><time>2026-03-24T15:18:54Z</time></trkpt><trkpt lat="43.2991561858611" lon="5.381938092050388"><ele>28.0</ele><time>2026-03-24T15:18:55Z</time></trkpt><trkpt lat="43.29916097122582" lon="5.38180011560289"><ele>27.833333333333336</ele><time>2026-03-24T15:18:56Z</time></trkpt><trkpt lat="43.29916602304558" lon="5.381686803866642"><ele>27.666666666666668</ele><time>2026-03-24T15:18:57Z</time></trkpt><trkpt lat="43.299135128177774" lon="5.381610145402115"><ele>27.5</ele><time>2026-03-24T15:19:00Z</time></trkpt><trkpt lat="43.29913341972908" lon="5.381519920351967"><ele>27.333333333333336</ele><time>2026-03-24T15:19:01Z</time></trkpt><trkpt lat="43.29915371975311" lon="5.3814269010092755"><ele>27.166666666666668</ele><time>2026-03-24T15:19:02Z</time></trkpt><trkpt lat="43.29915703947574" lon="5.381320781224135"><ele>27.0</ele><time>2026-03-24T15:19:06Z</time></trkpt><trkpt lat="43.29914770528373" lon="5.381178425912183"><ele>27.0</ele><time>2026-03-24T15:19:09Z</time></trkpt><trkpt lat="43.299186934487544" lon="5.3810672815973755"><ele>27.0</ele><time>2026-03-24T15:19:58Z</time></trkpt><trkpt lat="43.29918760440177" lon="5.380975896936034"><ele>27.0</ele><time>2026-03-24T15:20:01Z</time></trkpt><trkpt lat="43.29923262752567" lon="5.380863028156101"><ele>27.0</ele><time>2026-03-24T15:20:04Z</time></trkpt><trkpt lat="43.29926059540407" lon="5.3807761093127695"><ele>27.0</ele><time>2026-03-24T15:20:09Z</time></trkpt><trkpt lat="43.299318156402265" lon="5.380724856248556"><ele>27.0</ele><time>2026-03-24T15:20:12Z</time></trkpt><trkpt lat="43.29932430875243" lon="5.3806292892889385"><ele>27.166666666666668</ele><time>2026-03-24T15:20:15Z</time></trkpt><trkpt lat="43.29931215770628" lon="5.380513797893292"><ele>27.333333333333336</ele><time>2026-03-24T15:20:21Z</time></trkpt><trkpt lat="43.299286194939675" lon="5.380381039241734"><ele>27.5</ele><time>2026-03-24T15:20:23Z</time></trkpt><trkpt lat="43.29928339171295" lon="5.380249249776735"><ele>27.666666666666668</ele><time>2026-03-24T15:20:26Z</time></trkpt><trkpt lat="43.29929852973607" lon="5.380143743432822"><ele>27.833333333333336</ele><time>2026-03-24T15:20:27Z</time></trkpt><trkpt lat="43.29930557269528" lon="5.380037296387375"><ele>28.0</ele><time>2026-03-24T15:20:28Z</time></trkpt><trkpt lat="43.29931127326635" lon="5.379893022064699"><ele>28.0</ele><time>2026-03-24T15:20:30Z</time></trkpt><trkpt lat="43.29933001142469" lon="5.379792662304727"><ele>27.999999999999996</ele><time>2026-03-24T15:20:31Z</time></trkpt><trkpt lat="43.29937012702712" lon="5.37966846858886"><ele>27.999999999999996</ele><time>2026-03-24T15:20:33Z</time></trkpt><trkpt lat="43.29937708584904" lon="5.37958043133565"><ele>28.0</ele><time>2026-03-24T15:20:35Z</time></trkpt><trkpt lat="43.29941517927168" lon="5.379427361686951"><ele>28.0</ele><time>2026-03-24T15:20:39Z</time></trkpt><trkpt lat="43.29942288005733" lon="5.379297509268285"><ele>27.0</ele><time>2026-03-24T15:20:40Z</time></trkpt><trkpt lat="43.29943784758494" lon="5.3791558305994185"><ele>25.999999999999996</ele><time>2026-03-24T15:20:43Z</time></trkpt><trkpt lat="43.299457773574204" lon="5.3790514710102935"><ele>25.0</ele><time>2026-03-24T15:20:45Z</time></trkpt><trkpt lat="43.29947768632913" lon="5.378956184027723"><ele>24.0</ele><time>2026-03-24T15:20:48Z</time></trkpt><trkpt lat="43.29949683775496" lon="5.378869040023162"><ele>23.0</ele><time>2026-03-24T15:20:49Z</time></trkpt><trkpt lat="43.29954079447485" lon="5.378637641803936"><ele>22.5</ele><time>2026-03-24T15:20:50Z</time></trkpt><trkpt lat="43.299556324057114" lon="5.378545305798855"><ele>22.0</ele><time>2026-03-24T15:20:52Z</time></trkpt><trkpt lat="43.29956959955026" lon="5.3784462010077965"><ele>21.5</ele><time>2026-03-24T15:20:54Z</time></trkpt><trkpt lat="43.299590151312486" lon="5.378321712912981"><ele>21.0</ele><time>2026-03-24T15:20:56Z</time></trkpt><trkpt lat="43.29960686800254" lon="5.378210317011559"><ele>20.5</ele><time>2026-03-24T15:20:58Z</time></trkpt><trkpt lat="43.29966282353784" lon="5.378157170737473"><ele>20.0</ele><time>2026-03-24T15:21:01Z</time></trkpt><trkpt lat="43.2997255335624" lon="5.378042021838802"><ele>19.4</ele><time>2026-03-24T15:21:04Z</time></trkpt><trkpt lat="43.299746769855055" lon="5.377960380374044"><ele>18.8</ele><time>2026-03-24T15:21:10Z</time></trkpt><trkpt lat="43.29979469605693" lon="5.377866162743112"><ele>18.2</ele><time>2026-03-24T15:21:13Z</time></trkpt><trkpt lat="43.29966179095056" lon="5.377798647290046"><ele>17.6</ele><time>2026-03-24T15:21:14Z</time></trkpt><trkpt lat="43.29962007553134" lon="5.37768706470794"><ele>17.0</ele><time>2026-03-24T15:21:16Z</time></trkpt><trkpt lat="43.29959913432489" lon="5.377553488463136"><ele>17.0</ele><time>2026-03-24T15:21:21Z</time></trkpt><trkpt lat="43.299545422316264" lon="5.377410417406919"><ele>17.0</ele><time>2026-03-24T15:21:23Z</time></trkpt><trkpt lat="43.29951074838898" lon="5.377286061610318"><ele>17.0</ele><time>2026-03-24T15:21:25Z</time></trkpt><trkpt lat="43.29945679139176" lon="5.377087903145724"><ele>17.0</ele><time>2026-03-24T15:21:27Z</time></trkpt><trkpt lat="43.29942913961812" lon="5.376985762407719"><ele>17.0</ele><time>2026-03-24T15:21:29Z</time></trkpt><trkpt lat="43.299383230669235" lon="5.376889453069101"><ele>17.142857142857142</ele><time>2026-03-24T15:21:32Z</time></trkpt><trkpt lat="43.29935892294044" lon="5.376807233588105"><ele>17.285714285714285</ele><time>2026-03-24T15:21:33Z</time></trkpt><trkpt lat="43.2993356265183" lon="5.376700061644918"><ele>17.42857142857143</ele><time>2026-03-24T15:21:35Z</time></trkpt><trkpt lat="43.29930804068621" lon="5.376602379978497"><ele>17.57142857142857</ele><time>2026-03-24T15:21:37Z</time></trkpt><trkpt lat="43.29927659654983" lon="5.376496254966418"><ele>17.714285714285715</ele><time>2026-03-24T15:21:39Z</time></trkpt><trkpt lat="43.29924797418542" lon="5.37641457876359"><ele>17.857142857142858</ele><time>2026-03-24T15:21:45Z</time></trkpt><trkpt lat="43.299218162870254" lon="5.37632315801367"><ele>18.0</ele><time>2026-03-24T15:21:47Z</time></trkpt><trkpt lat="43.299187982790635" lon="5.376214732463526"><ele>18.0</ele><time>2026-03-24T15:21:50Z</time></trkpt><trkpt lat="43.29916180255575" lon="5.376100863940154"><ele>18.0</ele><time>2026-03-24T15:21:53Z</time></trkpt><trkpt lat="43.29914550855871" lon="5.3760123455170925"><ele>18.0</ele><time>2026-03-24T15:21:55Z</time></trkpt><trkpt lat="43.299144916043474" lon="5.375873298119451"><ele>18.0</ele><time>2026-03-24T15:21:58Z</time></trkpt><trkpt lat="43.29915475565308" lon="5.375734221820006"><ele>18.0</ele><time>2026-03-24T15:22:00Z</time></trkpt><trkpt lat="43.29916479002492" lon="5.37560051488736"><ele>18.5</ele><time>2026-03-24T15:22:02Z</time></trkpt><trkpt lat="43.29918952718365" lon="5.3754805106766455"><ele>19.0</ele><time>2026-03-24T15:22:04Z</time></trkpt><trkpt lat="43.29919583764809" lon="5.3753323478088735"><ele>19.5</ele><time>2026-03-24T15:22:06Z</time></trkpt><trkpt lat="43.299190601939166" lon="5.375231103868769"><ele>20.0</ele><time>2026-03-24T15:22:08Z</time></trkpt><trkpt lat="43.2991950914231" lon="5.375131577677752"><ele>20.5</ele><time>2026-03-24T15:22:10Z</time></trkpt><trkpt lat="43.29920299002949" lon="5.374992868541249"><ele>21.0</ele><time>2026-03-24T15:22:12Z</time></trkpt><trkpt lat="43.29920733150436" lon="5.374900798321025"><ele>21.0</ele><time>2026-03-24T15:22:14Z</time></trkpt><trkpt lat="43.299217380266036" lon="5.374772486107028"><ele>21.0</ele><time>2026-03-24T15:22:16Z</time></trkpt><trkpt lat="43.2992315788483" lon="5.374628296195428"><ele>21.0</ele><time>2026-03-24T15:22:18Z</time></trkpt><trkpt lat="43.299253487863204" lon="5.374513953974416"><ele>21.0</ele><time>2026-03-24T15:22:20Z</time></trkpt><trkpt lat="43.29923365421205" lon="5.374364017354381"><ele>21.0</ele><time>2026-03-24T15:22:23Z</time></trkpt><trkpt lat="43.29923273722922" lon="5.37421234109957"><ele>21.0</ele><time>2026-03-24T15:22:25Z</time></trkpt><trkpt lat="43.29924897675974" lon="5.3740691986159685"><ele>21.0</ele><time>2026-03-24T15:22:27Z</time></trkpt><trkpt lat="43.29925657329236" lon="5.373969444576113"><ele>21.0</ele><time>2026-03-24T15:22:29Z</time></trkpt><trkpt lat="43.29926774427787" lon="5.373822752483018"><ele>21.0</ele><time>2026-03-24T15:22:31Z</time></trkpt><trkpt lat="43.29927494108767" lon="5.373728247417936"><ele>21.0</ele><time>2026-03-24T15:22:32Z</time></trkpt><trkpt lat="43.299285135878016" lon="5.373594374237027"><ele>20.833333333333332</ele><time>2026-03-24T15:22:33Z</time></trkpt><trkpt lat="43.29930020605634" lon="5.373482938321387"><ele>20.666666666666668</ele><time>2026-03-24T15:22:34Z</time></trkpt><trkpt lat="43.29931137517246" lon="5.373377337567408"><ele>20.5</ele><time>2026-03-24T15:22:35Z</time></trkpt><trkpt lat="43.2993162772909" lon="5.373289497630923"><ele>20.333333333333336</ele><time>2026-03-24T15:22:36Z</time></trkpt><trkpt lat="43.2993241314755" lon="5.3731445799614175"><ele>20.166666666666668</ele><time>2026-03-24T15:22:38Z</time></trkpt><trkpt lat="43.29933154515041" lon="5.373047650552545"><ele>20.0</ele><time>2026-03-24T15:22:40Z</time></trkpt><trkpt lat="43.299334374096354" lon="5.3729471972285205"><ele>21.0</ele><time>2026-03-24T15:22:43Z</time></trkpt><trkpt lat="43.299338234381956" lon="5.372859545249516"><ele>22.0</ele><time>2026-03-24T15:22:50Z</time></trkpt><trkpt lat="43.29934563658883" lon="5.3727573783026426"><ele>23.0</ele><time>2026-03-24T15:22:55Z</time></trkpt><trkpt lat="43.29935327054373" lon="5.372610934113063"><ele>24.0</ele><time>2026-03-24T15:22:59Z</time></trkpt><trkpt lat="43.299378663768266" lon="5.3724485699723905"><ele>25.0</ele><time>2026-03-24T15:23:01Z</time></trkpt><trkpt lat="43.299401784818755" lon="5.372288043450077"><ele>24.8</ele><time>2026-03-24T15:23:03Z</time></trkpt><trkpt lat="43.299402597200014" lon="5.37213361625674"><ele>24.6</ele><time>2026-03-24T15:23:05Z</time></trkpt><trkpt lat="43.29940948009154" lon="5.371996002561633"><ele>24.4</ele><time>2026-03-24T15:23:07Z</time></trkpt><trkpt lat="43.29941836079192" lon="5.371862641960652"><ele>24.2</ele><time>2026-03-24T15:23:09Z</time></trkpt><trkpt lat="43.299446846071795" lon="5.371753552679316"><ele>24.0</ele><time>2026-03-24T15:23:11Z</time></trkpt><trkpt lat="43.29949931671867" lon="5.37169773376876"><ele>24.0</ele><time>2026-03-24T15:23:13Z</time></trkpt><trkpt lat="43.299543114855275" lon="5.371613332234639"><ele>24.0</ele><time>2026-03-24T15:23:15Z</time></trkpt><trkpt lat="43.29952327960087" lon="5.371490247028333"><ele>24.0</ele><time>2026-03-24T15:23:18Z</time></trkpt><trkpt lat="43.299445211092774" lon="5.371451720304742"><ele>24.0</ele><time>2026-03-24T15:23:21Z</time></trkpt><trkpt lat="43.29933323511679" lon="5.371438029395558"><ele>24.0</ele><time>2026-03-24T15:23:23Z</time></trkpt><trkpt lat="43.299278050103105" lon="5.371531326389077"><ele>24.0</ele><time>2026-03-24T15:23:25Z</time></trkpt><trkpt lat="43.29924687679534" lon="5.371621659283546"><ele>24.0</ele><time>2026-03-24T15:23:32Z</time></trkpt><trkpt lat="43.299297207609285" lon="5.371772449230651"><ele>24.0</ele><time>2026-03-24T15:23:46Z</time></trkpt><trkpt lat="43.2993449305763" lon="5.371843190993273"><ele>24.0</ele><time>2026-03-24T15:23:49Z</time></trkpt><trkpt lat="43.299468096640105" lon="5.371772953762261"><ele>24.0</ele><time>2026-03-24T15:23:50Z</time></trkpt><trkpt lat="43.29952088714263" lon="5.371676688323822"><ele>24.0</ele><time>2026-03-24T15:23:52Z</time></trkpt><trkpt lat="43.29950227853543" lon="5.371565838636514"><ele>24.0</ele><time>2026-03-24T15:23:54Z</time></trkpt><trkpt lat="43.299487383760145" lon="5.371437575865026"><ele>24.0</ele><time>2026-03-24T15:23:56Z</time></trkpt><trkpt lat="43.299415999032654" lon="5.371442279328533"><ele>24.0</ele><time>2026-03-24T15:23:58Z</time></trkpt><trkpt lat="43.29931451296767" lon="5.37145484491512"><ele>24.0</ele><time>2026-03-24T15:24:00Z</time></trkpt><trkpt lat="43.29924409593348" lon="5.371443154328467"><ele>24.0</ele><time>2026-03-24T15:24:01Z</time></trkpt><trkpt lat="43.299151723520374" lon="5.371399146895769"><ele>24.0</ele><time>2026-03-24T15:24:03Z</time></trkpt><trkpt lat="43.29909104031996" lon="5.371365131127799"><ele>24.0</ele><time>2026-03-24T15:24:04Z</time></trkpt><trkpt lat="43.299035339204394" lon="5.371316408422424"><ele>24.0</ele><time>2026-03-24T15:24:05Z</time></trkpt><trkpt lat="43.298971918146414" lon="5.371297927630414"><ele>24.0</ele><time>2026-03-24T15:24:06Z</time></trkpt><trkpt lat="43.298865494715706" lon="5.371232194496401"><ele>24.0</ele><time>2026-03-24T15:24:08Z</time></trkpt><trkpt lat="43.29876800560736" lon="5.371175379096233"><ele>24.0</ele><time>2026-03-24T15:24:10Z</time></trkpt><trkpt lat="43.298701492519704" lon="5.371136615628384"><ele>23.5</ele><time>2026-03-24T15:24:11Z</time></trkpt><trkpt lat="43.29861558560013" lon="5.371086585360165"><ele>23.0</ele><time>2026-03-24T15:24:12Z</time></trkpt><trkpt lat="43.29852232280239" lon="5.371032254234585"><ele>22.5</ele><time>2026-03-24T15:24:13Z</time></trkpt><trkpt lat="43.29838759624696" lon="5.370946318898857"><ele>22.0</ele><time>2026-03-24T15:24:14Z</time></trkpt><trkpt lat="43.2982727515998" lon="5.370892613340546"><ele>22.0</ele><time>2026-03-24T15:24:15Z</time></trkpt><trkpt lat="43.29817894932536" lon="5.370834778612955"><ele>22.0</ele><time>2026-03-24T15:24:16Z</time></trkpt><trkpt lat="43.298113132395194" lon="5.370787537687935"><ele>22.0</ele><time>2026-03-24T15:24:17Z</time></trkpt><trkpt lat="43.298033272933566" lon="5.370724302394536"><ele>22.0</ele><time>2026-03-24T15:24:19Z</time></trkpt><trkpt lat="43.2979372447021" lon="5.370674304664855"><ele>22.0</ele><time>2026-03-24T15:24:23Z</time></trkpt><trkpt lat="43.29784151632933" lon="5.37057084559378"><ele>20.333333333333332</ele><time>2026-03-24T15:24:25Z</time></trkpt><trkpt lat="43.297807907163644" lon="5.370442109477023"><ele>18.666666666666664</ele><time>2026-03-24T15:24:26Z</time></trkpt><trkpt lat="43.29779513629854" lon="5.370318674588771"><ele>17.0</ele><time>2026-03-24T15:24:27Z</time></trkpt><trkpt lat="43.29777845077224" lon="5.370221645073698"><ele>15.333333333333332</ele><time>2026-03-24T15:24:28Z</time></trkpt><trkpt lat="43.297753278110186" lon="5.370112944713134"><ele>13.666666666666666</ele><time>2026-03-24T15:24:29Z</time></trkpt><trkpt lat="43.29772701784672" lon="5.370012953804742"><ele>12.0</ele><time>2026-03-24T15:24:30Z</time></trkpt><trkpt lat="43.29769545558222" lon="5.3698378388659425"><ele>12.0</ele><time>2026-03-24T15:24:32Z</time></trkpt><trkpt lat="43.29769594886303" lon="5.369737218712971"><ele>12.0</ele><time>2026-03-24T15:24:33Z</time></trkpt><trkpt lat="43.29768300628719" lon="5.3696455427039576"><ele>12.0</ele><time>2026-03-24T15:24:34Z</time></trkpt><trkpt lat="43.29766682292919" lon="5.369561712014169"><ele>12.0</ele><time>2026-03-24T15:24:35Z</time></trkpt><trkpt lat="43.29762186241457" lon="5.369394726175572"><ele>12.0</ele><time>2026-03-24T15:24:37Z</time></trkpt><trkpt lat="43.297598804235854" lon="5.369308749631269"><ele>12.0</ele><time>2026-03-24T15:24:38Z</time></trkpt><trkpt lat="43.29757622116178" lon="5.369226217621053"><ele>11.8</ele><time>2026-03-24T15:24:39Z</time></trkpt><trkpt lat="43.29752434709862" lon="5.3690893352963664"><ele>11.6</ele><time>2026-03-24T15:24:41Z</time></trkpt><trkpt lat="43.2974586097082" lon="5.3689473264193275"><ele>11.4</ele><time>2026-03-24T15:24:43Z</time></trkpt><trkpt lat="43.29742859502586" lon="5.368868831417428"><ele>11.200000000000001</ele><time>2026-03-24T15:24:44Z</time></trkpt><trkpt lat="43.297355942723364" lon="5.36875856994613"><ele>11.0</ele><time>2026-03-24T15:24:46Z</time></trkpt><trkpt lat="43.297251268727784" lon="5.368630157501909"><ele>11.0</ele><time>2026-03-24T15:24:48Z</time></trkpt><trkpt lat="43.29720484934972" lon="5.368539274547921"><ele>11.0</ele><time>2026-03-24T15:24:49Z</time></trkpt><trkpt lat="43.2971497858772" lon="5.368417039612331"><ele>11.0</ele><time>2026-03-24T15:24:51Z</time></trkpt><trkpt lat="43.29709624713927" lon="5.368302672972006"><ele>11.0</ele><time>2026-03-24T15:24:53Z</time></trkpt><trkpt lat="43.29707187357264" lon="5.3682051150357575"><ele>11.0</ele><time>2026-03-24T15:24:54Z</time></trkpt><trkpt lat="43.297012086053506" lon="5.3680216830017295"><ele>11.166666666666666</ele><time>2026-03-24T15:24:56Z</time></trkpt><trkpt lat="43.29698609045189" lon="5.367933812705624"><ele>11.333333333333332</ele><time>2026-03-24T15:24:57Z</time></trkpt><trkpt lat="43.29694915817431" lon="5.367835069598732"><ele>11.5</ele><time>2026-03-24T15:24:58Z</time></trkpt><trkpt lat="43.296938786521125" lon="5.3677230322332905"><ele>11.666666666666666</ele><time>2026-03-24T15:24:59Z</time></trkpt><trkpt lat="43.29691558958788" lon="5.367590401656052"><ele>11.833333333333334</ele><time>2026-03-24T15:25:01Z</time></trkpt><trkpt lat="43.29689592712878" lon="5.367452752877662"><ele>12.0</ele><time>2026-03-24T15:25:03Z</time></trkpt><trkpt lat="43.296881991881975" lon="5.3673504024606125"><ele>12.0</ele><time>2026-03-24T15:25:04Z</time></trkpt><trkpt lat="43.29686421404266" lon="5.367198003359324"><ele>12.0</ele><time>2026-03-24T15:25:06Z</time></trkpt><trkpt lat="43.296839054030706" lon="5.367045183690604"><ele>12.0</ele><time>2026-03-24T15:25:08Z</time></trkpt><trkpt lat="43.29679904400605" lon="5.366885418070673"><ele>12.0</ele><time>2026-03-24T15:25:10Z</time></trkpt><trkpt lat="43.29674570733189" lon="5.366803740496297"><ele>12.0</ele><time>2026-03-24T15:25:11Z</time></trkpt><trkpt lat="43.29670445980507" lon="5.3667299503015915"><ele>12.6</ele><time>2026-03-24T15:25:12Z</time></trkpt><trkpt lat="43.2966609817378" lon="5.366621497963808"><ele>13.2</ele><time>2026-03-24T15:25:13Z</time></trkpt><trkpt lat="43.29659686542869" lon="5.366478341693371"><ele>13.8</ele><time>2026-03-24T15:25:14Z</time></trkpt><trkpt lat="43.2965636644591" lon="5.36634757598833"><ele>14.4</ele><time>2026-03-24T15:25:15Z</time></trkpt><trkpt lat="43.296531685213196" lon="5.366236568705993"><ele>15.0</ele><time>2026-03-24T15:25:16Z</time></trkpt><trkpt lat="43.296437716246004" lon="5.365994121180217"><ele>13.6</ele><time>2026-03-24T15:25:20Z</time></trkpt><trkpt lat="43.29638776096927" lon="5.365860625055076"><ele>12.2</ele><time>2026-03-24T15:25:21Z</time></trkpt><trkpt lat="43.296354133178596" lon="5.365756200499779"><ele>10.8</ele><time>2026-03-24T15:25:22Z</time></trkpt><trkpt lat="43.29631205620882" lon="5.3656337322569385"><ele>9.4</ele><time>2026-03-24T15:25:23Z</time></trkpt><trkpt lat="43.296259471444465" lon="5.3655526988739775"><ele>8.0</ele><time>2026-03-24T15:25:24Z</time></trkpt><trkpt lat="43.29616970750566" lon="5.36544322877787"><ele>7.999999999999999</ele><time>2026-03-24T15:25:26Z</time></trkpt><trkpt lat="43.29611058417909" lon="5.365396502667417"><ele>8.0</ele><time>2026-03-24T15:25:27Z</time></trkpt><trkpt lat="43.296039129188706" lon="5.365346168594697"><ele>8.0</ele><time>2026-03-24T15:25:28Z</time></trkpt><trkpt lat="43.29597649616167" lon="5.365296136085611"><ele>8.0</ele><time>2026-03-24T15:25:29Z</time></trkpt><trkpt lat="43.29589731087208" lon="5.365232881033787"><ele>7.999999999999999</ele><time>2026-03-24T15:25:30Z</time></trkpt><trkpt lat="43.29587514079433" lon="5.365372611296532"><ele>8.0</ele><time>2026-03-24T15:25:35Z</time></trkpt><trkpt lat="43.29586763468046" lon="5.365501355350181"><ele>7.5</ele><time>2026-03-24T15:25:40Z</time></trkpt><trkpt lat="43.295863149994304" lon="5.365614874488826"><ele>7.0</ele><time>2026-03-24T15:25:41Z</time></trkpt><trkpt lat="43.296262214839004" lon="5.365729879782543"><ele>7.0</ele><time>2026-03-24T15:25:42Z</time></trkpt><trkpt lat="43.29639691442633" lon="5.365879968326285"><ele>7.0</ele><time>2026-03-24T15:25:44Z</time></trkpt><trkpt lat="43.296449440198884" lon="5.366001215858732"><ele>7.0</ele><time>2026-03-24T15:25:45Z</time></trkpt><trkpt lat="43.29650724847854" lon="5.366134119224156"><ele>7.0</ele><time>2026-03-24T15:25:46Z</time></trkpt><trkpt lat="43.29655649138469" lon="5.36625141163845"><ele>9.0</ele><time>2026-03-24T15:25:47Z</time></trkpt><trkpt lat="43.29662009913851" lon="5.366375072990565"><ele>11.0</ele><time>2026-03-24T15:25:48Z</time></trkpt><trkpt lat="43.29668543888042" lon="5.366484900525183"><ele>13.0</ele><time>2026-03-24T15:25:49Z</time></trkpt><trkpt lat="43.29674536013018" lon="5.366636539423592"><ele>15.0</ele><time>2026-03-24T15:25:50Z</time></trkpt><trkpt lat="43.29679951998209" lon="5.36677249137076"><ele>15.0</ele><time>2026-03-24T15:25:51Z</time></trkpt><trkpt lat="43.29681024130341" lon="5.36688768622604"><ele>15.0</ele><time>2026-03-24T15:25:52Z</time></trkpt><trkpt lat="43.29682854984309" lon="5.3670071086874325"><ele>15.0</ele><time>2026-03-24T15:25:53Z</time></trkpt><trkpt lat="43.29685889819911" lon="5.367137702303487"><ele>15.0</ele><time>2026-03-24T15:25:54Z</time></trkpt><trkpt lat="43.29685426592061" lon="5.367266074672619"><ele>15.0</ele><time>2026-03-24T15:25:55Z</time></trkpt><trkpt lat="43.29692067587898" lon="5.36741169429665"><ele>14.25</ele><time>2026-03-24T15:25:56Z</time></trkpt><trkpt lat="43.29694044065011" lon="5.367564534382183"><ele>13.5</ele><time>2026-03-24T15:25:57Z</time></trkpt><trkpt lat="43.29696292268409" lon="5.367693025175867"><ele>12.75</ele><time>2026-03-24T15:25:58Z</time></trkpt><trkpt lat="43.29702378110611" lon="5.367855182448023"><ele>12.0</ele><time>2026-03-24T15:25:59Z</time></trkpt><trkpt lat="43.297093024750346" lon="5.3679945526252455"><ele>11.8</ele><time>2026-03-24T15:26:00Z</time></trkpt><trkpt lat="43.297111764425715" lon="5.368147024782921"><ele>11.6</ele><time>2026-03-24T15:26:01Z</time></trkpt><trkpt lat="43.29715143854288" lon="5.3682653915199605"><ele>11.4</ele><time>2026-03-24T15:26:02Z</time></trkpt><trkpt lat="43.29721101497679" lon="5.3683619966286065"><ele>11.200000000000001</ele><time>2026-03-24T15:26:03Z</time></trkpt><trkpt lat="43.29724594826307" lon="5.368473738574385"><ele>11.0</ele><time>2026-03-24T15:26:04Z</time></trkpt><trkpt lat="43.29726925419605" lon="5.368601475403527"><ele>12.8</ele><time>2026-03-24T15:26:05Z</time></trkpt><trkpt lat="43.29733485851754" lon="5.368715635906016"><ele>14.600000000000001</ele><time>2026-03-24T15:26:06Z</time></trkpt><trkpt lat="43.29738854447507" lon="5.368832157634059"><ele>16.4</ele><time>2026-03-24T15:26:07Z</time></trkpt><trkpt lat="43.29743924113946" lon="5.368909073792102"><ele>18.2</ele><time>2026-03-24T15:26:08Z</time></trkpt><trkpt lat="43.29748867198176" lon="5.369007469000541"><ele>20.0</ele><time>2026-03-24T15:26:09Z</time></trkpt><trkpt lat="43.29752520068892" lon="5.3691069331174335"><ele>20.0</ele><time>2026-03-24T15:26:10Z</time></trkpt><trkpt lat="43.297550313588495" lon="5.369192692458756"><ele>20.0</ele><time>2026-03-24T15:26:11Z</time></trkpt><trkpt lat="43.29757813995248" lon="5.369358062445781"><ele>20.0</ele><time>2026-03-24T15:26:13Z</time></trkpt><trkpt lat="43.29759959481558" lon="5.369486830541777"><ele>20.0</ele><time>2026-03-24T15:26:14Z</time></trkpt><trkpt lat="43.29762558477197" lon="5.369631719237232"><ele>20.0</ele><time>2026-03-24T15:26:15Z</time></trkpt><trkpt lat="43.297617017135416" lon="5.3697905386321265"><ele>18.4</ele><time>2026-03-24T15:26:16Z</time></trkpt><trkpt lat="43.29766831128996" lon="5.369897077914826"><ele>16.8</ele><time>2026-03-24T15:26:17Z</time></trkpt><trkpt lat="43.29768643264758" lon="5.3700075797607685"><ele>15.2</ele><time>2026-03-24T15:26:18Z</time></trkpt><trkpt lat="43.29769191636712" lon="5.370142562678262"><ele>13.6</ele><time>2026-03-24T15:26:19Z</time></trkpt><trkpt lat="43.2977163608888" lon="5.3702644208713135"><ele>12.0</ele><time>2026-03-24T15:26:20Z</time></trkpt><trkpt lat="43.297732438988746" lon="5.370387035537012"><ele>12.0</ele><time>2026-03-24T15:26:21Z</time></trkpt><trkpt lat="43.29775385862988" lon="5.370495783979144"><ele>12.0</ele><time>2026-03-24T15:26:22Z</time></trkpt><trkpt lat="43.29779745075494" lon="5.370648357728259"><ele>12.0</ele><time>2026-03-24T15:26:24Z</time></trkpt><trkpt lat="43.29774671107349" lon="5.370764281340364"><ele>12.0</ele><time>2026-03-24T15:26:25Z</time></trkpt><trkpt lat="43.297788235374824" lon="5.370922087745499"><ele>12.0</ele><time>2026-03-24T15:26:27Z</time></trkpt><trkpt lat="43.297811503876524" lon="5.3710136514078135"><ele>11.6</ele><time>2026-03-24T15:26:28Z</time></trkpt><trkpt lat="43.29772516521618" lon="5.3711154146619355"><ele>11.2</ele><time>2026-03-24T15:26:29Z</time></trkpt><trkpt lat="43.29772556966665" lon="5.371210339123799"><ele>10.8</ele><time>2026-03-24T15:26:30Z</time></trkpt><trkpt lat="43.29772563369391" lon="5.371364838717841"><ele>10.4</ele><time>2026-03-24T15:26:32Z</time></trkpt><trkpt lat="43.29772504906693" lon="5.371487201016931"><ele>10.0</ele><time>2026-03-24T15:26:34Z</time></trkpt><trkpt lat="43.297727523446014" lon="5.371594682367324"><ele>10.8</ele><time>2026-03-24T15:26:38Z</time></trkpt><trkpt lat="43.29770463397906" lon="5.371680484940372"><ele>11.6</ele><time>2026-03-24T15:26:40Z</time></trkpt><trkpt lat="43.297602058623006" lon="5.371510874975068"><ele>12.399999999999999</ele><time>2026-03-24T15:26:41Z</time></trkpt><trkpt lat="43.29752303783762" lon="5.371526436122077"><ele>13.2</ele><time>2026-03-24T15:26:43Z</time></trkpt><trkpt lat="43.297402119406684" lon="5.371547832627132"><ele>14.0</ele><time>2026-03-24T15:26:46Z</time></trkpt><trkpt lat="43.2973079065742" lon="5.371563919826332"><ele>13.0</ele><time>2026-03-24T15:26:48Z</time></trkpt><trkpt lat="43.297239924520454" lon="5.37157705718108"><ele>11.999999999999998</ele><time>2026-03-24T15:26:49Z</time></trkpt><trkpt lat="43.297164588071645" lon="5.37163152173518"><ele>11.0</ele><time>2026-03-24T15:26:50Z</time></trkpt><trkpt lat="43.297065960393645" lon="5.371617939380004"><ele>10.0</ele><time>2026-03-24T15:26:51Z</time></trkpt><trkpt lat="43.29696172551306" lon="5.371666782048945"><ele>9.0</ele><time>2026-03-24T15:26:53Z</time></trkpt><trkpt lat="43.29671010259107" lon="5.3719721402057745"><ele>9.0</ele><time>2026-03-24T15:26:54Z</time></trkpt><trkpt lat="43.2967305501357" lon="5.372148183608959"><ele>9.0</ele><time>2026-03-24T15:26:58Z</time></trkpt><trkpt lat="43.29674213048891" lon="5.372249676233309"><ele>9.0</ele><time>2026-03-24T15:26:59Z</time></trkpt><trkpt lat="43.296758449860576" lon="5.3723983188849145"><ele>9.0</ele><time>2026-03-24T15:27:01Z</time></trkpt><trkpt lat="43.29677606142253" lon="5.372563519590699"><ele>9.0</ele><time>2026-03-24T15:27:02Z</time></trkpt><trkpt lat="43.29680059891244" lon="5.372775739826344"><ele>9.4</ele><time>2026-03-24T15:27:04Z</time></trkpt><trkpt lat="43.296816342967276" lon="5.372912106093639"><ele>9.8</ele><time>2026-03-24T15:27:05Z</time></trkpt><trkpt lat="43.29682883088368" lon="5.373015338258872"><ele>10.200000000000001</ele><time>2026-03-24T15:27:06Z</time></trkpt><trkpt lat="43.296844939149175" lon="5.3731430971456"><ele>10.600000000000001</ele><time>2026-03-24T15:27:08Z</time></trkpt><trkpt lat="43.29686393574818" lon="5.373291730549733"><ele>11.0</ele><time>2026-03-24T15:27:10Z</time></trkpt><trkpt lat="43.2968826395512" lon="5.373428666902898"><ele>11.166666666666666</ele><time>2026-03-24T15:27:13Z</time></trkpt><trkpt lat="43.296882134337295" lon="5.373532306996563"><ele>11.333333333333332</ele><time>2026-03-24T15:27:30Z</time></trkpt><trkpt lat="43.29691530880045" lon="5.373618177217787"><ele>11.5</ele><time>2026-03-24T15:27:33Z</time></trkpt><trkpt lat="43.29681268082002" lon="5.3737063013477755"><ele>11.666666666666666</ele><time>2026-03-24T15:27:37Z</time></trkpt><trkpt lat="43.29675465507719" lon="5.373755637359877"><ele>11.833333333333334</ele><time>2026-03-24T15:27:38Z</time></trkpt><trkpt lat="43.29665857429054" lon="5.373837329478328"><ele>12.0</ele><time>2026-03-24T15:27:41Z</time></trkpt><trkpt lat="43.296543926302775" lon="5.373932506269015"><ele>12.2</ele><time>2026-03-24T15:27:43Z</time></trkpt><trkpt lat="43.29643197894222" lon="5.374020602111026"><ele>12.399999999999999</ele><time>2026-03-24T15:27:45Z</time></trkpt><trkpt lat="43.29632429563222" lon="5.374084364655709"><ele>12.600000000000001</ele><time>2026-03-24T15:27:47Z</time></trkpt><trkpt lat="43.29624408697729" lon="5.374070517878101"><ele>12.8</ele><time>2026-03-24T15:28:28Z</time></trkpt><trkpt lat="43.29614539419654" lon="5.374096599994556"><ele>13.0</ele><time>2026-03-24T15:28:30Z</time></trkpt><trkpt lat="43.29606442640406" lon="5.374137903424973"><ele>11.6</ele><time>2026-03-24T15:28:34Z</time></trkpt><trkpt lat="43.29600101733924" lon="5.37421627916977"><ele>10.200000000000001</ele><time>2026-03-24T15:28:36Z</time></trkpt><trkpt lat="43.29592432256354" lon="5.374272740096187"><ele>8.8</ele><time>2026-03-24T15:28:38Z</time></trkpt><trkpt lat="43.295832220417644" lon="5.374319980669183"><ele>7.4</ele><time>2026-03-24T15:28:40Z</time></trkpt><trkpt lat="43.295711243042525" lon="5.3743460316605365"><ele>6.0</ele><time>2026-03-24T15:28:42Z</time></trkpt><trkpt lat="43.29564482727281" lon="5.374351658580243"><ele>5.3999999999999995</ele><time>2026-03-24T15:28:43Z</time></trkpt><trkpt lat="43.29557957637461" lon="5.3743634322594325"><ele>4.8</ele><time>2026-03-24T15:28:44Z</time></trkpt><trkpt lat="43.29547069056908" lon="5.374392880622853"><ele>4.199999999999999</ele><time>2026-03-24T15:28:46Z</time></trkpt><trkpt lat="43.29534176889924" lon="5.374390015055371"><ele>3.5999999999999996</ele><time>2026-03-24T15:28:48Z</time></trkpt><trkpt lat="43.29522779638341" lon="5.374413366814733"><ele>3.0</ele><time>2026-03-24T15:28:50Z</time></trkpt><trkpt lat="43.295115052412655" lon="5.3744501796285205"><ele>3.0</ele><time>2026-03-24T15:28:52Z</time></trkpt><trkpt lat="43.29505003909916" lon="5.374464746102437"><ele>3.0</ele><time>2026-03-24T15:28:53Z</time></trkpt><trkpt lat="43.29491853725314" lon="5.374498910596558"><ele>3.0</ele><time>2026-03-24T15:28:55Z</time></trkpt><trkpt lat="43.294843606294904" lon="5.374520802913326"><ele>3.0</ele><time>2026-03-24T15:28:56Z</time></trkpt><trkpt lat="43.29477238788794" lon="5.37452322713941"><ele>3.0</ele><time>2026-03-24T15:28:57Z</time></trkpt><trkpt lat="43.29470759162335" lon="5.374533824219808"><ele>3.0</ele><time>2026-03-24T15:28:58Z</time></trkpt><trkpt lat="43.29464501311278" lon="5.37454949474406"><ele>3.833333333333333</ele><time>2026-03-24T15:28:59Z</time></trkpt><trkpt lat="43.294536845204256" lon="5.374561053523992"><ele>4.666666666666666</ele><time>2026-03-24T15:29:01Z</time></trkpt><trkpt lat="43.29447079728986" lon="5.374572274432612"><ele>5.5</ele><time>2026-03-24T15:29:03Z</time></trkpt><trkpt lat="43.29439380784121" lon="5.3745643797630285"><ele>6.333333333333333</ele><time>2026-03-24T15:29:06Z</time></trkpt><trkpt lat="43.2943260239802" lon="5.374544552937218"><ele>7.166666666666666</ele><time>2026-03-24T15:29:09Z</time></trkpt><trkpt lat="43.29426729629523" lon="5.37449099934808"><ele>8.0</ele><time>2026-03-24T15:29:11Z</time></trkpt><trkpt lat="43.29421720632543" lon="5.374412178364354"><ele>7.999999999999999</ele><time>2026-03-24T15:29:14Z</time></trkpt><trkpt lat="43.294167863518034" lon="5.374330103398536"><ele>8.0</ele><time>2026-03-24T15:30:06Z</time></trkpt><trkpt lat="43.294107321512236" lon="5.374259444511785"><ele>8.0</ele><time>2026-03-24T15:30:08Z</time></trkpt><trkpt lat="43.294022101704115" lon="5.374243830018823"><ele>8.0</ele><time>2026-03-24T15:30:10Z</time></trkpt><trkpt lat="43.293938357677185" lon="5.3742549119772836"><ele>7.999999999999999</ele><time>2026-03-24T15:30:11Z</time></trkpt><trkpt lat="43.29384966176175" lon="5.374292592697008"><ele>8.0</ele><time>2026-03-24T15:30:12Z</time></trkpt><trkpt lat="43.29376688885406" lon="5.374334952400357"><ele>8.8</ele><time>2026-03-24T15:30:13Z</time></trkpt><trkpt lat="43.293689258035315" lon="5.374370234074152"><ele>9.600000000000001</ele><time>2026-03-24T15:30:14Z</time></trkpt><trkpt lat="43.29356492699909" lon="5.374458652738739"><ele>10.399999999999999</ele><time>2026-03-24T15:30:16Z</time></trkpt><trkpt lat="43.293450428505544" lon="5.374480095233382"><ele>11.2</ele><time>2026-03-24T15:30:17Z</time></trkpt><trkpt lat="43.29337116087497" lon="5.374503422806655"><ele>12.0</ele><time>2026-03-24T15:30:18Z</time></trkpt><trkpt lat="43.29326531738515" lon="5.374529613447169"><ele>12.0</ele><time>2026-03-24T15:30:19Z</time></trkpt><trkpt lat="43.29317055687472" lon="5.374563177673547"><ele>12.0</ele><time>2026-03-24T15:30:20Z</time></trkpt><trkpt lat="43.29307902365216" lon="5.374610585534029"><ele>12.0</ele><time>2026-03-24T15:30:21Z</time></trkpt><trkpt lat="43.29299193852352" lon="5.374693606143516"><ele>12.0</ele><time>2026-03-24T15:30:22Z</time></trkpt><trkpt lat="43.292910487344216" lon="5.374740425502004"><ele>12.0</ele><time>2026-03-24T15:30:23Z</time></trkpt><trkpt lat="43.29280825646202" lon="5.374792636156857"><ele>13.399999999999999</ele><time>2026-03-24T15:30:24Z</time></trkpt><trkpt lat="43.29270208897375" lon="5.374854921956079"><ele>14.799999999999999</ele><time>2026-03-24T15:30:25Z</time></trkpt><trkpt lat="43.29258234678823" lon="5.374902067854885"><ele>16.2</ele><time>2026-03-24T15:30:26Z</time></trkpt><trkpt lat="43.29250732602411" lon="5.374946474569121"><ele>17.599999999999998</ele><time>2026-03-24T15:30:27Z</time></trkpt><trkpt lat="43.2924101073451" lon="5.374987567694926"><ele>19.0</ele><time>2026-03-24T15:30:28Z</time></trkpt><trkpt lat="43.29232699020382" lon="5.375012700787467"><ele>20.0</ele><time>2026-03-24T15:30:29Z</time></trkpt><trkpt lat="43.29222571052596" lon="5.3750609383063415"><ele>21.0</ele><time>2026-03-24T15:30:30Z</time></trkpt><trkpt lat="43.2920831436807" lon="5.375080360679153"><ele>22.0</ele><time>2026-03-24T15:30:31Z</time></trkpt><trkpt lat="43.29197036839199" lon="5.37514705698296"><ele>23.0</ele><time>2026-03-24T15:30:32Z</time></trkpt><trkpt lat="43.29184890556955" lon="5.375194632903282"><ele>23.0</ele><time>2026-03-24T15:30:33Z</time></trkpt><trkpt lat="43.29173433508923" lon="5.375243763876268"><ele>23.0</ele><time>2026-03-24T15:30:34Z</time></trkpt><trkpt lat="43.29162632469199" lon="5.375290121914194"><ele>23.0</ele><time>2026-03-24T15:30:35Z</time></trkpt><trkpt lat="43.29151773990852" lon="5.3753332023480445"><ele>23.0</ele><time>2026-03-24T15:30:36Z</time></trkpt><trkpt lat="43.291391519307645" lon="5.375382855992521"><ele>22.5</ele><time>2026-03-24T15:30:37Z</time></trkpt><trkpt lat="43.291258294755195" lon="5.375441485748312"><ele>22.0</ele><time>2026-03-24T15:30:38Z</time></trkpt><trkpt lat="43.29114389905553" lon="5.375483521275656"><ele>21.5</ele><time>2026-03-24T15:30:39Z</time></trkpt><trkpt lat="43.29104407776017" lon="5.37552260484393"><ele>21.0</ele><time>2026-03-24T15:30:40Z</time></trkpt><trkpt lat="43.29090946558569" lon="5.375585367046828"><ele>20.833333333333332</ele><time>2026-03-24T15:30:41Z</time></trkpt><trkpt lat="43.29083110475464" lon="5.375631785400123"><ele>20.666666666666668</ele><time>2026-03-24T15:30:42Z</time></trkpt><trkpt lat="43.29075467263115" lon="5.375665523020902"><ele>20.5</ele><time>2026-03-24T15:30:44Z</time></trkpt><trkpt lat="43.290678860079176" lon="5.375686981627575"><ele>20.333333333333336</ele><time>2026-03-24T15:30:45Z</time></trkpt><trkpt lat="43.29060799813794" lon="5.375704725036746"><ele>20.166666666666668</ele><time>2026-03-24T15:30:46Z</time></trkpt><trkpt lat="43.290536762690955" lon="5.375738750524374"><ele>20.0</ele><time>2026-03-24T15:30:47Z</time></trkpt><trkpt lat="43.2904576571596" lon="5.375776918691957"><ele>20.833333333333336</ele><time>2026-03-24T15:30:48Z</time></trkpt><trkpt lat="43.29036195424995" lon="5.375813218659992"><ele>21.666666666666668</ele><time>2026-03-24T15:30:49Z</time></trkpt><trkpt lat="43.290292557454265" lon="5.375848829933542"><ele>22.5</ele><time>2026-03-24T15:30:50Z</time></trkpt><trkpt lat="43.290230310580576" lon="5.375885736866406"><ele>23.333333333333336</ele><time>2026-03-24T15:30:51Z</time></trkpt><trkpt lat="43.29012609164397" lon="5.375935145528874"><ele>24.166666666666668</ele><time>2026-03-24T15:30:52Z</time></trkpt><trkpt lat="43.29005108066093" lon="5.37594631472612"><ele>25.0</ele><time>2026-03-24T15:30:53Z</time></trkpt><trkpt lat="43.28996974227409" lon="5.375980037159744"><ele>25.0</ele><time>2026-03-24T15:30:54Z</time></trkpt><trkpt lat="43.28986058637663" lon="5.376025462467946"><ele>25.0</ele><time>2026-03-24T15:30:55Z</time></trkpt><trkpt lat="43.28977488125659" lon="5.376058938778085"><ele>25.0</ele><time>2026-03-24T15:30:56Z</time></trkpt><trkpt lat="43.2896539578599" lon="5.376106631113968"><ele>25.0</ele><time>2026-03-24T15:30:58Z</time></trkpt><trkpt lat="43.289554294945816" lon="5.376146837699436"><ele>25.0</ele><time>2026-03-24T15:31:00Z</time></trkpt><trkpt lat="43.28947773275882" lon="5.376164669488135"><ele>26.75</ele><time>2026-03-24T15:31:01Z</time></trkpt><trkpt lat="43.28939492190532" lon="5.37619878144489"><ele>28.5</ele><time>2026-03-24T15:31:03Z</time></trkpt><trkpt lat="43.28915309152433" lon="5.376286147327986"><ele>30.25</ele><time>2026-03-24T15:31:05Z</time></trkpt><trkpt lat="43.28906567739241" lon="5.376320965874317"><ele>32.0</ele><time>2026-03-24T15:31:06Z</time></trkpt><trkpt lat="43.2889868187926" lon="5.376340065936785"><ele>32.33333333333333</ele><time>2026-03-24T15:31:07Z</time></trkpt><trkpt lat="43.28890094597326" lon="5.376397279938988"><ele>32.666666666666664</ele><time>2026-03-24T15:31:11Z</time></trkpt><trkpt lat="43.28879713390206" lon="5.376428264652322"><ele>33.0</ele><time>2026-03-24T15:31:34Z</time></trkpt><trkpt lat="43.28871478902122" lon="5.37646121779725"><ele>33.333333333333336</ele><time>2026-03-24T15:31:36Z</time></trkpt><trkpt lat="43.28864137682804" lon="5.376490596301237"><ele>33.66666666666667</ele><time>2026-03-24T15:31:37Z</time></trkpt><trkpt lat="43.28857058481464" lon="5.376520422947776"><ele>34.0</ele><time>2026-03-24T15:31:38Z</time></trkpt><trkpt lat="43.288483577917184" lon="5.376556873252064"><ele>34.0</ele><time>2026-03-24T15:31:39Z</time></trkpt><trkpt lat="43.28841173101074" lon="5.376586972498873"><ele>34.0</ele><time>2026-03-24T15:31:40Z</time></trkpt><trkpt lat="43.288299671363134" lon="5.376633627739392"><ele>34.0</ele><time>2026-03-24T15:31:42Z</time></trkpt><trkpt lat="43.28822951120188" lon="5.376679212696822"><ele>34.0</ele><time>2026-03-24T15:31:46Z</time></trkpt><trkpt lat="43.28815480478129" lon="5.3767166590296736"><ele>34.0</ele><time>2026-03-24T15:31:47Z</time></trkpt><trkpt lat="43.28804385829081" lon="5.376757391127066"><ele>34.833333333333336</ele><time>2026-03-24T15:31:48Z</time></trkpt><trkpt lat="43.287962064983546" lon="5.376785601940206"><ele>35.66666666666667</ele><time>2026-03-24T15:31:49Z</time></trkpt><trkpt lat="43.28789118848869" lon="5.376816589752435"><ele>36.5</ele><time>2026-03-24T15:31:50Z</time></trkpt><trkpt lat="43.2878187310575" lon="5.376848741932189"><ele>37.333333333333336</ele><time>2026-03-24T15:31:51Z</time></trkpt><trkpt lat="43.28772513216595" lon="5.376900870084814"><ele>38.166666666666664</ele><time>2026-03-24T15:31:53Z</time></trkpt><trkpt lat="43.28762691091446" lon="5.376937611884894"><ele>39.0</ele><time>2026-03-24T15:31:55Z</time></trkpt><trkpt lat="43.28755852951686" lon="5.376933794463375"><ele>39.0</ele><time>2026-03-24T15:31:57Z</time></trkpt><trkpt lat="43.28744950682945" lon="5.376978722261721"><ele>39.0</ele><time>2026-03-24T15:32:03Z</time></trkpt><trkpt lat="43.28737221847875" lon="5.377010075001165"><ele>39.0</ele><time>2026-03-24T15:32:04Z</time></trkpt><trkpt lat="43.287277905339764" lon="5.37703674180513"><ele>39.0</ele><time>2026-03-24T15:32:05Z</time></trkpt><trkpt lat="43.287186735891794" lon="5.377087367911091"><ele>39.0</ele><time>2026-03-24T15:32:06Z</time></trkpt><trkpt lat="43.28708636129566" lon="5.377151630846181"><ele>40.5</ele><time>2026-03-24T15:32:07Z</time></trkpt><trkpt lat="43.286970095284296" lon="5.377204239556085"><ele>42.0</ele><time>2026-03-24T15:32:08Z</time></trkpt><trkpt lat="43.28685354522117" lon="5.377252441563013"><ele>43.5</ele><time>2026-03-24T15:32:09Z</time></trkpt><trkpt lat="43.286714638645016" lon="5.377300256972536"><ele>45.0</ele><time>2026-03-24T15:32:10Z</time></trkpt><trkpt lat="43.28660119133339" lon="5.377340801007715"><ele>45.0</ele><time>2026-03-24T15:32:11Z</time></trkpt><trkpt lat="43.286488257951376" lon="5.377386783472467"><ele>45.0</ele><time>2026-03-24T15:32:12Z</time></trkpt><trkpt lat="43.28638611668057" lon="5.377430367763392"><ele>45.0</ele><time>2026-03-24T15:32:13Z</time></trkpt><trkpt lat="43.2862889058595" lon="5.377469982443763"><ele>45.0</ele><time>2026-03-24T15:32:14Z</time></trkpt><trkpt lat="43.2861737257575" lon="5.377514838373853"><ele>45.0</ele><time>2026-03-24T15:32:15Z</time></trkpt><trkpt lat="43.28606552456529" lon="5.377562954609688"><ele>46.0</ele><time>2026-03-24T15:32:16Z</time></trkpt><trkpt lat="43.285997293956015" lon="5.377589256641169"><ele>47.0</ele><time>2026-03-24T15:32:17Z</time></trkpt><trkpt lat="43.285916197537595" lon="5.377626117392128"><ele>48.0</ele><time>2026-03-24T15:32:18Z</time></trkpt><trkpt lat="43.28582106026685" lon="5.377669547188017"><ele>49.0</ele><time>2026-03-24T15:32:19Z</time></trkpt><trkpt lat="43.28572640857725" lon="5.377717374921007"><ele>50.0</ele><time>2026-03-24T15:32:20Z</time></trkpt><trkpt lat="43.285655149484896" lon="5.377726363310857"><ele>51.0</ele><time>2026-03-24T15:32:22Z</time></trkpt><trkpt lat="43.285553857473325" lon="5.377450819378331"><ele>52.599999999999994</ele><time>2026-03-24T15:32:24Z</time></trkpt><trkpt lat="43.285481301571934" lon="5.377409731632171"><ele>54.2</ele><time>2026-03-24T15:32:25Z</time></trkpt><trkpt lat="43.28538667873298" lon="5.3773648921584645"><ele>55.800000000000004</ele><time>2026-03-24T15:32:26Z</time></trkpt><trkpt lat="43.285301184268945" lon="5.377314229242196"><ele>57.400000000000006</ele><time>2026-03-24T15:32:27Z</time></trkpt><trkpt lat="43.28519559988645" lon="5.377185513044715"><ele>59.0</ele><time>2026-03-24T15:32:28Z</time></trkpt><trkpt lat="43.285086311012414" lon="5.377036555340748"><ele>59.0</ele><time>2026-03-24T15:32:29Z</time></trkpt><trkpt lat="43.28499844135166" lon="5.376932600569335"><ele>59.0</ele><time>2026-03-24T15:32:30Z</time></trkpt><trkpt lat="43.284884096597644" lon="5.376810465635827"><ele>59.0</ele><time>2026-03-24T15:32:31Z</time></trkpt><trkpt lat="43.28478462594008" lon="5.3767151926311625"><ele>59.0</ele><time>2026-03-24T15:32:32Z</time></trkpt><trkpt lat="43.28466958014106" lon="5.3765826108569525"><ele>61.0</ele><time>2026-03-24T15:32:33Z</time></trkpt><trkpt lat="43.284585950874" lon="5.376469433277135"><ele>63.0</ele><time>2026-03-24T15:32:34Z</time></trkpt><trkpt lat="43.284478212972395" lon="5.376337614387305"><ele>65.0</ele><time>2026-03-24T15:32:35Z</time></trkpt><trkpt lat="43.28438229557394" lon="5.376228749256207"><ele>67.0</ele><time>2026-03-24T15:32:36Z</time></trkpt><trkpt lat="43.2842949984478" lon="5.3761297377142885"><ele>67.5</ele><time>2026-03-24T15:32:37Z</time></trkpt><trkpt lat="43.28417843540512" lon="5.376072618543565"><ele>68.0</ele><time>2026-03-24T15:32:38Z</time></trkpt><trkpt lat="43.28408238131676" lon="5.375966527212594"><ele>68.5</ele><time>2026-03-24T15:32:39Z</time></trkpt><trkpt lat="43.28403144627163" lon="5.375797355611982"><ele>69.0</ele><time>2026-03-24T15:32:40Z</time></trkpt><trkpt lat="43.28395774943795" lon="5.375712573797249"><ele>70.33333333333333</ele><time>2026-03-24T15:32:41Z</time></trkpt><trkpt lat="43.28392332170365" lon="5.375595032782483"><ele>71.66666666666667</ele><time>2026-03-24T15:32:42Z</time></trkpt><trkpt lat="43.28385254170808" lon="5.375542056852843"><ele>73.0</ele><time>2026-03-24T15:32:43Z</time></trkpt><trkpt lat="43.28378200983697" lon="5.3754601491812535"><ele>74.33333333333334</ele><time>2026-03-24T15:32:45Z</time></trkpt><trkpt lat="43.28373127748777" lon="5.375327347470123"><ele>75.66666666666667</ele><time>2026-03-24T15:33:27Z</time></trkpt><trkpt lat="43.28371187563707" lon="5.3752331536081"><ele>77.0</ele><time>2026-03-24T15:33:29Z</time></trkpt><trkpt lat="43.28362611797103" lon="5.375159664670198"><ele>77.0</ele><time>2026-03-24T15:33:31Z</time></trkpt><trkpt lat="43.28352156340249" lon="5.375067296311"><ele>77.0</ele><time>2026-03-24T15:33:33Z</time></trkpt><trkpt lat="43.28341043071435" lon="5.374974493383744"><ele>77.0</ele><time>2026-03-24T15:33:35Z</time></trkpt><trkpt lat="43.28329357073474" lon="5.374869771554884"><ele>77.0</ele><time>2026-03-24T15:33:36Z</time></trkpt><trkpt lat="43.2831975852244" lon="5.374756624909322"><ele>79.33333333333334</ele><time>2026-03-24T15:33:37Z</time></trkpt><trkpt lat="43.283113904418265" lon="5.374649684444266"><ele>81.66666666666667</ele><time>2026-03-24T15:33:38Z</time></trkpt><trkpt lat="43.28290788147722" lon="5.374422563704275"><ele>84.0</ele><time>2026-03-24T15:33:39Z</time></trkpt><trkpt lat="43.28286067388596" lon="5.374347362389384"><ele>84.4</ele><time>2026-03-24T15:33:40Z</time></trkpt><trkpt lat="43.28277610643797" lon="5.374240482473356"><ele>84.80000000000001</ele><time>2026-03-24T15:33:42Z</time></trkpt><trkpt lat="43.282703425950615" lon="5.3741684214551615"><ele>85.19999999999999</ele><time>2026-03-24T15:33:44Z</time></trkpt><trkpt lat="43.28273556794037" lon="5.3740924387150955"><ele>85.6</ele><time>2026-03-24T15:33:45Z</time></trkpt><trkpt lat="43.282722313712725" lon="5.373934422043709"><ele>86.0</ele><time>2026-03-24T15:33:47Z</time></trkpt><trkpt lat="43.28274696599418" lon="5.373844718489594"><ele>86.5</ele><time>2026-03-24T15:33:48Z</time></trkpt><trkpt lat="43.282802116336356" lon="5.373769562570515"><ele>87.0</ele><time>2026-03-24T15:33:49Z</time></trkpt><trkpt lat="43.282849825432336" lon="5.373671582907291"><ele>87.5</ele><time>2026-03-24T15:33:50Z</time></trkpt><trkpt lat="43.282913091539605" lon="5.373707697761908"><ele>88.0</ele><time>2026-03-24T15:33:52Z</time></trkpt><trkpt lat="43.282913758715495" lon="5.373610039766575"><ele>88.5</ele><time>2026-03-24T15:33:53Z</time></trkpt><trkpt lat="43.28294131563918" lon="5.373489517571357"><ele>89.0</ele><time>2026-03-24T15:33:55Z</time></trkpt><trkpt lat="43.28299962084972" lon="5.373535652960622"><ele>89.0</ele><time>2026-03-24T15:33:56Z</time></trkpt><trkpt lat="43.28306964788637" lon="5.373561719360896"><ele>89.0</ele><time>2026-03-24T15:33:57Z</time></trkpt><trkpt lat="43.28317856267108" lon="5.3735685693268405"><ele>89.0</ele><time>2026-03-24T15:33:59Z</time></trkpt><trkpt lat="43.28324439665928" lon="5.373541073253089"><ele>89.0</ele><time>2026-03-24T15:34:01.02Z</time></trkpt><trkpt lat="43.28331416681836" lon="5.373508483445227"><ele>89.0</ele><time>2026-03-24T15:34:03.019Z</time></trkpt><trkpt lat="43.283469145732774" lon="5.373572442115383"><ele>90.0</ele><time>2026-03-24T15:34:08Z</time></trkpt><trkpt lat="43.283618754940605" lon="5.37364747495478"><ele>91.0</ele><time>2026-03-24T15:34:09Z</time></trkpt><trkpt lat="43.28384926092135" lon="5.3734720865166175"><ele>92.0</ele><time>2026-03-24T15:34:10Z</time></trkpt><trkpt lat="43.28388908220838" lon="5.37330776372488"><ele>92.0</ele><time>2026-03-24T15:34:12Z</time></trkpt><trkpt lat="43.28387366260514" lon="5.373196230762809"><ele>92.0</ele><time>2026-03-24T15:34:14Z</time></trkpt><trkpt lat="43.283920841091344" lon="5.373098400029924"><ele>92.0</ele><time>2026-03-24T15:34:15Z</time></trkpt><trkpt lat="43.28398193755479" lon="5.373003758131575"><ele>92.0</ele><time>2026-03-24T15:34:16Z</time></trkpt><trkpt lat="43.283997182656705" lon="5.372878377702636"><ele>92.0</ele><time>2026-03-24T15:34:17Z</time></trkpt><trkpt lat="43.284122978584044" lon="5.3727824845629515"><ele>95.39999999999999</ele><time>2026-03-24T15:34:18Z</time></trkpt><trkpt lat="43.28419215624892" lon="5.372710110620263"><ele>98.8</ele><time>2026-03-24T15:34:19Z</time></trkpt><trkpt lat="43.284320291495" lon="5.372627813339198"><ele>102.2</ele><time>2026-03-24T15:34:21Z</time></trkpt><trkpt lat="43.284390821012664" lon="5.3726276663561965"><ele>105.6</ele><time>2026-03-24T15:34:22Z</time></trkpt><trkpt lat="43.28451808857363" lon="5.372697305654489"><ele>109.0</ele><time>2026-03-24T15:34:23Z</time></trkpt><trkpt lat="43.28469499378748" lon="5.37284162386358"><ele>107.6</ele><time>2026-03-24T15:34:24Z</time></trkpt><trkpt lat="43.28478061816242" lon="5.372832208197117"><ele>106.2</ele><time>2026-03-24T15:34:25Z</time></trkpt><trkpt lat="43.28484794991462" lon="5.372862616987678"><ele>104.8</ele><time>2026-03-24T15:34:26Z</time></trkpt><trkpt lat="43.2849442659259" lon="5.372842092033853"><ele>103.39999999999999</ele><time>2026-03-24T15:34:27Z</time></trkpt><trkpt lat="43.28502388792843" lon="5.372758181533545"><ele>102.0</ele><time>2026-03-24T15:34:28Z</time></trkpt><trkpt lat="43.28510334033099" lon="5.372680578267253"><ele>102.0</ele><time>2026-03-24T15:34:29Z</time></trkpt><trkpt lat="43.285164533051415" lon="5.372511171511732"><ele>102.0</ele><time>2026-03-24T15:34:30Z</time></trkpt><trkpt lat="43.28523675152317" lon="5.3724307875875885"><ele>102.0</ele><time>2026-03-24T15:34:31Z</time></trkpt><trkpt lat="43.28530463373529" lon="5.372334570671322"><ele>102.0</ele><time>2026-03-24T15:34:32Z</time></trkpt><trkpt lat="43.28542322383219" lon="5.372293604043977"><ele>102.0</ele><time>2026-03-24T15:34:33Z</time></trkpt><trkpt lat="43.2855479711579" lon="5.372264584529487"><ele>102.0</ele><time>2026-03-24T15:34:34Z</time></trkpt><trkpt lat="43.285625318866636" lon="5.372200165063213"><ele>102.0</ele><time>2026-03-24T15:34:35Z</time></trkpt><trkpt lat="43.28568416440366" lon="5.372149417750825"><ele>102.0</ele><time>2026-03-24T15:34:36Z</time></trkpt><trkpt lat="43.28577631965066" lon="5.372043798409949"><ele>102.0</ele><time>2026-03-24T15:34:38Z</time></trkpt><trkpt lat="43.28585207925924" lon="5.371923650909751"><ele>101.25</ele><time>2026-03-24T15:34:40Z</time></trkpt><trkpt lat="43.285918167997814" lon="5.371840784116161"><ele>100.5</ele><time>2026-03-24T15:34:41Z</time></trkpt><trkpt lat="43.28594251254557" lon="5.371745042997852"><ele>99.75</ele><time>2026-03-24T15:34:42Z</time></trkpt><trkpt lat="43.28595447440388" lon="5.371646284298882"><ele>99.0</ele><time>2026-03-24T15:34:44Z</time></trkpt><trkpt lat="43.285531975413654" lon="5.371582257677083"><ele>103.0</ele><time>2026-03-24T15:34:45Z</time></trkpt><trkpt lat="43.285419981521024" lon="5.371520162343077"><ele>107.0</ele><time>2026-03-24T15:34:46Z</time></trkpt><trkpt lat="43.28527128972562" lon="5.371415949916196"><ele>111.0</ele><time>2026-03-24T15:34:48Z</time></trkpt><trkpt lat="43.28504289951151" lon="5.371214127417241"><ele>111.0</ele><time>2026-03-24T15:34:49Z</time></trkpt><trkpt lat="43.28505133773169" lon="5.371128219345798"><ele>111.0</ele><time>2026-03-24T15:34:50Z</time></trkpt><trkpt lat="43.28502462896975" lon="5.371008340994365"><ele>111.0</ele><time>2026-03-24T15:34:52Z</time></trkpt><trkpt lat="43.28496692244492" lon="5.371156933549383"><ele>111.0</ele><time>2026-03-24T15:34:59Z</time></trkpt><trkpt lat="43.28496383456619" lon="5.371296430333182"><ele>111.0</ele><time>2026-03-24T15:35:01Z</time></trkpt><trkpt lat="43.28495070596749" lon="5.371449866114509"><ele>113.5</ele><time>2026-03-24T15:35:03Z</time></trkpt><trkpt lat="43.28489693014819" lon="5.371828533504566"><ele>116.0</ele><time>2026-03-24T15:35:04Z</time></trkpt><trkpt lat="43.28477020624247" lon="5.372045348948552"><ele>120.4</ele><time>2026-03-24T15:35:06Z</time></trkpt><trkpt lat="43.28469090655634" lon="5.372116415145446"><ele>124.8</ele><time>2026-03-24T15:35:07Z</time></trkpt><trkpt lat="43.28457869673783" lon="5.372082463217485"><ele>129.20000000000002</ele><time>2026-03-24T15:35:09Z</time></trkpt><trkpt lat="43.28455488210974" lon="5.371972198439351"><ele>133.6</ele><time>2026-03-24T15:35:10Z</time></trkpt><trkpt lat="43.28447864055422" lon="5.37191212517611"><ele>138.0</ele><time>2026-03-24T15:35:11Z</time></trkpt><trkpt lat="43.28440711026488" lon="5.37185431190693"><ele>138.0</ele><time>2026-03-24T15:35:12Z</time></trkpt><trkpt lat="43.284611597504785" lon="5.371865978679398"><ele>138.0</ele><time>2026-03-24T15:35:17Z</time></trkpt><trkpt lat="43.28469797558184" lon="5.371821048684541"><ele>138.0</ele><time>2026-03-24T15:35:20Z</time></trkpt></trkseg></trk></gpx>